CPA835 KJFK-VHHH
Flight info
| Callsign | CPA835 |
|---|---|
| Flight time | N/A |
| Altitude | 29000 |
| Route | GREKI DCT JUDDS DCT CAM/N0482F280 DCT YVO/N0489F300 DCT 50N080W 55N084W 59N090W 63N100W 65N110W/N0490F320 66N120W 67N130W DCT GOATS DCT BTT NCA30 OME/N0493F340 R338 NATES R220 NIKLL/N0488F350 R220 NOGAL/N0496F360 R220 IXE Y88 NAKTU Y12 KOHWA Y54 TURFY Y24 SUC/N0483F380 Y24 KOSHI Y50 IGMON A1 APU DCT MKG A1 ELATO V522 ABBEY |
| Aircraft | B77W/H-SDE1E2E3FGHIJ2J3J4J5M1RWXY/LB1D1 |
Departure
| Time | 2026-05-09 08:56 |
|---|---|
| Airport | John F. Kennedy International Airport (KJFK) |
Arrival
| Time | N/A |
|---|---|
| Airport | Hong Kong International Airport (VHHH) |
| Time | Latitude | Longitude | Altitude | Speed | Heading |
|---|---|---|---|---|---|
| 2026-05-09 08:33 | 40.64703 | -73.79246 | 22 ft | 0 kts | 345° |
| 2026-05-09 08:44 | 40.64703 | -73.79245 | 22 ft | 0 kts | 345° |
| 2026-05-09 08:45 | 40.64687 | -73.79239 | 26 ft | 3 kts | 337° |
| 2026-05-09 08:45 | 40.64668 | -73.79226 | 26 ft | 3 kts | 317° |
| 2026-05-09 08:45 | 40.64655 | -73.79204 | 26 ft | 3 kts | 287° |
| 2026-05-09 08:45 | 40.64652 | -73.79189 | 27 ft | 1 kts | 263° |
| 2026-05-09 08:48 | 40.64649 | -73.79198 | 26 ft | 5 kts | 242° |
| 2026-05-09 08:48 | 40.64614 | -73.79280 | 26 ft | 10 kts | 252° |
| 2026-05-09 08:48 | 40.64624 | -73.79374 | 23 ft | 11 kts | 271° |
| 2026-05-09 08:48 | 40.64609 | -73.79483 | 26 ft | 13 kts | 259° |
| 2026-05-09 08:49 | 40.64569 | -73.79587 | 27 ft | 13 kts | 215° |
| 2026-05-09 08:49 | 40.64469 | -73.79595 | 28 ft | 16 kts | 178° |
| 2026-05-09 08:49 | 40.64353 | -73.79592 | 28 ft | 18 kts | 181° |
| 2026-05-09 08:49 | 40.64284 | -73.79595 | 30 ft | 0 kts | 182° |
| 2026-05-09 08:50 | 40.64273 | -73.79596 | 28 ft | 3 kts | 184° |
| 2026-05-09 08:50 | 40.64240 | -73.79600 | 28 ft | 6 kts | 185° |
| 2026-05-09 08:50 | 40.64169 | -73.79609 | 29 ft | 15 kts | 184° |
| 2026-05-09 08:51 | 40.64043 | -73.79571 | 28 ft | 23 kts | 151° |
| 2026-05-09 08:51 | 40.63936 | -73.79401 | 31 ft | 21 kts | 121° |
| 2026-05-09 08:51 | 40.63876 | -73.79265 | 27 ft | 17 kts | 120° |
| 2026-05-09 08:51 | 40.63810 | -73.79119 | 28 ft | 20 kts | 120° |
| 2026-05-09 08:52 | 40.63732 | -73.78944 | 29 ft | 24 kts | 120° |
| 2026-05-09 08:52 | 40.63640 | -73.78743 | 27 ft | 27 kts | 122° |
| 2026-05-09 08:52 | 40.63551 | -73.78557 | 26 ft | 17 kts | 122° |
| 2026-05-09 08:52 | 40.63479 | -73.78405 | 26 ft | 22 kts | 122° |
| 2026-05-09 08:53 | 40.63397 | -73.78215 | 26 ft | 26 kts | 119° |
| 2026-05-09 08:53 | 40.63308 | -73.78001 | 26 ft | 21 kts | 147° |
| 2026-05-09 08:53 | 40.63156 | -73.78021 | 28 ft | 24 kts | 190° |
| 2026-05-09 08:53 | 40.62994 | -73.78130 | 31 ft | 28 kts | 211° |
| 2026-05-09 08:54 | 40.62811 | -73.78271 | 30 ft | 32 kts | 210° |
| 2026-05-09 08:54 | 40.62613 | -73.78427 | 28 ft | 35 kts | 211° |
| 2026-05-09 08:54 | 40.62451 | -73.78554 | 27 ft | 24 kts | 210° |
| 2026-05-09 08:54 | 40.62320 | -73.78507 | 29 ft | 19 kts | 90° |
| 2026-05-09 08:55 | 40.62433 | -73.78385 | 29 ft | 32 kts | 30° |
| 2026-05-09 08:55 | 40.62868 | -73.78045 | 28 ft | 114 kts | 31° |
| 2026-05-09 08:55 | 40.63777 | -73.77329 | 30 ft | 191 kts | 31° |
| 2026-05-09 08:55 | 40.65048 | -73.76281 | 335 ft | 231 kts | 34° |
| 2026-05-09 08:56 | 40.66460 | -73.75051 | 1122 ft | 259 kts | 33° |
| 2026-05-09 08:56 | 40.68205 | -73.73892 | 1576 ft | 300 kts | 21° |
| 2026-05-09 08:56 | 40.70177 | -73.72941 | 2511 ft | 305 kts | 18° |
| 2026-05-09 08:56 | 40.72147 | -73.72031 | 3578 ft | 294 kts | 18° |
| 2026-05-09 08:57 | 40.74055 | -73.71127 | 4387 ft | 292 kts | 17° |
| 2026-05-09 08:57 | 40.75976 | -73.70188 | 4975 ft | 296 kts | 17° |
| 2026-05-09 08:57 | 40.77915 | -73.69214 | 5575 ft | 299 kts | 17° |
| 2026-05-09 08:57 | 40.79862 | -73.68215 | 6199 ft | 302 kts | 17° |
| 2026-05-09 08:58 | 40.81823 | -73.67193 | 6796 ft | 304 kts | 17° |
| 2026-05-09 08:58 | 40.83791 | -73.66157 | 7400 ft | 306 kts | 17° |
| 2026-05-09 08:58 | 40.85775 | -73.65105 | 7943 ft | 309 kts | 17° |
| 2026-05-09 08:58 | 40.87775 | -73.64039 | 8547 ft | 310 kts | 16° |
| 2026-05-09 08:59 | 40.89786 | -73.62963 | 9128 ft | 313 kts | 16° |
| 2026-05-09 08:59 | 40.91781 | -73.61895 | 9694 ft | 315 kts | 15° |
| 2026-05-09 08:59 | 40.93818 | -73.60802 | 10220 ft | 317 kts | 15° |
| 2026-05-09 08:59 | 40.95868 | -73.59701 | 10734 ft | 319 kts | 15° |
| 2026-05-09 09:00 | 40.97926 | -73.58594 | 11245 ft | 321 kts | 15° |
| 2026-05-09 09:00 | 41.00003 | -73.57476 | 11739 ft | 323 kts | 15° |
| 2026-05-09 09:00 | 41.02090 | -73.56351 | 12243 ft | 325 kts | 15° |
| 2026-05-09 09:00 | 41.04193 | -73.55216 | 12723 ft | 327 kts | 15° |
| 2026-05-09 09:01 | 41.06306 | -73.54077 | 13230 ft | 329 kts | 15° |
| 2026-05-09 09:01 | 41.08428 | -73.52929 | 13739 ft | 330 kts | 15° |
| 2026-05-09 09:01 | 41.10565 | -73.51774 | 14170 ft | 333 kts | 15° |
| 2026-05-09 09:01 | 41.12722 | -73.50608 | 14558 ft | 337 kts | 15° |
| 2026-05-09 09:02 | 41.14905 | -73.49428 | 14961 ft | 340 kts | 15° |
| 2026-05-09 09:02 | 41.17108 | -73.48235 | 15409 ft | 343 kts | 14° |
| 2026-05-09 09:02 | 41.19327 | -73.47032 | 15860 ft | 346 kts | 14° |
| 2026-05-09 09:02 | 41.21567 | -73.45816 | 16316 ft | 350 kts | 15° |
| 2026-05-09 09:03 | 41.23841 | -73.44584 | 16619 ft | 359 kts | 15° |
| 2026-05-09 09:03 | 41.26203 | -73.43310 | 16723 ft | 374 kts | 15° |
| 2026-05-09 09:03 | 41.28663 | -73.41976 | 16859 ft | 389 kts | 15° |
| 2026-05-09 09:03 | 41.31221 | -73.40585 | 16985 ft | 405 kts | 15° |
| 2026-05-09 09:04 | 41.33875 | -73.39137 | 17127 ft | 420 kts | 16° |
| 2026-05-09 09:04 | 41.36609 | -73.37641 | 17403 ft | 430 kts | 16° |
| 2026-05-09 09:04 | 41.39406 | -73.36108 | 17806 ft | 438 kts | 16° |
| 2026-05-09 09:04 | 41.42236 | -73.34559 | 18384 ft | 441 kts | 16° |
| 2026-05-09 09:05 | 41.45069 | -73.32950 | 18904 ft | 446 kts | 20° |
| 2026-05-09 09:05 | 41.47790 | -73.30892 | 19414 ft | 454 kts | 28° |
| 2026-05-09 09:05 | 41.50350 | -73.28358 | 19896 ft | 463 kts | 35° |
| 2026-05-09 09:05 | 41.52706 | -73.25370 | 20335 ft | 470 kts | 40° |
| 2026-05-09 09:06 | 41.54963 | -73.22252 | 20747 ft | 474 kts | 40° |
| 2026-05-09 09:06 | 41.57278 | -73.19093 | 21165 ft | 478 kts | 39° |
| 2026-05-09 09:06 | 41.59671 | -73.15901 | 21578 ft | 479 kts | 37° |
| 2026-05-09 09:06 | 41.62299 | -73.13279 | 21815 ft | 467 kts | 18° |
| 2026-05-09 09:07 | 41.65283 | -73.11924 | 22178 ft | 453 kts | 2° |
| 2026-05-09 09:07 | 41.68367 | -73.11530 | 22671 ft | 439 kts | 349° |
| 2026-05-09 09:07 | 41.71363 | -73.11907 | 23102 ft | 432 kts | 343° |
| 2026-05-09 09:07 | 41.74354 | -73.12452 | 23454 ft | 435 kts | 342° |
| 2026-05-09 09:08 | 41.77362 | -73.13025 | 23851 ft | 437 kts | 342° |
| 2026-05-09 09:08 | 41.80375 | -73.13594 | 24270 ft | 438 kts | 342° |
| 2026-05-09 09:08 | 41.83400 | -73.14150 | 24709 ft | 439 kts | 343° |
| 2026-05-09 09:08 | 41.86430 | -73.14692 | 25125 ft | 440 kts | 343° |
| 2026-05-09 09:09 | 41.89475 | -73.15226 | 25494 ft | 442 kts | 343° |
| 2026-05-09 09:09 | 41.92528 | -73.15756 | 25842 ft | 444 kts | 343° |
| 2026-05-09 09:09 | 41.95604 | -73.16286 | 26215 ft | 445 kts | 343° |
| 2026-05-09 09:09 | 41.98687 | -73.16814 | 26598 ft | 447 kts | 343° |
| 2026-05-09 09:10 | 42.01785 | -73.17346 | 26889 ft | 450 kts | 343° |
| 2026-05-09 09:10 | 42.04904 | -73.17883 | 27203 ft | 452 kts | 343° |
| 2026-05-09 09:10 | 42.07983 | -73.18412 | 27551 ft | 453 kts | 343° |
| 2026-05-09 09:10 | 42.11110 | -73.18950 | 27886 ft | 454 kts | 342° |
| 2026-05-09 09:11 | 42.14268 | -73.19498 | 27943 ft | 459 kts | 343° |
| 2026-05-09 09:11 | 42.17453 | -73.20051 | 27979 ft | 464 kts | 343° |
| 2026-05-09 09:11 | 42.20675 | -73.20610 | 28007 ft | 468 kts | 343° |
| 2026-05-09 09:11 | 42.23920 | -73.21173 | 27992 ft | 472 kts | 343° |
| 2026-05-09 09:12 | 42.26126 | -73.21555 | 28008 ft | 474 kts | 343° |
| 2026-05-09 09:12 | 42.29409 | -73.22123 | 27976 ft | 475 kts | 343° |
| 2026-05-09 09:12 | 42.32641 | -73.22679 | 28004 ft | 475 kts | 343° |
| 2026-05-09 09:12 | 42.35918 | -73.23244 | 27998 ft | 475 kts | 343° |
| 2026-05-09 09:13 | 42.39193 | -73.23812 | 28041 ft | 475 kts | 343° |
| 2026-05-09 09:13 | 42.42471 | -73.24384 | 27993 ft | 474 kts | 342° |
| 2026-05-09 09:13 | 42.45737 | -73.24954 | 28000 ft | 473 kts | 342° |
| 2026-05-09 09:13 | 42.48998 | -73.25522 | 27992 ft | 472 kts | 342° |
| 2026-05-09 09:14 | 42.52253 | -73.26091 | 27989 ft | 471 kts | 342° |
| 2026-05-09 09:14 | 42.55502 | -73.26658 | 27994 ft | 470 kts | 342° |
| 2026-05-09 09:14 | 42.58744 | -73.27226 | 28012 ft | 470 kts | 342° |
| 2026-05-09 09:15 | 42.65241 | -73.28363 | 27988 ft | 470 kts | 342° |
| 2026-05-09 09:15 | 42.71724 | -73.29506 | 28014 ft | 470 kts | 342° |
| 2026-05-09 09:16 | 42.78222 | -73.30652 | 28025 ft | 471 kts | 342° |
| 2026-05-09 09:16 | 42.87978 | -73.32376 | 28003 ft | 471 kts | 342° |
| 2026-05-09 09:17 | 42.91224 | -73.32950 | 27991 ft | 470 kts | 342° |
| 2026-05-09 09:17 | 42.94463 | -73.33538 | 27990 ft | 468 kts | 341° |
| 2026-05-09 09:17 | 42.97608 | -73.34474 | 27987 ft | 458 kts | 334° |
| 2026-05-09 09:17 | 43.00600 | -73.35849 | 28036 ft | 451 kts | 329° |
| 2026-05-09 09:18 | 43.03469 | -73.37522 | 27983 ft | 445 kts | 325° |
| 2026-05-09 09:18 | 43.06165 | -73.39547 | 27999 ft | 440 kts | 321° |
| 2026-05-09 09:18 | 43.08816 | -73.41638 | 27999 ft | 440 kts | 321° |
| 2026-05-09 09:18 | 43.11471 | -73.43736 | 27996 ft | 440 kts | 322° |
| 2026-05-09 09:19 | 43.14091 | -73.45801 | 27991 ft | 441 kts | 322° |
| 2026-05-09 09:19 | 43.16752 | -73.47895 | 27978 ft | 441 kts | 322° |
| 2026-05-09 09:19 | 43.22088 | -73.52083 | 28008 ft | 442 kts | 322° |
| 2026-05-09 09:20 | 43.27434 | -73.56275 | 27996 ft | 443 kts | 322° |
| 2026-05-09 09:20 | 43.30108 | -73.58374 | 27992 ft | 443 kts | 322° |
| 2026-05-09 09:20 | 43.32790 | -73.60480 | 27990 ft | 443 kts | 322° |
| 2026-05-09 09:21 | 43.35463 | -73.62582 | 27990 ft | 443 kts | 322° |
| 2026-05-09 09:21 | 43.38135 | -73.64685 | 27989 ft | 443 kts | 322° |
| 2026-05-09 09:21 | 43.40805 | -73.66789 | 27982 ft | 442 kts | 322° |
| 2026-05-09 09:21 | 43.43476 | -73.68895 | 28006 ft | 443 kts | 322° |
| 2026-05-09 09:22 | 43.46152 | -73.71009 | 27989 ft | 444 kts | 322° |
| 2026-05-09 09:22 | 43.48832 | -73.73128 | 28000 ft | 444 kts | 322° |
| 2026-05-09 09:22 | 43.51516 | -73.75252 | 27991 ft | 445 kts | 322° |
| 2026-05-09 09:22 | 43.54163 | -73.77350 | 27981 ft | 445 kts | 322° |
| 2026-05-09 09:23 | 43.56844 | -73.79473 | 27996 ft | 445 kts | 322° |
| 2026-05-09 09:23 | 43.59528 | -73.81606 | 27983 ft | 445 kts | 322° |
| 2026-05-09 09:23 | 43.62211 | -73.83737 | 27984 ft | 445 kts | 322° |
| 2026-05-09 09:23 | 43.64895 | -73.85873 | 27973 ft | 445 kts | 322° |
| 2026-05-09 09:24 | 43.67579 | -73.88011 | 27984 ft | 445 kts | 322° |
| 2026-05-09 09:24 | 43.70260 | -73.90147 | 27985 ft | 445 kts | 322° |
| 2026-05-09 09:24 | 43.72943 | -73.92287 | 27977 ft | 445 kts | 322° |
| 2026-05-09 09:24 | 43.75620 | -73.94427 | 27981 ft | 444 kts | 322° |
| 2026-05-09 09:25 | 43.78294 | -73.96565 | 27978 ft | 444 kts | 322° |
| 2026-05-09 09:25 | 43.80968 | -73.98704 | 27988 ft | 444 kts | 322° |
| 2026-05-09 09:25 | 43.83645 | -74.00849 | 27994 ft | 444 kts | 321° |
| 2026-05-09 09:25 | 43.86319 | -74.02993 | 27990 ft | 444 kts | 321° |
| 2026-05-09 09:26 | 43.88998 | -74.05145 | 27987 ft | 445 kts | 321° |
| 2026-05-09 09:26 | 43.91677 | -74.07301 | 27993 ft | 445 kts | 321° |
| 2026-05-09 09:26 | 43.94356 | -74.09458 | 27993 ft | 445 kts | 321° |
| 2026-05-09 09:26 | 43.97003 | -74.11590 | 27986 ft | 446 kts | 321° |
| 2026-05-09 09:27 | 43.99690 | -74.13755 | 27986 ft | 446 kts | 321° |
| 2026-05-09 09:27 | 44.02374 | -74.15921 | 27976 ft | 447 kts | 321° |
| 2026-05-09 09:27 | 44.05062 | -74.18093 | 27985 ft | 447 kts | 321° |
| 2026-05-09 09:27 | 44.07751 | -74.20270 | 27972 ft | 448 kts | 321° |
| 2026-05-09 09:28 | 44.10444 | -74.22452 | 27998 ft | 448 kts | 322° |
| 2026-05-09 09:28 | 44.13145 | -74.24641 | 27989 ft | 449 kts | 321° |
| 2026-05-09 09:28 | 44.15845 | -74.26833 | 27984 ft | 449 kts | 321° |
| 2026-05-09 09:28 | 44.18545 | -74.29027 | 27977 ft | 450 kts | 321° |
| 2026-05-09 09:29 | 44.21253 | -74.31228 | 27964 ft | 450 kts | 321° |
| 2026-05-09 09:29 | 44.23956 | -74.33428 | 27945 ft | 450 kts | 321° |
| 2026-05-09 09:29 | 44.26661 | -74.35631 | 27967 ft | 450 kts | 321° |
| 2026-05-09 09:29 | 44.29362 | -74.37835 | 27951 ft | 450 kts | 321° |
| 2026-05-09 09:30 | 44.32066 | -74.40044 | 27939 ft | 450 kts | 322° |
| 2026-05-09 09:30 | 44.34770 | -74.42255 | 27933 ft | 450 kts | 322° |
| 2026-05-09 09:30 | 44.37476 | -74.44469 | 27929 ft | 451 kts | 322° |
| 2026-05-09 09:30 | 44.40181 | -74.46687 | 27931 ft | 451 kts | 322° |
| 2026-05-09 09:31 | 44.42854 | -74.48879 | 27927 ft | 451 kts | 322° |
| 2026-05-09 09:31 | 44.45566 | -74.51107 | 27929 ft | 451 kts | 322° |
| 2026-05-09 09:31 | 44.48273 | -74.53331 | 27927 ft | 451 kts | 322° |
| 2026-05-09 09:32 | 44.53692 | -74.57794 | 27960 ft | 452 kts | 322° |
| 2026-05-09 09:32 | 44.56406 | -74.60034 | 27927 ft | 453 kts | 322° |
| 2026-05-09 09:32 | 44.59124 | -74.62279 | 27930 ft | 454 kts | 322° |
| 2026-05-09 09:32 | 44.61848 | -74.64530 | 27916 ft | 454 kts | 322° |
| 2026-05-09 09:33 | 44.64576 | -74.66787 | 27914 ft | 454 kts | 322° |
| 2026-05-09 09:33 | 44.67303 | -74.69045 | 27914 ft | 455 kts | 322° |
| 2026-05-09 09:33 | 44.69992 | -74.71276 | 27921 ft | 455 kts | 322° |
| 2026-05-09 09:33 | 44.72726 | -74.73546 | 27912 ft | 456 kts | 322° |
| 2026-05-09 09:34 | 44.75458 | -74.75816 | 27926 ft | 456 kts | 322° |
| 2026-05-09 09:34 | 44.78193 | -74.78092 | 27911 ft | 457 kts | 322° |
| 2026-05-09 09:34 | 44.80937 | -74.80378 | 27914 ft | 458 kts | 322° |
| 2026-05-09 09:36 | 45.00169 | -74.96470 | 27924 ft | 460 kts | 323° |
| 2026-05-09 09:36 | 45.02923 | -74.98786 | 27922 ft | 461 kts | 323° |
| 2026-05-09 09:36 | 45.05683 | -75.01108 | 27915 ft | 461 kts | 323° |
| 2026-05-09 09:37 | 45.08440 | -75.03430 | 27913 ft | 461 kts | 323° |
| 2026-05-09 09:37 | 45.11198 | -75.05756 | 27907 ft | 462 kts | 323° |
| 2026-05-09 09:37 | 45.13958 | -75.08086 | 27906 ft | 462 kts | 323° |
| 2026-05-09 09:37 | 45.16718 | -75.10419 | 27901 ft | 462 kts | 323° |
| 2026-05-09 09:38 | 45.19479 | -75.12755 | 27930 ft | 462 kts | 323° |
| 2026-05-09 09:38 | 45.22204 | -75.15063 | 27897 ft | 463 kts | 323° |
| 2026-05-09 09:38 | 45.24968 | -75.17408 | 27904 ft | 463 kts | 323° |
| 2026-05-09 09:38 | 45.27739 | -75.19762 | 27906 ft | 463 kts | 323° |
| 2026-05-09 09:39 | 45.30506 | -75.22115 | 27901 ft | 464 kts | 323° |
| 2026-05-09 09:39 | 45.33279 | -75.24475 | 27901 ft | 464 kts | 323° |
| 2026-05-09 09:39 | 45.36051 | -75.26838 | 27898 ft | 465 kts | 323° |
| 2026-05-09 09:39 | 45.38825 | -75.29204 | 27899 ft | 465 kts | 323° |
| 2026-05-09 09:40 | 45.41602 | -75.31575 | 27899 ft | 465 kts | 323° |
| 2026-05-09 09:40 | 45.44375 | -75.33947 | 27908 ft | 465 kts | 324° |
| 2026-05-09 09:40 | 45.47152 | -75.36324 | 27898 ft | 466 kts | 323° |
| 2026-05-09 09:40 | 45.49931 | -75.38706 | 27896 ft | 466 kts | 323° |
| 2026-05-09 09:41 | 45.52710 | -75.41090 | 27893 ft | 466 kts | 323° |
| 2026-05-09 09:41 | 45.55482 | -75.43471 | 27905 ft | 466 kts | 323° |
| 2026-05-09 09:41 | 45.58225 | -75.45830 | 27902 ft | 466 kts | 323° |
| 2026-05-09 09:41 | 45.61003 | -75.48223 | 27898 ft | 466 kts | 323° |
| 2026-05-09 09:42 | 45.63779 | -75.50616 | 27889 ft | 466 kts | 323° |
| 2026-05-09 09:42 | 45.66560 | -75.53017 | 27908 ft | 467 kts | 324° |
| 2026-05-09 09:42 | 45.69342 | -75.55420 | 27896 ft | 467 kts | 324° |
| 2026-05-09 09:42 | 45.72123 | -75.57826 | 27895 ft | 467 kts | 324° |
| 2026-05-09 09:43 | 45.74907 | -75.60239 | 27883 ft | 467 kts | 324° |
| 2026-05-09 09:43 | 45.77695 | -75.62656 | 27892 ft | 468 kts | 324° |
| 2026-05-09 09:43 | 45.80482 | -75.65076 | 27884 ft | 468 kts | 324° |
| 2026-05-09 09:43 | 45.83265 | -75.67493 | 27884 ft | 468 kts | 324° |
| 2026-05-09 09:44 | 45.86048 | -75.69913 | 27886 ft | 468 kts | 324° |
| 2026-05-09 09:44 | 45.88835 | -75.72343 | 27881 ft | 468 kts | 324° |
| 2026-05-09 09:44 | 45.91616 | -75.74770 | 27869 ft | 468 kts | 324° |
| 2026-05-09 09:44 | 45.94393 | -75.77197 | 27875 ft | 468 kts | 324° |
| 2026-05-09 09:45 | 45.97139 | -75.79597 | 27872 ft | 468 kts | 324° |
| 2026-05-09 09:45 | 45.99918 | -75.82029 | 27873 ft | 468 kts | 324° |
| 2026-05-09 09:45 | 46.02734 | -75.84497 | 27867 ft | 468 kts | 324° |
| 2026-05-09 09:45 | 46.05475 | -75.86902 | 27857 ft | 468 kts | 324° |
| 2026-05-09 09:46 | 46.08253 | -75.89343 | 27868 ft | 468 kts | 324° |
| 2026-05-09 09:46 | 46.11030 | -75.91787 | 27869 ft | 468 kts | 324° |
| 2026-05-09 09:46 | 46.13808 | -75.94234 | 27867 ft | 468 kts | 324° |
| 2026-05-09 09:46 | 46.16590 | -75.96686 | 27857 ft | 468 kts | 324° |
| 2026-05-09 09:47 | 46.19369 | -75.99140 | 27853 ft | 468 kts | 324° |
| 2026-05-09 09:47 | 46.22145 | -76.01593 | 27853 ft | 468 kts | 324° |
| 2026-05-09 09:47 | 46.24925 | -76.04053 | 27860 ft | 468 kts | 324° |
| 2026-05-09 09:47 | 46.27704 | -76.06514 | 27846 ft | 468 kts | 324° |
| 2026-05-09 09:48 | 46.30482 | -76.08978 | 27851 ft | 468 kts | 324° |
| 2026-05-09 09:48 | 46.33258 | -76.11444 | 27886 ft | 468 kts | 324° |
| 2026-05-09 09:48 | 46.36030 | -76.13909 | 27857 ft | 468 kts | 324° |
| 2026-05-09 09:48 | 46.38808 | -76.16382 | 27854 ft | 467 kts | 324° |
| 2026-05-09 09:49 | 46.41575 | -76.18848 | 27847 ft | 467 kts | 324° |
| 2026-05-09 09:49 | 46.44336 | -76.21311 | 27851 ft | 466 kts | 324° |
| 2026-05-09 09:49 | 46.47094 | -76.23776 | 27847 ft | 466 kts | 324° |
| 2026-05-09 09:49 | 46.49817 | -76.26212 | 27844 ft | 465 kts | 324° |
| 2026-05-09 09:50 | 46.52573 | -76.28682 | 27845 ft | 465 kts | 324° |
| 2026-05-09 09:50 | 46.55329 | -76.31153 | 27841 ft | 465 kts | 323° |
| 2026-05-09 09:50 | 46.58083 | -76.33625 | 27854 ft | 465 kts | 323° |
| 2026-05-09 09:50 | 46.60838 | -76.36101 | 27843 ft | 466 kts | 323° |
| 2026-05-09 09:51 | 46.63589 | -76.38577 | 27836 ft | 465 kts | 323° |
| 2026-05-09 09:51 | 46.66355 | -76.41069 | 27842 ft | 466 kts | 323° |
| 2026-05-09 09:51 | 46.69108 | -76.43553 | 27839 ft | 466 kts | 323° |
| 2026-05-09 09:51 | 46.71864 | -76.46042 | 27829 ft | 466 kts | 323° |
| 2026-05-09 09:52 | 46.74618 | -76.48534 | 27832 ft | 466 kts | 323° |
| 2026-05-09 09:52 | 46.77372 | -76.51028 | 27839 ft | 466 kts | 323° |
| 2026-05-09 09:52 | 46.80126 | -76.53524 | 27857 ft | 466 kts | 323° |
| 2026-05-09 09:52 | 46.82888 | -76.56032 | 27840 ft | 467 kts | 323° |
| 2026-05-09 09:53 | 46.85647 | -76.58540 | 27833 ft | 467 kts | 323° |
| 2026-05-09 09:53 | 46.88408 | -76.61052 | 27831 ft | 467 kts | 323° |
| 2026-05-09 09:53 | 46.91131 | -76.63531 | 27827 ft | 468 kts | 323° |
| 2026-05-09 09:53 | 46.93893 | -76.66050 | 27824 ft | 467 kts | 323° |
| 2026-05-09 09:54 | 46.96651 | -76.68569 | 27828 ft | 467 kts | 323° |
| 2026-05-09 09:54 | 46.99410 | -76.71093 | 27825 ft | 467 kts | 323° |
| 2026-05-09 09:54 | 47.02171 | -76.73620 | 27824 ft | 467 kts | 323° |
| 2026-05-09 09:54 | 47.04929 | -76.76148 | 27842 ft | 468 kts | 323° |
| 2026-05-09 09:55 | 47.07687 | -76.78680 | 27828 ft | 468 kts | 323° |
| 2026-05-09 09:55 | 47.10447 | -76.81215 | 27826 ft | 468 kts | 323° |
| 2026-05-09 09:55 | 47.13208 | -76.83756 | 27820 ft | 468 kts | 323° |
| 2026-05-09 09:55 | 47.15969 | -76.86299 | 27819 ft | 469 kts | 323° |
| 2026-05-09 09:56 | 47.18732 | -76.88847 | 27817 ft | 469 kts | 323° |
| 2026-05-09 09:56 | 47.21494 | -76.91399 | 27817 ft | 469 kts | 323° |
| 2026-05-09 09:56 | 47.24256 | -76.93953 | 27813 ft | 469 kts | 323° |
| 2026-05-09 09:56 | 47.27016 | -76.96508 | 27831 ft | 469 kts | 323° |
| 2026-05-09 09:57 | 47.29783 | -76.99073 | 27824 ft | 469 kts | 323° |
| 2026-05-09 09:57 | 47.32548 | -77.01639 | 27810 ft | 469 kts | 323° |
| 2026-05-09 09:57 | 47.35310 | -77.04206 | 27816 ft | 469 kts | 323° |
| 2026-05-09 09:57 | 47.38067 | -77.06770 | 27813 ft | 469 kts | 323° |
| 2026-05-09 09:58 | 47.40827 | -77.09341 | 27803 ft | 469 kts | 323° |
| 2026-05-09 09:58 | 47.43586 | -77.11914 | 27811 ft | 469 kts | 323° |
| 2026-05-09 09:58 | 47.45413 | -77.13621 | 27813 ft | 468 kts | 323° |
| 2026-05-09 09:58 | 47.48168 | -77.16196 | 27808 ft | 468 kts | 323° |
| 2026-05-09 09:59 | 47.50921 | -77.18772 | 27828 ft | 468 kts | 323° |
| 2026-05-09 09:59 | 47.53673 | -77.21351 | 27822 ft | 468 kts | 323° |
| 2026-05-09 09:59 | 47.57316 | -77.24771 | 27818 ft | 468 kts | 323° |
| 2026-05-09 09:59 | 47.60062 | -77.27352 | 27816 ft | 467 kts | 323° |
| 2026-05-09 10:00 | 47.61915 | -77.29096 | 27809 ft | 467 kts | 323° |
| 2026-05-09 10:00 | 47.64660 | -77.31680 | 27815 ft | 467 kts | 323° |
| 2026-05-09 10:00 | 47.67397 | -77.34261 | 27813 ft | 467 kts | 323° |
| 2026-05-09 10:00 | 47.70140 | -77.36850 | 27808 ft | 467 kts | 323° |
| 2026-05-09 10:01 | 47.72865 | -77.39427 | 27809 ft | 467 kts | 323° |
| 2026-05-09 10:01 | 47.75568 | -77.41986 | 27825 ft | 466 kts | 323° |
| 2026-05-09 10:01 | 47.78304 | -77.44580 | 27808 ft | 466 kts | 323° |
| 2026-05-09 10:01 | 47.81036 | -77.47172 | 27799 ft | 466 kts | 323° |
| 2026-05-09 10:02 | 47.83766 | -77.49766 | 27774 ft | 465 kts | 323° |
| 2026-05-09 10:02 | 47.86492 | -77.52360 | 27779 ft | 465 kts | 322° |
| 2026-05-09 10:02 | 47.89216 | -77.54955 | 27768 ft | 464 kts | 322° |
| 2026-05-09 10:02 | 47.91938 | -77.57551 | 27753 ft | 464 kts | 322° |
| 2026-05-09 10:03 | 47.94655 | -77.60147 | 27748 ft | 464 kts | 322° |
| 2026-05-09 10:03 | 47.97373 | -77.62745 | 27761 ft | 464 kts | 322° |
| 2026-05-09 10:03 | 48.00085 | -77.65343 | 27755 ft | 464 kts | 322° |
| 2026-05-09 10:03 | 48.02799 | -77.67945 | 27737 ft | 463 kts | 322° |
| 2026-05-09 10:04 | 48.05511 | -77.70548 | 27732 ft | 463 kts | 322° |
| 2026-05-09 10:04 | 48.08217 | -77.73150 | 27730 ft | 462 kts | 322° |
| 2026-05-09 10:04 | 48.10922 | -77.75752 | 27730 ft | 462 kts | 322° |
| 2026-05-09 10:04 | 48.13624 | -77.78356 | 27728 ft | 461 kts | 322° |
| 2026-05-09 10:05 | 48.16321 | -77.80957 | 27735 ft | 461 kts | 322° |
| 2026-05-09 10:05 | 48.18955 | -77.83673 | 27780 ft | 458 kts | 319° |
| 2026-05-09 10:05 | 48.21498 | -77.86554 | 27789 ft | 458 kts | 318° |
| 2026-05-09 10:05 | 48.23994 | -77.89420 | 27785 ft | 458 kts | 318° |
| 2026-05-09 10:06 | 48.26553 | -77.92372 | 27781 ft | 458 kts | 318° |
| 2026-05-09 10:06 | 48.29083 | -77.95292 | 27774 ft | 459 kts | 318° |
| 2026-05-09 10:06 | 48.31591 | -77.98181 | 27776 ft | 460 kts | 318° |
| 2026-05-09 10:06 | 48.34131 | -78.01104 | 27774 ft | 461 kts | 318° |
| 2026-05-09 10:07 | 48.36680 | -78.04037 | 27775 ft | 461 kts | 318° |
| 2026-05-09 10:07 | 48.39229 | -78.06970 | 27771 ft | 462 kts | 318° |
| 2026-05-09 10:07 | 48.41779 | -78.09906 | 27771 ft | 462 kts | 318° |
| 2026-05-09 10:07 | 48.44331 | -78.12849 | 27769 ft | 462 kts | 318° |
| 2026-05-09 10:08 | 48.46886 | -78.15797 | 27782 ft | 462 kts | 318° |
| 2026-05-09 10:08 | 48.49437 | -78.18746 | 27775 ft | 462 kts | 318° |
| 2026-05-09 10:08 | 48.51986 | -78.21697 | 27770 ft | 461 kts | 318° |
| 2026-05-09 10:08 | 48.54528 | -78.24643 | 27775 ft | 461 kts | 318° |
| 2026-05-09 10:09 | 48.57067 | -78.27590 | 27761 ft | 460 kts | 318° |
| 2026-05-09 10:09 | 48.59607 | -78.30541 | 27760 ft | 460 kts | 318° |
| 2026-05-09 10:09 | 48.62142 | -78.33492 | 27762 ft | 460 kts | 318° |
| 2026-05-09 10:09 | 48.64678 | -78.36447 | 27762 ft | 460 kts | 318° |
| 2026-05-09 10:10 | 48.67213 | -78.39405 | 27759 ft | 460 kts | 318° |
| 2026-05-09 10:10 | 48.69745 | -78.42364 | 27757 ft | 459 kts | 318° |
| 2026-05-09 10:10 | 48.72274 | -78.45322 | 27757 ft | 460 kts | 318° |
| 2026-05-09 10:10 | 48.74803 | -78.48285 | 27768 ft | 460 kts | 318° |
| 2026-05-09 10:11 | 48.77300 | -78.51214 | 27760 ft | 460 kts | 318° |
| 2026-05-09 10:11 | 48.79862 | -78.54222 | 27752 ft | 460 kts | 318° |
| 2026-05-09 10:11 | 48.82355 | -78.57155 | 27761 ft | 460 kts | 317° |
| 2026-05-09 10:11 | 48.84916 | -78.60169 | 27754 ft | 460 kts | 317° |
| 2026-05-09 10:12 | 48.87411 | -78.63111 | 27750 ft | 460 kts | 317° |
| 2026-05-09 10:12 | 48.89940 | -78.66097 | 27758 ft | 460 kts | 317° |
| 2026-05-09 10:12 | 48.92468 | -78.69086 | 27750 ft | 461 kts | 317° |
| 2026-05-09 10:12 | 48.94998 | -78.72081 | 27743 ft | 461 kts | 317° |
| 2026-05-09 10:13 | 48.97530 | -78.75082 | 27772 ft | 461 kts | 317° |
| 2026-05-09 10:13 | 49.00061 | -78.78086 | 27747 ft | 462 kts | 317° |
| 2026-05-09 10:13 | 49.02600 | -78.81104 | 27741 ft | 461 kts | 317° |
| 2026-05-09 10:13 | 49.05130 | -78.84115 | 27739 ft | 461 kts | 317° |
| 2026-05-09 10:14 | 49.07659 | -78.87128 | 27736 ft | 461 kts | 317° |
| 2026-05-09 10:14 | 49.10182 | -78.90138 | 27737 ft | 460 kts | 317° |
| 2026-05-09 10:14 | 49.12704 | -78.93151 | 27740 ft | 461 kts | 317° |
| 2026-05-09 10:14 | 49.15230 | -78.96173 | 27737 ft | 461 kts | 317° |
| 2026-05-09 10:15 | 49.17752 | -78.99194 | 27730 ft | 461 kts | 317° |
| 2026-05-09 10:15 | 49.20281 | -79.02228 | 27738 ft | 461 kts | 317° |
| 2026-05-09 10:15 | 49.22804 | -79.05259 | 27753 ft | 462 kts | 317° |
| 2026-05-09 10:15 | 49.25331 | -79.08298 | 27751 ft | 462 kts | 317° |
| 2026-05-09 10:16 | 49.27821 | -79.11297 | 27739 ft | 462 kts | 317° |
| 2026-05-09 10:16 | 49.30345 | -79.14341 | 27728 ft | 462 kts | 317° |
| 2026-05-09 10:16 | 49.32869 | -79.17389 | 27727 ft | 461 kts | 317° |
| 2026-05-09 10:16 | 49.35395 | -79.20443 | 27729 ft | 461 kts | 317° |
| 2026-05-09 10:17 | 49.37912 | -79.23489 | 27732 ft | 461 kts | 317° |
| 2026-05-09 10:17 | 49.40424 | -79.26535 | 27727 ft | 461 kts | 317° |
| 2026-05-09 10:17 | 49.42945 | -79.29597 | 27715 ft | 461 kts | 317° |
| 2026-05-09 10:17 | 49.45466 | -79.32662 | 27718 ft | 462 kts | 317° |
| 2026-05-09 10:18 | 49.47984 | -79.35728 | 27749 ft | 462 kts | 317° |
| 2026-05-09 10:18 | 49.50504 | -79.38801 | 27725 ft | 462 kts | 317° |
| 2026-05-09 10:18 | 49.53023 | -79.41876 | 27719 ft | 462 kts | 317° |
| 2026-05-09 10:18 | 49.55546 | -79.44959 | 27715 ft | 462 kts | 317° |
| 2026-05-09 10:19 | 49.58060 | -79.48036 | 27713 ft | 461 kts | 317° |
| 2026-05-09 10:19 | 49.60568 | -79.51109 | 27716 ft | 461 kts | 317° |
| 2026-05-09 10:19 | 49.63078 | -79.54189 | 27709 ft | 461 kts | 317° |
| 2026-05-09 10:19 | 49.65583 | -79.57268 | 27707 ft | 460 kts | 317° |
| 2026-05-09 10:20 | 49.68089 | -79.60352 | 27721 ft | 460 kts | 317° |
| 2026-05-09 10:20 | 49.70557 | -79.63394 | 27715 ft | 460 kts | 317° |
| 2026-05-09 10:20 | 49.73057 | -79.66479 | 27708 ft | 460 kts | 317° |
| 2026-05-09 10:20 | 49.75562 | -79.69575 | 27721 ft | 460 kts | 317° |
| 2026-05-09 10:21 | 49.78062 | -79.72669 | 27709 ft | 460 kts | 317° |
| 2026-05-09 10:21 | 49.80558 | -79.75761 | 27707 ft | 459 kts | 317° |
| 2026-05-09 10:21 | 49.83052 | -79.78854 | 27701 ft | 459 kts | 317° |
| 2026-05-09 10:21 | 49.85543 | -79.81950 | 27702 ft | 458 kts | 317° |
| 2026-05-09 10:22 | 49.88024 | -79.85036 | 27703 ft | 458 kts | 316° |
| 2026-05-09 10:22 | 49.90505 | -79.88129 | 27702 ft | 457 kts | 316° |
| 2026-05-09 10:22 | 49.92983 | -79.91221 | 27704 ft | 457 kts | 316° |
| 2026-05-09 10:22 | 49.95460 | -79.94314 | 27703 ft | 457 kts | 316° |
| 2026-05-09 10:23 | 49.97960 | -79.97386 | 27695 ft | 459 kts | 319° |
| 2026-05-09 10:23 | 50.00625 | -80.00162 | 27712 ft | 463 kts | 324° |
| 2026-05-09 10:23 | 50.03460 | -80.02580 | 27693 ft | 467 kts | 329° |
| 2026-05-09 10:23 | 50.06428 | -80.04673 | 27707 ft | 468 kts | 330° |
| 2026-05-09 10:24 | 50.09398 | -80.06738 | 27700 ft | 468 kts | 330° |
| 2026-05-09 10:24 | 50.12374 | -80.08811 | 27687 ft | 468 kts | 330° |
| 2026-05-09 10:24 | 50.15304 | -80.10863 | 27685 ft | 468 kts | 330° |
| 2026-05-09 10:24 | 50.18272 | -80.12956 | 27690 ft | 468 kts | 330° |
| 2026-05-09 10:25 | 50.21242 | -80.15061 | 27688 ft | 468 kts | 330° |
| 2026-05-09 10:25 | 50.24205 | -80.17169 | 27719 ft | 468 kts | 330° |
| 2026-05-09 10:25 | 50.27166 | -80.19282 | 27683 ft | 467 kts | 330° |
| 2026-05-09 10:25 | 50.30121 | -80.21395 | 27689 ft | 467 kts | 330° |
| 2026-05-09 10:26 | 50.33071 | -80.23507 | 27673 ft | 466 kts | 330° |
| 2026-05-09 10:26 | 50.36016 | -80.25620 | 27670 ft | 465 kts | 330° |
| 2026-05-09 10:26 | 50.38959 | -80.27733 | 27673 ft | 465 kts | 330° |
| 2026-05-09 10:26 | 50.41895 | -80.29844 | 27668 ft | 464 kts | 330° |
| 2026-05-09 10:27 | 50.44829 | -80.31957 | 27682 ft | 464 kts | 330° |
| 2026-05-09 10:27 | 50.47764 | -80.34072 | 27696 ft | 464 kts | 330° |
| 2026-05-09 10:27 | 50.50696 | -80.36189 | 27679 ft | 464 kts | 330° |
| 2026-05-09 10:27 | 50.53624 | -80.38304 | 27677 ft | 463 kts | 330° |
| 2026-05-09 10:28 | 50.56550 | -80.40422 | 27671 ft | 463 kts | 330° |
| 2026-05-09 10:28 | 50.59475 | -80.42543 | 27664 ft | 463 kts | 330° |
| 2026-05-09 10:28 | 50.62399 | -80.44664 | 27664 ft | 462 kts | 330° |
| 2026-05-09 10:28 | 50.65320 | -80.46787 | 27663 ft | 462 kts | 330° |
| 2026-05-09 10:29 | 50.68201 | -80.48884 | 27666 ft | 462 kts | 330° |
| 2026-05-09 10:29 | 50.71118 | -80.51010 | 27662 ft | 462 kts | 330° |
| 2026-05-09 10:29 | 50.74034 | -80.53138 | 27665 ft | 462 kts | 330° |
| 2026-05-09 10:29 | 50.76955 | -80.55273 | 27667 ft | 462 kts | 330° |
| 2026-05-09 10:30 | 50.79873 | -80.57409 | 27659 ft | 462 kts | 330° |
| 2026-05-09 10:30 | 50.82790 | -80.59547 | 27683 ft | 462 kts | 330° |
| 2026-05-09 10:30 | 50.85712 | -80.61690 | 27667 ft | 462 kts | 330° |
| 2026-05-09 10:30 | 50.88632 | -80.63836 | 27661 ft | 462 kts | 330° |
| 2026-05-09 10:31 | 50.91545 | -80.65979 | 27658 ft | 462 kts | 330° |
| 2026-05-09 10:31 | 50.94460 | -80.68127 | 27659 ft | 461 kts | 330° |
| 2026-05-09 10:31 | 50.97375 | -80.70277 | 27659 ft | 461 kts | 330° |
| 2026-05-09 10:31 | 51.00286 | -80.72430 | 27654 ft | 462 kts | 330° |
| 2026-05-09 10:32 | 51.03205 | -80.74591 | 27666 ft | 464 kts | 330° |
| 2026-05-09 10:32 | 51.06129 | -80.76758 | 27668 ft | 465 kts | 330° |
| 2026-05-09 10:32 | 51.09067 | -80.78938 | 27665 ft | 466 kts | 330° |
| 2026-05-09 10:32 | 51.12007 | -80.81124 | 27664 ft | 467 kts | 330° |
| 2026-05-09 10:33 | 51.14924 | -80.83294 | 27661 ft | 468 kts | 330° |
| 2026-05-09 10:33 | 51.17876 | -80.85493 | 27660 ft | 469 kts | 330° |
| 2026-05-09 10:33 | 51.20830 | -80.87697 | 27659 ft | 469 kts | 330° |
| 2026-05-09 10:33 | 51.23781 | -80.89902 | 27682 ft | 469 kts | 330° |
| 2026-05-09 10:34 | 51.26734 | -80.92110 | 27677 ft | 468 kts | 330° |
| 2026-05-09 10:34 | 51.32622 | -80.96525 | 27662 ft | 467 kts | 330° |
| 2026-05-09 10:34 | 51.35557 | -80.98730 | 27657 ft | 466 kts | 330° |
| 2026-05-09 10:35 | 51.38491 | -81.00938 | 27657 ft | 465 kts | 330° |
| 2026-05-09 10:35 | 51.41417 | -81.03144 | 27658 ft | 465 kts | 329° |
| 2026-05-09 10:35 | 51.44346 | -81.05354 | 27659 ft | 465 kts | 329° |
| 2026-05-09 10:35 | 51.47269 | -81.07564 | 27678 ft | 465 kts | 329° |
| 2026-05-09 10:36 | 51.50194 | -81.09779 | 27666 ft | 465 kts | 329° |
| 2026-05-09 10:36 | 51.53119 | -81.11996 | 27663 ft | 464 kts | 329° |
| 2026-05-09 10:36 | 51.56041 | -81.14214 | 27658 ft | 464 kts | 329° |
| 2026-05-09 10:36 | 51.58927 | -81.16407 | 27655 ft | 464 kts | 329° |
| 2026-05-09 10:37 | 51.61843 | -81.18628 | 27653 ft | 464 kts | 329° |
| 2026-05-09 10:37 | 51.64760 | -81.20851 | 27655 ft | 464 kts | 329° |
| 2026-05-09 10:37 | 51.67673 | -81.23075 | 27654 ft | 463 kts | 329° |
| 2026-05-09 10:37 | 51.70582 | -81.25299 | 27654 ft | 464 kts | 329° |
| 2026-05-09 10:38 | 51.73502 | -81.27536 | 27685 ft | 464 kts | 329° |
| 2026-05-09 10:38 | 51.76420 | -81.29773 | 27655 ft | 465 kts | 329° |
| 2026-05-09 10:38 | 51.79342 | -81.32017 | 27658 ft | 465 kts | 329° |
| 2026-05-09 10:38 | 51.82262 | -81.34262 | 27655 ft | 465 kts | 329° |
| 2026-05-09 10:39 | 51.85179 | -81.36508 | 27654 ft | 465 kts | 329° |
| 2026-05-09 10:39 | 51.88102 | -81.38762 | 27651 ft | 465 kts | 329° |
| 2026-05-09 10:39 | 51.91024 | -81.41019 | 27652 ft | 465 kts | 329° |
| 2026-05-09 10:39 | 51.93947 | -81.43279 | 27651 ft | 465 kts | 329° |
| 2026-05-09 10:40 | 51.96865 | -81.45539 | 27648 ft | 465 kts | 329° |
| 2026-05-09 10:40 | 51.99786 | -81.47804 | 27664 ft | 465 kts | 329° |
| 2026-05-09 10:40 | 52.02706 | -81.50073 | 27655 ft | 465 kts | 329° |
| 2026-05-09 10:40 | 52.05625 | -81.52343 | 27652 ft | 465 kts | 329° |
| 2026-05-09 10:41 | 52.08549 | -81.54621 | 27647 ft | 465 kts | 329° |
| 2026-05-09 10:41 | 52.11463 | -81.56894 | 27650 ft | 465 kts | 329° |
| 2026-05-09 10:41 | 52.14379 | -81.59172 | 27651 ft | 465 kts | 329° |
| 2026-05-09 10:41 | 52.17294 | -81.61453 | 27661 ft | 465 kts | 329° |
| 2026-05-09 10:42 | 52.20208 | -81.63737 | 27652 ft | 465 kts | 329° |
| 2026-05-09 10:42 | 52.23130 | -81.66030 | 27675 ft | 466 kts | 329° |
| 2026-05-09 10:42 | 52.26055 | -81.68330 | 27658 ft | 467 kts | 329° |
| 2026-05-09 10:42 | 52.28947 | -81.70605 | 27654 ft | 467 kts | 329° |
| 2026-05-09 10:43 | 52.31878 | -81.72916 | 27646 ft | 468 kts | 329° |
| 2026-05-09 10:43 | 52.34807 | -81.75227 | 27650 ft | 468 kts | 329° |
| 2026-05-09 10:43 | 52.37738 | -81.77544 | 27649 ft | 468 kts | 329° |
| 2026-05-09 10:43 | 52.40667 | -81.79864 | 27647 ft | 468 kts | 329° |
| 2026-05-09 10:44 | 52.43601 | -81.82189 | 27648 ft | 468 kts | 329° |
| 2026-05-09 10:44 | 52.46531 | -81.84516 | 27647 ft | 468 kts | 329° |
| 2026-05-09 10:44 | 52.49460 | -81.86845 | 27673 ft | 468 kts | 330° |
| 2026-05-09 10:44 | 52.52396 | -81.89185 | 27656 ft | 469 kts | 330° |
| 2026-05-09 10:45 | 52.55333 | -81.91527 | 27656 ft | 470 kts | 330° |
| 2026-05-09 10:46 | 52.67112 | -82.00957 | 27657 ft | 471 kts | 330° |
| 2026-05-09 10:46 | 52.70058 | -82.03324 | 27638 ft | 471 kts | 330° |
| 2026-05-09 10:46 | 52.73013 | -82.05703 | 27633 ft | 472 kts | 330° |
| 2026-05-09 10:46 | 52.75961 | -82.08080 | 27651 ft | 472 kts | 330° |
| 2026-05-09 10:47 | 52.78916 | -82.10466 | 27648 ft | 473 kts | 330° |
| 2026-05-09 10:47 | 52.80873 | -82.12048 | 27643 ft | 474 kts | 330° |
| 2026-05-09 10:47 | 52.83833 | -82.14443 | 27647 ft | 474 kts | 330° |
| 2026-05-09 10:47 | 52.86798 | -82.16846 | 27648 ft | 474 kts | 330° |
| 2026-05-09 10:48 | 52.89760 | -82.19250 | 27648 ft | 475 kts | 330° |
| 2026-05-09 10:48 | 52.92727 | -82.21662 | 27650 ft | 475 kts | 330° |
| 2026-05-09 10:48 | 52.95697 | -82.24081 | 27654 ft | 475 kts | 330° |
| 2026-05-09 10:48 | 52.99627 | -82.27286 | 27643 ft | 475 kts | 330° |
| 2026-05-09 10:49 | 53.01627 | -82.28921 | 27657 ft | 476 kts | 330° |
| 2026-05-09 10:49 | 53.04606 | -82.31359 | 27649 ft | 476 kts | 330° |
| 2026-05-09 10:49 | 53.07581 | -82.33796 | 27648 ft | 477 kts | 330° |
| 2026-05-09 10:49 | 53.10558 | -82.36238 | 27651 ft | 477 kts | 330° |
| 2026-05-09 10:50 | 53.13505 | -82.38660 | 27646 ft | 478 kts | 330° |
| 2026-05-09 10:50 | 53.16493 | -82.41119 | 27647 ft | 478 kts | 330° |
| 2026-05-09 10:50 | 53.19476 | -82.43579 | 27651 ft | 478 kts | 330° |
| 2026-05-09 10:50 | 53.22466 | -82.46047 | 27649 ft | 479 kts | 330° |
| 2026-05-09 10:51 | 53.25447 | -82.48513 | 27649 ft | 479 kts | 330° |
| 2026-05-09 10:51 | 53.28433 | -82.50987 | 27648 ft | 479 kts | 330° |
| 2026-05-09 10:51 | 53.31418 | -82.53462 | 27648 ft | 479 kts | 330° |
| 2026-05-09 10:51 | 53.34366 | -82.55912 | 27649 ft | 479 kts | 330° |
| 2026-05-09 10:52 | 53.37352 | -82.58397 | 27651 ft | 479 kts | 330° |
| 2026-05-09 10:52 | 53.40333 | -82.60882 | 27648 ft | 478 kts | 330° |
| 2026-05-09 10:52 | 53.43314 | -82.63371 | 27647 ft | 478 kts | 330° |
| 2026-05-09 10:52 | 53.46295 | -82.65863 | 27648 ft | 478 kts | 330° |
| 2026-05-09 10:53 | 53.49267 | -82.68352 | 27650 ft | 478 kts | 330° |
| 2026-05-09 10:53 | 53.52243 | -82.70849 | 27666 ft | 478 kts | 330° |
| 2026-05-09 10:53 | 53.55220 | -82.73350 | 27656 ft | 479 kts | 331° |
| 2026-05-09 10:53 | 53.58203 | -82.75861 | 27655 ft | 480 kts | 331° |
| 2026-05-09 10:54 | 53.61189 | -82.78378 | 27652 ft | 480 kts | 331° |
| 2026-05-09 10:54 | 53.64181 | -82.80903 | 27654 ft | 481 kts | 331° |
| 2026-05-09 10:54 | 53.67174 | -82.83434 | 27653 ft | 482 kts | 331° |
| 2026-05-09 10:54 | 53.70175 | -82.85975 | 27652 ft | 482 kts | 331° |
| 2026-05-09 10:55 | 53.73176 | -82.88520 | 27651 ft | 483 kts | 331° |
| 2026-05-09 10:55 | 53.76177 | -82.91070 | 27651 ft | 483 kts | 331° |
| 2026-05-09 10:55 | 53.79182 | -82.93627 | 27666 ft | 483 kts | 331° |
| 2026-05-09 10:55 | 53.82188 | -82.96193 | 27655 ft | 484 kts | 331° |
| 2026-05-09 10:56 | 53.85197 | -82.98761 | 27648 ft | 484 kts | 331° |
| 2026-05-09 10:56 | 53.88205 | -83.01331 | 27649 ft | 484 kts | 331° |
| 2026-05-09 10:56 | 53.91179 | -83.03877 | 27650 ft | 485 kts | 331° |
| 2026-05-09 10:56 | 53.94190 | -83.06459 | 27649 ft | 485 kts | 331° |
| 2026-05-09 10:57 | 53.97199 | -83.09044 | 27654 ft | 485 kts | 331° |
| 2026-05-09 10:57 | 54.00212 | -83.11637 | 27651 ft | 485 kts | 331° |
| 2026-05-09 10:57 | 54.03219 | -83.14230 | 27654 ft | 485 kts | 331° |
| 2026-05-09 10:57 | 54.06233 | -83.16833 | 27662 ft | 485 kts | 332° |
| 2026-05-09 10:58 | 54.09240 | -83.19435 | 27653 ft | 485 kts | 332° |
| 2026-05-09 10:58 | 54.12257 | -83.22049 | 27652 ft | 486 kts | 332° |
| 2026-05-09 10:58 | 54.15269 | -83.24662 | 27655 ft | 486 kts | 332° |
| 2026-05-09 10:58 | 54.18284 | -83.27281 | 27652 ft | 486 kts | 332° |
| 2026-05-09 10:59 | 54.21293 | -83.29901 | 27652 ft | 486 kts | 332° |
| 2026-05-09 10:59 | 54.24306 | -83.32528 | 27652 ft | 486 kts | 331° |
| 2026-05-09 10:59 | 54.27323 | -83.35163 | 27651 ft | 486 kts | 331° |
| 2026-05-09 10:59 | 54.30298 | -83.37766 | 27651 ft | 486 kts | 331° |
| 2026-05-09 11:00 | 54.33316 | -83.40412 | 27657 ft | 487 kts | 332° |
| 2026-05-09 11:00 | 54.36331 | -83.43059 | 27653 ft | 487 kts | 332° |
| 2026-05-09 11:00 | 54.39343 | -83.45707 | 27654 ft | 487 kts | 332° |
| 2026-05-09 11:00 | 54.42355 | -83.48360 | 27654 ft | 487 kts | 332° |
| 2026-05-09 11:01 | 54.45370 | -83.51019 | 27655 ft | 487 kts | 332° |
| 2026-05-09 11:01 | 54.48383 | -83.53681 | 27653 ft | 487 kts | 332° |
| 2026-05-09 11:01 | 54.51401 | -83.56353 | 27655 ft | 487 kts | 332° |
| 2026-05-09 11:01 | 54.54416 | -83.59026 | 27652 ft | 487 kts | 332° |
| 2026-05-09 11:02 | 54.57431 | -83.61704 | 27651 ft | 487 kts | 332° |
| 2026-05-09 11:02 | 54.60447 | -83.64387 | 27652 ft | 487 kts | 332° |
| 2026-05-09 11:02 | 54.63464 | -83.67075 | 27648 ft | 488 kts | 332° |
| 2026-05-09 11:02 | 54.66478 | -83.69765 | 27648 ft | 488 kts | 332° |
| 2026-05-09 11:03 | 54.69495 | -83.72463 | 27648 ft | 488 kts | 332° |
| 2026-05-09 11:03 | 54.72507 | -83.75160 | 27649 ft | 488 kts | 332° |
| 2026-05-09 11:03 | 54.75521 | -83.77864 | 27648 ft | 488 kts | 332° |
| 2026-05-09 11:03 | 54.78535 | -83.80573 | 27648 ft | 488 kts | 332° |
| 2026-05-09 11:04 | 54.81551 | -83.83288 | 27648 ft | 488 kts | 332° |
| 2026-05-09 11:04 | 54.84560 | -83.86002 | 27649 ft | 488 kts | 332° |
| 2026-05-09 11:04 | 54.87534 | -83.88689 | 27638 ft | 488 kts | 332° |
| 2026-05-09 11:04 | 54.90548 | -83.91416 | 27650 ft | 489 kts | 332° |
| 2026-05-09 11:05 | 54.93566 | -83.94151 | 27655 ft | 489 kts | 332° |
| 2026-05-09 11:05 | 54.96583 | -83.96888 | 27652 ft | 489 kts | 332° |
| 2026-05-09 11:05 | 54.99588 | -83.99697 | 27635 ft | 489 kts | 329° |
| 2026-05-09 11:05 | 55.02433 | -84.02935 | 27637 ft | 489 kts | 323° |
| 2026-05-09 11:06 | 55.05151 | -84.06493 | 27649 ft | 488 kts | 322° |
| 2026-05-09 11:06 | 55.07849 | -84.10083 | 27642 ft | 489 kts | 322° |
| 2026-05-09 11:06 | 55.10557 | -84.13697 | 27644 ft | 489 kts | 322° |
| 2026-05-09 11:06 | 55.13261 | -84.17296 | 27640 ft | 489 kts | 322° |
| 2026-05-09 11:07 | 55.15973 | -84.20894 | 27646 ft | 489 kts | 322° |
| 2026-05-09 11:07 | 55.18690 | -84.24488 | 27638 ft | 490 kts | 322° |
| 2026-05-09 11:07 | 55.21411 | -84.28083 | 27646 ft | 490 kts | 322° |
| 2026-05-09 11:07 | 55.24129 | -84.31675 | 27636 ft | 490 kts | 322° |
| 2026-05-09 11:08 | 55.26852 | -84.35277 | 27642 ft | 490 kts | 322° |
| 2026-05-09 11:08 | 55.29536 | -84.38833 | 27646 ft | 490 kts | 322° |
| 2026-05-09 11:08 | 55.32258 | -84.42448 | 27643 ft | 490 kts | 322° |
| 2026-05-09 11:08 | 55.34974 | -84.46060 | 27647 ft | 490 kts | 322° |
| 2026-05-09 11:09 | 55.37691 | -84.49683 | 27630 ft | 490 kts | 322° |
| 2026-05-09 11:09 | 55.40409 | -84.53313 | 27645 ft | 490 kts | 323° |
| 2026-05-09 11:09 | 55.43124 | -84.56945 | 27632 ft | 490 kts | 322° |
| 2026-05-09 11:09 | 55.45841 | -84.60587 | 27645 ft | 490 kts | 322° |
| 2026-05-09 11:10 | 55.48552 | -84.64228 | 27644 ft | 491 kts | 322° |
| 2026-05-09 11:10 | 55.51268 | -84.67881 | 27640 ft | 491 kts | 322° |
| 2026-05-09 11:10 | 55.53984 | -84.71540 | 27640 ft | 491 kts | 322° |
| 2026-05-09 11:10 | 55.56699 | -84.75205 | 27625 ft | 491 kts | 322° |
| 2026-05-09 11:11 | 55.59414 | -84.78877 | 27644 ft | 491 kts | 322° |
| 2026-05-09 11:11 | 55.62130 | -84.82556 | 27626 ft | 491 kts | 322° |
| 2026-05-09 11:11 | 55.64840 | -84.86233 | 27642 ft | 491 kts | 322° |
| 2026-05-09 11:11 | 55.67547 | -84.89915 | 27643 ft | 491 kts | 322° |
| 2026-05-09 11:12 | 55.70250 | -84.93596 | 27639 ft | 490 kts | 322° |
| 2026-05-09 11:12 | 55.72956 | -84.97288 | 27629 ft | 490 kts | 322° |
| 2026-05-09 11:12 | 55.75659 | -85.00984 | 27631 ft | 490 kts | 322° |
| 2026-05-09 11:12 | 55.78327 | -85.04637 | 27640 ft | 490 kts | 322° |
| 2026-05-09 11:13 | 55.81031 | -85.08345 | 27627 ft | 490 kts | 322° |
| 2026-05-09 11:13 | 55.83729 | -85.12053 | 27636 ft | 490 kts | 322° |
| 2026-05-09 11:13 | 55.86431 | -85.15772 | 27635 ft | 490 kts | 322° |
| 2026-05-09 11:13 | 55.89125 | -85.19489 | 27619 ft | 490 kts | 322° |
| 2026-05-09 11:14 | 55.91820 | -85.23213 | 27638 ft | 490 kts | 322° |
| 2026-05-09 11:14 | 55.94512 | -85.26939 | 27636 ft | 490 kts | 322° |
| 2026-05-09 11:14 | 55.97205 | -85.30674 | 27637 ft | 490 kts | 322° |
| 2026-05-09 11:14 | 55.99896 | -85.34412 | 27638 ft | 490 kts | 322° |
| 2026-05-09 11:15 | 56.02588 | -85.38158 | 27614 ft | 490 kts | 322° |
| 2026-05-09 11:15 | 56.05277 | -85.41908 | 27633 ft | 490 kts | 322° |
| 2026-05-09 11:15 | 56.07973 | -85.45674 | 27632 ft | 490 kts | 322° |
| 2026-05-09 11:15 | 56.10665 | -85.49441 | 27617 ft | 491 kts | 322° |
| 2026-05-09 11:16 | 56.13353 | -85.53210 | 27632 ft | 491 kts | 322° |
| 2026-05-09 11:16 | 56.16048 | -85.56995 | 27630 ft | 491 kts | 322° |
| 2026-05-09 11:16 | 56.18708 | -85.60737 | 27632 ft | 492 kts | 322° |
| 2026-05-09 11:16 | 56.21398 | -85.64530 | 27621 ft | 492 kts | 322° |
| 2026-05-09 11:17 | 56.24093 | -85.68336 | 27631 ft | 492 kts | 322° |
| 2026-05-09 11:17 | 56.26780 | -85.72138 | 27632 ft | 492 kts | 322° |
| 2026-05-09 11:17 | 56.29468 | -85.75949 | 27613 ft | 491 kts | 322° |
| 2026-05-09 11:17 | 56.32152 | -85.79759 | 27628 ft | 490 kts | 322° |
| 2026-05-09 11:18 | 56.34829 | -85.83568 | 27630 ft | 490 kts | 322° |
| 2026-05-09 11:18 | 56.37504 | -85.87380 | 27613 ft | 490 kts | 322° |
| 2026-05-09 11:18 | 56.40171 | -85.91188 | 27629 ft | 489 kts | 322° |
| 2026-05-09 11:18 | 56.42837 | -85.95002 | 27627 ft | 489 kts | 322° |
| 2026-05-09 11:19 | 56.45502 | -85.98821 | 27614 ft | 489 kts | 322° |
| 2026-05-09 11:19 | 56.48162 | -86.02641 | 27627 ft | 489 kts | 322° |
| 2026-05-09 11:19 | 56.50832 | -86.06481 | 27629 ft | 489 kts | 322° |
| 2026-05-09 11:19 | 56.53493 | -86.10317 | 27626 ft | 489 kts | 322° |
| 2026-05-09 11:20 | 56.56155 | -86.14160 | 27631 ft | 489 kts | 322° |
| 2026-05-09 11:20 | 56.58823 | -86.18018 | 27621 ft | 489 kts | 322° |
| 2026-05-09 11:20 | 56.61485 | -86.21876 | 27622 ft | 489 kts | 322° |
| 2026-05-09 11:20 | 56.64111 | -86.25689 | 27623 ft | 489 kts | 322° |
| 2026-05-09 11:21 | 56.66765 | -86.29549 | 27623 ft | 489 kts | 322° |
| 2026-05-09 11:21 | 56.69422 | -86.33421 | 27620 ft | 489 kts | 322° |
| 2026-05-09 11:21 | 56.72078 | -86.37298 | 27624 ft | 489 kts | 322° |
| 2026-05-09 11:21 | 56.74729 | -86.41176 | 27624 ft | 489 kts | 322° |
| 2026-05-09 11:22 | 56.77379 | -86.45059 | 27626 ft | 489 kts | 322° |
| 2026-05-09 11:22 | 56.80028 | -86.48949 | 27615 ft | 489 kts | 322° |
| 2026-05-09 11:22 | 56.82681 | -86.52851 | 27612 ft | 489 kts | 322° |
| 2026-05-09 11:22 | 56.85328 | -86.56753 | 27612 ft | 489 kts | 322° |
| 2026-05-09 11:23 | 56.87971 | -86.60654 | 27620 ft | 489 kts | 322° |
| 2026-05-09 11:23 | 56.90617 | -86.64569 | 27621 ft | 489 kts | 322° |
| 2026-05-09 11:23 | 56.93261 | -86.68487 | 27615 ft | 489 kts | 322° |
| 2026-05-09 11:23 | 56.95903 | -86.72409 | 27616 ft | 488 kts | 322° |
| 2026-05-09 11:24 | 56.98541 | -86.76334 | 27618 ft | 488 kts | 322° |
| 2026-05-09 11:24 | 57.01176 | -86.80261 | 27619 ft | 488 kts | 322° |
| 2026-05-09 11:24 | 57.03812 | -86.84197 | 27616 ft | 488 kts | 322° |
| 2026-05-09 11:24 | 57.06410 | -86.88083 | 27615 ft | 488 kts | 321° |
| 2026-05-09 11:25 | 57.09045 | -86.92033 | 27611 ft | 488 kts | 322° |
| 2026-05-09 11:25 | 57.11676 | -86.95984 | 27615 ft | 488 kts | 322° |
| 2026-05-09 11:25 | 57.14310 | -86.99946 | 27613 ft | 488 kts | 321° |
| 2026-05-09 11:25 | 57.16936 | -87.03904 | 27609 ft | 488 kts | 321° |
| 2026-05-09 11:26 | 57.19567 | -87.07878 | 27609 ft | 488 kts | 322° |
| 2026-05-09 11:26 | 57.22189 | -87.11845 | 27613 ft | 488 kts | 322° |
| 2026-05-09 11:26 | 57.24817 | -87.15830 | 27610 ft | 488 kts | 322° |
| 2026-05-09 11:26 | 57.27439 | -87.19812 | 27610 ft | 488 kts | 321° |
| 2026-05-09 11:27 | 57.30058 | -87.23797 | 27613 ft | 488 kts | 321° |
| 2026-05-09 11:27 | 57.32678 | -87.27792 | 27612 ft | 488 kts | 321° |
| 2026-05-09 11:27 | 57.35296 | -87.31790 | 27599 ft | 488 kts | 321° |
| 2026-05-09 11:27 | 57.37913 | -87.35796 | 27603 ft | 488 kts | 321° |
| 2026-05-09 11:28 | 57.40531 | -87.39811 | 27613 ft | 488 kts | 321° |
| 2026-05-09 11:28 | 57.43145 | -87.43828 | 27612 ft | 488 kts | 321° |
| 2026-05-09 11:28 | 57.45761 | -87.47853 | 27609 ft | 488 kts | 321° |
| 2026-05-09 11:28 | 57.48339 | -87.51830 | 27607 ft | 488 kts | 321° |
| 2026-05-09 11:29 | 57.50950 | -87.55864 | 27607 ft | 488 kts | 321° |
| 2026-05-09 11:29 | 57.53565 | -87.59912 | 27600 ft | 488 kts | 321° |
| 2026-05-09 11:29 | 57.56173 | -87.63958 | 27604 ft | 488 kts | 321° |
| 2026-05-09 11:29 | 57.58777 | -87.68006 | 27607 ft | 488 kts | 321° |
| 2026-05-09 11:30 | 57.61381 | -87.72061 | 27608 ft | 488 kts | 321° |
| 2026-05-09 11:30 | 57.63986 | -87.76124 | 27596 ft | 487 kts | 321° |
| 2026-05-09 11:30 | 57.66586 | -87.80189 | 27604 ft | 487 kts | 321° |
| 2026-05-09 11:30 | 57.69186 | -87.84262 | 27612 ft | 487 kts | 321° |
| 2026-05-09 11:31 | 57.71783 | -87.88335 | 27614 ft | 488 kts | 321° |
| 2026-05-09 11:31 | 57.74382 | -87.92422 | 27609 ft | 488 kts | 321° |
| 2026-05-09 11:31 | 57.76985 | -87.96523 | 27609 ft | 488 kts | 321° |
| 2026-05-09 11:31 | 57.79585 | -88.00627 | 27612 ft | 488 kts | 321° |
| 2026-05-09 11:32 | 57.82179 | -88.04729 | 27613 ft | 488 kts | 321° |
| 2026-05-09 11:32 | 57.84741 | -88.08790 | 27606 ft | 488 kts | 321° |
| 2026-05-09 11:32 | 57.87340 | -88.12916 | 27602 ft | 489 kts | 321° |
| 2026-05-09 11:32 | 57.89932 | -88.17038 | 27611 ft | 488 kts | 321° |
| 2026-05-09 11:33 | 57.92526 | -88.21174 | 27597 ft | 488 kts | 321° |
| 2026-05-09 11:33 | 57.95117 | -88.25313 | 27605 ft | 488 kts | 321° |
| 2026-05-09 11:33 | 58.00294 | -88.33603 | 27613 ft | 488 kts | 321° |
| 2026-05-09 11:34 | 58.02880 | -88.37757 | 27615 ft | 488 kts | 321° |
| 2026-05-09 11:34 | 58.05469 | -88.41924 | 27616 ft | 489 kts | 321° |
| 2026-05-09 11:34 | 58.08055 | -88.46096 | 27609 ft | 489 kts | 321° |
| 2026-05-09 11:34 | 58.10636 | -88.50266 | 27607 ft | 489 kts | 321° |
| 2026-05-09 11:35 | 58.13223 | -88.54457 | 27614 ft | 489 kts | 321° |
| 2026-05-09 11:35 | 58.15803 | -88.58642 | 27618 ft | 488 kts | 321° |
| 2026-05-09 11:35 | 58.18349 | -88.62781 | 27618 ft | 488 kts | 321° |
| 2026-05-09 11:35 | 58.20926 | -88.66979 | 27604 ft | 489 kts | 321° |
| 2026-05-09 11:36 | 58.23503 | -88.71185 | 27614 ft | 489 kts | 321° |
| 2026-05-09 11:36 | 58.26080 | -88.75399 | 27623 ft | 489 kts | 321° |
| 2026-05-09 11:36 | 58.28659 | -88.79627 | 27625 ft | 490 kts | 321° |
| 2026-05-09 11:36 | 58.31242 | -88.83867 | 27626 ft | 490 kts | 321° |
| 2026-05-09 11:37 | 58.32982 | -88.86729 | 27624 ft | 490 kts | 321° |
| 2026-05-09 11:37 | 58.36394 | -88.92351 | 27627 ft | 490 kts | 321° |
| 2026-05-09 11:37 | 58.38968 | -88.96602 | 27627 ft | 490 kts | 321° |
| 2026-05-09 11:37 | 58.40675 | -88.99427 | 27624 ft | 490 kts | 321° |
| 2026-05-09 11:38 | 58.43250 | -89.03695 | 27627 ft | 490 kts | 321° |
| 2026-05-09 11:38 | 58.45823 | -89.07967 | 27628 ft | 490 kts | 321° |
| 2026-05-09 11:38 | 58.48391 | -89.12240 | 27620 ft | 490 kts | 321° |
| 2026-05-09 11:38 | 58.50956 | -89.16519 | 27629 ft | 490 kts | 321° |
| 2026-05-09 11:39 | 58.53523 | -89.20807 | 27638 ft | 490 kts | 321° |
| 2026-05-09 11:39 | 58.56095 | -89.25113 | 27644 ft | 491 kts | 321° |
| 2026-05-09 11:39 | 58.58662 | -89.29418 | 27635 ft | 491 kts | 321° |
| 2026-05-09 11:40 | 58.63802 | -89.38066 | 27626 ft | 492 kts | 321° |
| 2026-05-09 11:40 | 58.66371 | -89.42404 | 27647 ft | 492 kts | 321° |
| 2026-05-09 11:40 | 58.68944 | -89.46754 | 27636 ft | 492 kts | 321° |
| 2026-05-09 11:40 | 58.71510 | -89.51104 | 27658 ft | 492 kts | 321° |
| 2026-05-09 11:41 | 58.74076 | -89.55461 | 27650 ft | 492 kts | 321° |
| 2026-05-09 11:41 | 58.76640 | -89.59824 | 27649 ft | 492 kts | 321° |
| 2026-05-09 11:41 | 58.79206 | -89.64201 | 27661 ft | 492 kts | 321° |
| 2026-05-09 11:41 | 58.81765 | -89.68573 | 27658 ft | 492 kts | 320° |
| 2026-05-09 11:42 | 58.84328 | -89.72962 | 27666 ft | 492 kts | 320° |
| 2026-05-09 11:42 | 58.86883 | -89.77346 | 27650 ft | 492 kts | 320° |
| 2026-05-09 11:42 | 58.89436 | -89.81736 | 27668 ft | 492 kts | 320° |
| 2026-05-09 11:42 | 58.91990 | -89.86136 | 27668 ft | 492 kts | 320° |
| 2026-05-09 11:43 | 58.94509 | -89.90485 | 27651 ft | 492 kts | 320° |
| 2026-05-09 11:43 | 58.97060 | -89.94896 | 27655 ft | 491 kts | 320° |
| 2026-05-09 11:43 | 58.99605 | -89.99319 | 27669 ft | 492 kts | 320° |
| 2026-05-09 11:43 | 59.02051 | -90.03961 | 27667 ft | 492 kts | 316° |
| 2026-05-09 11:44 | 59.04428 | -90.08749 | 27657 ft | 492 kts | 316° |
| 2026-05-09 11:44 | 59.06780 | -90.13570 | 27670 ft | 492 kts | 316° |
| 2026-05-09 11:44 | 59.09139 | -90.18432 | 27675 ft | 493 kts | 316° |
| 2026-05-09 11:44 | 59.11487 | -90.23286 | 27679 ft | 493 kts | 316° |
| 2026-05-09 11:45 | 59.13843 | -90.28146 | 27689 ft | 493 kts | 316° |
| 2026-05-09 11:45 | 59.16204 | -90.33011 | 27697 ft | 494 kts | 316° |
| 2026-05-09 11:45 | 59.18563 | -90.37873 | 27696 ft | 494 kts | 316° |
| 2026-05-09 11:45 | 59.20928 | -90.42748 | 27697 ft | 495 kts | 316° |
| 2026-05-09 11:46 | 59.23293 | -90.47629 | 27693 ft | 495 kts | 316° |
| 2026-05-09 11:46 | 59.25659 | -90.52516 | 27702 ft | 495 kts | 316° |
| 2026-05-09 11:46 | 59.28024 | -90.57408 | 27706 ft | 495 kts | 316° |
| 2026-05-09 11:46 | 59.30383 | -90.62303 | 27705 ft | 495 kts | 316° |
| 2026-05-09 11:47 | 59.32740 | -90.67210 | 27684 ft | 495 kts | 316° |
| 2026-05-09 11:47 | 59.35095 | -90.72123 | 27705 ft | 494 kts | 316° |
| 2026-05-09 11:47 | 59.37449 | -90.77045 | 27711 ft | 495 kts | 316° |
| 2026-05-09 11:47 | 59.39802 | -90.81975 | 27722 ft | 495 kts | 316° |
| 2026-05-09 11:48 | 59.42151 | -90.86908 | 27729 ft | 495 kts | 316° |
| 2026-05-09 11:48 | 59.44502 | -90.91856 | 27726 ft | 495 kts | 316° |
| 2026-05-09 11:48 | 59.46851 | -90.96809 | 27723 ft | 495 kts | 315° |
| 2026-05-09 11:48 | 59.49167 | -91.01704 | 27731 ft | 495 kts | 315° |
| 2026-05-09 11:49 | 59.51512 | -91.06671 | 27742 ft | 495 kts | 315° |
| 2026-05-09 11:49 | 59.53855 | -91.11645 | 27739 ft | 495 kts | 315° |
| 2026-05-09 11:49 | 59.56197 | -91.16629 | 27741 ft | 495 kts | 315° |
| 2026-05-09 11:49 | 59.58534 | -91.21612 | 27738 ft | 495 kts | 315° |
| 2026-05-09 11:50 | 59.60872 | -91.26608 | 27727 ft | 495 kts | 315° |
| 2026-05-09 11:50 | 59.63208 | -91.31611 | 27735 ft | 495 kts | 315° |
| 2026-05-09 11:50 | 59.65543 | -91.36624 | 27745 ft | 495 kts | 315° |
| 2026-05-09 11:50 | 59.67879 | -91.41648 | 27751 ft | 495 kts | 315° |
| 2026-05-09 11:51 | 59.70208 | -91.46669 | 27756 ft | 495 kts | 315° |
| 2026-05-09 11:51 | 59.72536 | -91.51700 | 27762 ft | 495 kts | 315° |
| 2026-05-09 11:51 | 59.74863 | -91.56739 | 27762 ft | 495 kts | 315° |
| 2026-05-09 11:51 | 59.77186 | -91.61780 | 27769 ft | 495 kts | 315° |
| 2026-05-09 11:52 | 59.79513 | -91.66841 | 27769 ft | 495 kts | 315° |
| 2026-05-09 11:52 | 59.81833 | -91.71899 | 27779 ft | 495 kts | 315° |
| 2026-05-09 11:52 | 59.84152 | -91.76966 | 27779 ft | 495 kts | 315° |
| 2026-05-09 11:52 | 59.86473 | -91.82048 | 27777 ft | 495 kts | 315° |
| 2026-05-09 11:53 | 59.88786 | -91.87126 | 27768 ft | 495 kts | 315° |
| 2026-05-09 11:53 | 59.91102 | -91.92220 | 27786 ft | 495 kts | 315° |
| 2026-05-09 11:53 | 59.93418 | -91.97325 | 27792 ft | 496 kts | 315° |
| 2026-05-09 11:53 | 59.95728 | -92.02428 | 27785 ft | 496 kts | 315° |
| 2026-05-09 11:54 | 59.98038 | -92.07545 | 27791 ft | 495 kts | 315° |
| 2026-05-09 11:54 | 60.00313 | -92.12594 | 27800 ft | 495 kts | 315° |
| 2026-05-09 11:54 | 60.02616 | -92.17715 | 27799 ft | 495 kts | 315° |
| 2026-05-09 11:54 | 60.04915 | -92.22842 | 27805 ft | 495 kts | 315° |
| 2026-05-09 11:55 | 60.07214 | -92.27979 | 27804 ft | 495 kts | 315° |
| 2026-05-09 11:56 | 60.18672 | -92.53754 | 27815 ft | 495 kts | 315° |
| 2026-05-09 11:56 | 60.20961 | -92.58939 | 27821 ft | 496 kts | 315° |
| 2026-05-09 11:56 | 60.23254 | -92.64144 | 27826 ft | 496 kts | 315° |
| 2026-05-09 11:57 | 60.25545 | -92.69357 | 27820 ft | 497 kts | 315° |
| 2026-05-09 11:57 | 60.27835 | -92.74581 | 27833 ft | 497 kts | 315° |
| 2026-05-09 11:57 | 60.30119 | -92.79803 | 27840 ft | 496 kts | 315° |
| 2026-05-09 11:57 | 60.32371 | -92.84963 | 27834 ft | 496 kts | 314° |
| 2026-05-09 11:58 | 60.34649 | -92.90193 | 27845 ft | 496 kts | 314° |
| 2026-05-09 11:58 | 60.36925 | -92.95431 | 27832 ft | 496 kts | 314° |
| 2026-05-09 11:58 | 60.39200 | -93.00679 | 27848 ft | 495 kts | 314° |
| 2026-05-09 11:58 | 60.41468 | -93.05925 | 27857 ft | 495 kts | 314° |
| 2026-05-09 11:59 | 60.43734 | -93.11176 | 27834 ft | 495 kts | 314° |
| 2026-05-09 11:59 | 60.45997 | -93.16434 | 27849 ft | 495 kts | 314° |
| 2026-05-09 11:59 | 60.48254 | -93.21689 | 27854 ft | 495 kts | 314° |
| 2026-05-09 11:59 | 60.50519 | -93.26973 | 27868 ft | 495 kts | 314° |
| 2026-05-09 12:00 | 60.52777 | -93.32256 | 27863 ft | 495 kts | 314° |
| 2026-05-09 12:00 | 60.55034 | -93.37545 | 27867 ft | 496 kts | 314° |
| 2026-05-09 12:00 | 60.57287 | -93.42841 | 27859 ft | 495 kts | 314° |
| 2026-05-09 12:00 | 60.59537 | -93.48141 | 27868 ft | 494 kts | 314° |
| 2026-05-09 12:01 | 60.61779 | -93.53437 | 27875 ft | 493 kts | 314° |
| 2026-05-09 12:01 | 60.64016 | -93.58731 | 27875 ft | 493 kts | 314° |
| 2026-05-09 12:01 | 60.66251 | -93.64033 | 27875 ft | 492 kts | 314° |
| 2026-05-09 12:01 | 60.68481 | -93.69334 | 27876 ft | 492 kts | 314° |
| 2026-05-09 12:02 | 60.70679 | -93.74571 | 27854 ft | 492 kts | 314° |
| 2026-05-09 12:02 | 60.72897 | -93.79870 | 27879 ft | 491 kts | 314° |
| 2026-05-09 12:02 | 60.75120 | -93.85191 | 27891 ft | 492 kts | 314° |
| 2026-05-09 12:02 | 60.77340 | -93.90516 | 27892 ft | 492 kts | 314° |
| 2026-05-09 12:03 | 60.79558 | -93.95850 | 27893 ft | 492 kts | 314° |
| 2026-05-09 12:03 | 60.81777 | -94.01200 | 27891 ft | 493 kts | 314° |
| 2026-05-09 12:03 | 60.83995 | -94.06559 | 27890 ft | 493 kts | 314° |
| 2026-05-09 12:03 | 60.86214 | -94.11936 | 27868 ft | 493 kts | 314° |
| 2026-05-09 12:04 | 60.88428 | -94.17314 | 27889 ft | 492 kts | 314° |
| 2026-05-09 12:04 | 60.90638 | -94.22692 | 27889 ft | 492 kts | 314° |
| 2026-05-09 12:04 | 60.92838 | -94.28059 | 27882 ft | 491 kts | 314° |
| 2026-05-09 12:04 | 60.95034 | -94.33430 | 27893 ft | 490 kts | 314° |
| 2026-05-09 12:05 | 60.97225 | -94.38799 | 27863 ft | 489 kts | 313° |
| 2026-05-09 12:05 | 60.99411 | -94.44168 | 27894 ft | 489 kts | 313° |
| 2026-05-09 12:05 | 61.01595 | -94.49546 | 27897 ft | 489 kts | 313° |
| 2026-05-09 12:05 | 61.03775 | -94.54926 | 27895 ft | 489 kts | 313° |
| 2026-05-09 12:06 | 61.05958 | -94.60327 | 27897 ft | 490 kts | 313° |
| 2026-05-09 12:06 | 61.08143 | -94.65745 | 27902 ft | 490 kts | 313° |
| 2026-05-09 12:06 | 61.10323 | -94.71163 | 27913 ft | 491 kts | 313° |
| 2026-05-09 12:06 | 61.12505 | -94.76599 | 27914 ft | 491 kts | 313° |
| 2026-05-09 12:07 | 61.14658 | -94.81979 | 27922 ft | 492 kts | 313° |
| 2026-05-09 12:07 | 61.16839 | -94.87440 | 27902 ft | 492 kts | 314° |
| 2026-05-09 12:07 | 61.19015 | -94.92900 | 27915 ft | 490 kts | 313° |
| 2026-05-09 12:07 | 61.21180 | -94.98348 | 27913 ft | 489 kts | 313° |
| 2026-05-09 12:08 | 61.23337 | -95.03789 | 27925 ft | 487 kts | 313° |
| 2026-05-09 12:08 | 61.25485 | -95.09221 | 27916 ft | 486 kts | 314° |
| 2026-05-09 12:08 | 61.27627 | -95.14650 | 27934 ft | 485 kts | 313° |
| 2026-05-09 12:08 | 61.29761 | -95.20069 | 27933 ft | 484 kts | 313° |
| 2026-05-09 12:09 | 61.31888 | -95.25483 | 27935 ft | 484 kts | 313° |
| 2026-05-09 12:09 | 61.34017 | -95.30914 | 27937 ft | 484 kts | 313° |
| 2026-05-09 12:09 | 61.36144 | -95.36352 | 27950 ft | 484 kts | 313° |
| 2026-05-09 12:10 | 61.42516 | -95.52726 | 27955 ft | 485 kts | 313° |
| 2026-05-09 12:10 | 61.44645 | -95.58224 | 27953 ft | 485 kts | 313° |
| 2026-05-09 12:10 | 61.46765 | -95.63712 | 27933 ft | 486 kts | 313° |
| 2026-05-09 12:11 | 61.48879 | -95.69203 | 27965 ft | 484 kts | 314° |
| 2026-05-09 12:11 | 61.50957 | -95.74610 | 27961 ft | 483 kts | 314° |
| 2026-05-09 12:11 | 61.53064 | -95.80101 | 27962 ft | 482 kts | 313° |
| 2026-05-09 12:11 | 61.55160 | -95.85580 | 27963 ft | 481 kts | 313° |
| 2026-05-09 12:12 | 61.57248 | -95.91050 | 27971 ft | 481 kts | 313° |
| 2026-05-09 12:12 | 61.59336 | -95.96531 | 27985 ft | 480 kts | 313° |
| 2026-05-09 12:12 | 61.61419 | -96.02014 | 27986 ft | 480 kts | 313° |
| 2026-05-09 12:12 | 61.63496 | -96.07495 | 27985 ft | 480 kts | 313° |
| 2026-05-09 12:13 | 61.65582 | -96.13012 | 27988 ft | 480 kts | 313° |
| 2026-05-09 12:13 | 61.67657 | -96.18510 | 27989 ft | 480 kts | 313° |
| 2026-05-09 12:13 | 61.69733 | -96.24029 | 27986 ft | 480 kts | 313° |
| 2026-05-09 12:13 | 61.71806 | -96.29551 | 27997 ft | 481 kts | 313° |
| 2026-05-09 12:14 | 61.73883 | -96.35098 | 28001 ft | 481 kts | 313° |
| 2026-05-09 12:14 | 61.75954 | -96.40644 | 27999 ft | 481 kts | 313° |
| 2026-05-09 12:14 | 61.77999 | -96.46131 | 27971 ft | 481 kts | 313° |
| 2026-05-09 12:15 | 61.82137 | -96.57276 | 27998 ft | 482 kts | 313° |
| 2026-05-09 12:15 | 61.86271 | -96.68466 | 28014 ft | 482 kts | 313° |
| 2026-05-09 12:16 | 61.90400 | -96.79695 | 28010 ft | 483 kts | 313° |
| 2026-05-09 12:16 | 61.94523 | -96.90965 | 28012 ft | 483 kts | 312° |
| 2026-05-09 12:17 | 61.98638 | -97.02272 | 28016 ft | 483 kts | 312° |
| 2026-05-09 12:17 | 62.02742 | -97.13600 | 28021 ft | 483 kts | 312° |
| 2026-05-09 12:18 | 62.06807 | -97.24879 | 28005 ft | 482 kts | 312° |
| 2026-05-09 12:18 | 62.10879 | -97.36232 | 28026 ft | 481 kts | 312° |
| 2026-05-09 12:19 | 62.14937 | -97.47602 | 28038 ft | 481 kts | 311° |
| 2026-05-09 12:19 | 62.18992 | -97.59019 | 28042 ft | 481 kts | 311° |
| 2026-05-09 12:20 | 62.23031 | -97.70450 | 28051 ft | 481 kts | 311° |
| 2026-05-09 12:20 | 62.27059 | -97.81907 | 28043 ft | 481 kts | 311° |
| 2026-05-09 12:21 | 62.31080 | -97.93400 | 28042 ft | 481 kts | 311° |
| 2026-05-09 12:21 | 62.35068 | -98.04859 | 28030 ft | 482 kts | 311° |
| 2026-05-09 12:22 | 62.39074 | -98.16426 | 28053 ft | 482 kts | 310° |
| 2026-05-09 12:22 | 62.43074 | -98.28033 | 28076 ft | 482 kts | 310° |
| 2026-05-09 12:23 | 62.47073 | -98.39700 | 28076 ft | 483 kts | 310° |
| 2026-05-09 12:23 | 62.51063 | -98.51397 | 28080 ft | 483 kts | 310° |
| 2026-05-09 12:24 | 62.55043 | -98.63129 | 28083 ft | 483 kts | 310° |
| 2026-05-09 12:24 | 62.58337 | -98.72884 | 28083 ft | 482 kts | 310° |
| 2026-05-09 12:25 | 62.62956 | -98.86630 | 28088 ft | 482 kts | 310° |
| 2026-05-09 12:25 | 62.66225 | -98.96420 | 28099 ft | 479 kts | 311° |
| 2026-05-09 12:26 | 62.70123 | -99.08133 | 28091 ft | 476 kts | 311° |
| 2026-05-09 12:26 | 62.73991 | -99.19817 | 28101 ft | 474 kts | 310° |
| 2026-05-09 12:27 | 62.77811 | -99.31418 | 28114 ft | 473 kts | 310° |
| 2026-05-09 12:27 | 62.81646 | -99.43120 | 28106 ft | 473 kts | 311° |
| 2026-05-09 12:28 | 62.85473 | -99.54863 | 28118 ft | 474 kts | 310° |
| 2026-05-09 12:28 | 62.89294 | -99.66645 | 28130 ft | 474 kts | 310° |
| 2026-05-09 12:29 | 62.93109 | -99.78475 | 28101 ft | 474 kts | 311° |
| 2026-05-09 12:29 | 62.96897 | -99.90278 | 28134 ft | 472 kts | 311° |
| 2026-05-09 12:30 | 63.00606 | -100.02185 | 28143 ft | 474 kts | 306° |
| 2026-05-09 12:30 | 63.05373 | -100.21309 | 28153 ft | 475 kts | 304° |
| 2026-05-09 12:31 | 63.10069 | -100.40434 | 28157 ft | 474 kts | 304° |
| 2026-05-09 12:32 | 63.13215 | -100.53245 | 28163 ft | 475 kts | 304° |
| 2026-05-09 12:32 | 63.16361 | -100.66097 | 28142 ft | 475 kts | 304° |
| 2026-05-09 12:33 | 63.19492 | -100.78971 | 28166 ft | 475 kts | 303° |
| 2026-05-09 12:33 | 63.22610 | -100.91874 | 28180 ft | 475 kts | 303° |
| 2026-05-09 12:34 | 63.25722 | -101.04823 | 28187 ft | 476 kts | 303° |
| 2026-05-09 12:34 | 63.28823 | -101.17805 | 28186 ft | 476 kts | 303° |
| 2026-05-09 12:35 | 63.31912 | -101.30815 | 28193 ft | 475 kts | 303° |
| 2026-05-09 12:35 | 63.34987 | -101.43844 | 28207 ft | 476 kts | 303° |
| 2026-05-09 12:36 | 63.38053 | -101.56906 | 28184 ft | 475 kts | 302° |
| 2026-05-09 12:36 | 63.41107 | -101.70006 | 28206 ft | 476 kts | 302° |
| 2026-05-09 12:37 | 63.44146 | -101.83125 | 28209 ft | 476 kts | 302° |
| 2026-05-09 12:37 | 63.47176 | -101.96277 | 28207 ft | 476 kts | 302° |
| 2026-05-09 12:38 | 63.50178 | -102.09390 | 28226 ft | 476 kts | 302° |
| 2026-05-09 12:38 | 63.53189 | -102.22617 | 28214 ft | 476 kts | 301° |
| 2026-05-09 12:39 | 63.56186 | -102.35865 | 28217 ft | 476 kts | 301° |
| 2026-05-09 12:39 | 63.59169 | -102.49130 | 28227 ft | 476 kts | 300° |
| 2026-05-09 12:40 | 63.62138 | -102.62433 | 28234 ft | 476 kts | 300° |
| 2026-05-09 12:40 | 63.65099 | -102.75773 | 28241 ft | 477 kts | 300° |
| 2026-05-09 12:41 | 63.68052 | -102.89161 | 28244 ft | 477 kts | 300° |
| 2026-05-09 12:41 | 63.70973 | -103.02480 | 28249 ft | 477 kts | 300° |
| 2026-05-09 12:42 | 63.73903 | -103.15931 | 28250 ft | 477 kts | 300° |
| 2026-05-09 12:42 | 63.76818 | -103.29398 | 28246 ft | 477 kts | 299° |
| 2026-05-09 12:43 | 63.79726 | -103.42898 | 28253 ft | 477 kts | 298° |
| 2026-05-09 12:43 | 63.82618 | -103.56450 | 28259 ft | 478 kts | 298° |
| 2026-05-09 12:44 | 63.85501 | -103.70036 | 28257 ft | 478 kts | 298° |
| 2026-05-09 12:44 | 63.88377 | -103.83667 | 28259 ft | 479 kts | 298° |
| 2026-05-09 12:45 | 63.91220 | -103.97231 | 28258 ft | 479 kts | 298° |
| 2026-05-09 12:45 | 63.94073 | -104.10933 | 28263 ft | 479 kts | 297° |
| 2026-05-09 12:46 | 63.96909 | -104.24638 | 28244 ft | 478 kts | 297° |
| 2026-05-09 12:46 | 63.99727 | -104.38345 | 28265 ft | 478 kts | 296° |
| 2026-05-09 12:47 | 64.02535 | -104.52109 | 28266 ft | 478 kts | 296° |
| 2026-05-09 12:47 | 64.05329 | -104.65890 | 28272 ft | 478 kts | 296° |
| 2026-05-09 12:48 | 64.08112 | -104.79704 | 28277 ft | 479 kts | 296° |
| 2026-05-09 12:48 | 64.10882 | -104.93549 | 28270 ft | 479 kts | 296° |
| 2026-05-09 12:49 | 64.13620 | -105.07325 | 28275 ft | 479 kts | 296° |
| 2026-05-09 12:49 | 64.16366 | -105.21234 | 28273 ft | 479 kts | 296° |
| 2026-05-09 12:50 | 64.19098 | -105.35166 | 28277 ft | 479 kts | 295° |
| 2026-05-09 12:50 | 64.21815 | -105.49119 | 28282 ft | 479 kts | 295° |
| 2026-05-09 12:51 | 64.24519 | -105.63101 | 28277 ft | 479 kts | 295° |
| 2026-05-09 12:51 | 64.27209 | -105.77111 | 28279 ft | 479 kts | 295° |
| 2026-05-09 12:52 | 64.29889 | -105.91160 | 28279 ft | 479 kts | 295° |
| 2026-05-09 12:52 | 64.32555 | -106.05236 | 28277 ft | 479 kts | 295° |
| 2026-05-09 12:53 | 64.35206 | -106.19327 | 28280 ft | 479 kts | 294° |
| 2026-05-09 12:53 | 64.37823 | -106.33340 | 28283 ft | 479 kts | 294° |
| 2026-05-09 12:54 | 64.40447 | -106.47482 | 28284 ft | 479 kts | 293° |
| 2026-05-09 12:54 | 64.43055 | -106.61657 | 28292 ft | 478 kts | 293° |
| 2026-05-09 12:55 | 64.45648 | -106.75843 | 28285 ft | 478 kts | 293° |
| 2026-05-09 12:55 | 64.48228 | -106.90056 | 28288 ft | 478 kts | 292° |
| 2026-05-09 12:56 | 64.50793 | -107.04289 | 28293 ft | 478 kts | 292° |
| 2026-05-09 12:56 | 64.53348 | -107.18567 | 28293 ft | 478 kts | 292° |
| 2026-05-09 12:57 | 64.55882 | -107.32834 | 28291 ft | 477 kts | 292° |
| 2026-05-09 12:57 | 64.58401 | -107.47125 | 28301 ft | 477 kts | 292° |
| 2026-05-09 12:58 | 64.60903 | -107.61429 | 28299 ft | 476 kts | 292° |
| 2026-05-09 12:58 | 64.63389 | -107.75730 | 28301 ft | 476 kts | 292° |
| 2026-05-09 12:59 | 64.65841 | -107.89945 | 28303 ft | 475 kts | 292° |
| 2026-05-09 12:59 | 64.68294 | -108.04276 | 28306 ft | 475 kts | 292° |
| 2026-05-09 13:00 | 64.70719 | -108.18588 | 28301 ft | 472 kts | 294° |
| 2026-05-09 13:00 | 64.73126 | -108.32842 | 28300 ft | 469 kts | 294° |
| 2026-05-09 13:01 | 64.75506 | -108.47038 | 28307 ft | 468 kts | 294° |
| 2026-05-09 13:01 | 64.77862 | -108.61233 | 28313 ft | 467 kts | 294° |
| 2026-05-09 13:02 | 64.80201 | -108.75418 | 28305 ft | 466 kts | 294° |
| 2026-05-09 13:02 | 64.82525 | -108.89606 | 28308 ft | 465 kts | 294° |
| 2026-05-09 13:03 | 64.84831 | -109.03796 | 28304 ft | 465 kts | 294° |
| 2026-05-09 13:03 | 64.87120 | -109.18004 | 28301 ft | 463 kts | 294° |
| 2026-05-09 13:04 | 64.89376 | -109.32105 | 28304 ft | 463 kts | 294° |
| 2026-05-09 13:04 | 64.91629 | -109.46295 | 28304 ft | 462 kts | 294° |
| 2026-05-09 13:05 | 64.93867 | -109.60501 | 28308 ft | 462 kts | 294° |
| 2026-05-09 13:05 | 64.96092 | -109.74732 | 28308 ft | 462 kts | 293° |
| 2026-05-09 13:06 | 64.98303 | -109.88975 | 28310 ft | 462 kts | 293° |
| 2026-05-09 13:06 | 65.00491 | -110.03256 | 28307 ft | 462 kts | 292° |
| 2026-05-09 13:07 | 65.02499 | -110.17707 | 28298 ft | 461 kts | 290° |
| 2026-05-09 13:07 | 65.04425 | -110.32185 | 28300 ft | 460 kts | 290° |
| 2026-05-09 13:08 | 65.06349 | -110.46643 | 28298 ft | 460 kts | 290° |
| 2026-05-09 13:08 | 65.08262 | -110.61010 | 28303 ft | 460 kts | 290° |
| 2026-05-09 13:09 | 65.10180 | -110.75486 | 28302 ft | 460 kts | 290° |
| 2026-05-09 13:09 | 65.12084 | -110.89973 | 28297 ft | 460 kts | 290° |
| 2026-05-09 13:10 | 65.13974 | -111.04485 | 28294 ft | 460 kts | 290° |
| 2026-05-09 13:10 | 65.15846 | -111.19007 | 28296 ft | 459 kts | 290° |
| 2026-05-09 13:11 | 65.17701 | -111.33522 | 28297 ft | 458 kts | 290° |
| 2026-05-09 13:11 | 65.19540 | -111.48043 | 28301 ft | 458 kts | 289° |
| 2026-05-09 13:12 | 65.21366 | -111.62576 | 28299 ft | 458 kts | 289° |
| 2026-05-09 13:12 | 65.23178 | -111.77132 | 28301 ft | 458 kts | 289° |
| 2026-05-09 13:13 | 65.24671 | -111.89236 | 28299 ft | 458 kts | 289° |
| 2026-05-09 13:13 | 65.26747 | -112.06221 | 28297 ft | 458 kts | 289° |
| 2026-05-09 13:14 | 65.28233 | -112.18483 | 28287 ft | 457 kts | 288° |
| 2026-05-09 13:16 | 65.35147 | -112.76891 | 28288 ft | 457 kts | 288° |
| 2026-05-09 13:16 | 65.36843 | -112.91563 | 28290 ft | 457 kts | 288° |
| 2026-05-09 13:17 | 65.38526 | -113.06263 | 28282 ft | 457 kts | 288° |
| 2026-05-09 13:17 | 65.40194 | -113.20980 | 28272 ft | 457 kts | 287° |
| 2026-05-09 13:18 | 65.41850 | -113.35733 | 28284 ft | 458 kts | 287° |
| 2026-05-09 13:18 | 65.43493 | -113.50515 | 28273 ft | 458 kts | 287° |
| 2026-05-09 13:19 | 65.45121 | -113.65314 | 28269 ft | 458 kts | 287° |
| 2026-05-09 13:19 | 65.46737 | -113.80161 | 28265 ft | 458 kts | 287° |
| 2026-05-09 13:20 | 65.48326 | -113.94900 | 28268 ft | 458 kts | 287° |
| 2026-05-09 13:20 | 65.49910 | -114.09752 | 28269 ft | 458 kts | 286° |
| 2026-05-09 13:21 | 65.51483 | -114.24627 | 28246 ft | 458 kts | 285° |
| 2026-05-09 13:21 | 65.53041 | -114.39540 | 28262 ft | 459 kts | 285° |
| 2026-05-09 13:22 | 65.54586 | -114.54505 | 28262 ft | 460 kts | 285° |
| 2026-05-09 13:22 | 65.56121 | -114.69517 | 28263 ft | 461 kts | 285° |
| 2026-05-09 13:23 | 65.59883 | -115.07022 | 28245 ft | 459 kts | 285° |
| 2026-05-09 13:24 | 65.61361 | -115.22044 | 28241 ft | 459 kts | 284° |
| 2026-05-09 13:24 | 65.62824 | -115.37081 | 28241 ft | 459 kts | 284° |
| 2026-05-09 13:25 | 65.64273 | -115.52143 | 28231 ft | 459 kts | 284° |
| 2026-05-09 13:26 | 65.66417 | -115.74744 | 28227 ft | 459 kts | 284° |
| 2026-05-09 13:26 | 65.67828 | -115.89851 | 28228 ft | 459 kts | 284° |
| 2026-05-09 13:27 | 65.69225 | -116.04964 | 28224 ft | 459 kts | 284° |
| 2026-05-09 13:27 | 65.70599 | -116.20020 | 28222 ft | 459 kts | 284° |
| 2026-05-09 13:28 | 65.71968 | -116.35193 | 28190 ft | 460 kts | 283° |
| 2026-05-09 13:28 | 65.73323 | -116.50393 | 28205 ft | 461 kts | 283° |
| 2026-05-09 13:29 | 65.74668 | -116.65670 | 28207 ft | 462 kts | 283° |
| 2026-05-09 13:29 | 65.75998 | -116.80970 | 28200 ft | 463 kts | 283° |
| 2026-05-09 13:30 | 65.77315 | -116.96310 | 28218 ft | 463 kts | 282° |
| 2026-05-09 13:30 | 65.78617 | -117.11670 | 28199 ft | 463 kts | 282° |
| 2026-05-09 13:31 | 65.79902 | -117.27024 | 28185 ft | 462 kts | 282° |
| 2026-05-09 13:31 | 65.81170 | -117.42383 | 28166 ft | 461 kts | 282° |
| 2026-05-09 13:32 | 65.82413 | -117.57633 | 28182 ft | 461 kts | 281° |
| 2026-05-09 13:32 | 65.84264 | -117.80723 | 28185 ft | 462 kts | 281° |
| 2026-05-09 13:33 | 65.85480 | -117.96140 | 28177 ft | 462 kts | 281° |
| 2026-05-09 13:33 | 65.86681 | -118.11591 | 28167 ft | 463 kts | 281° |
| 2026-05-09 13:34 | 65.87866 | -118.27054 | 28163 ft | 463 kts | 281° |
| 2026-05-09 13:34 | 65.89037 | -118.42540 | 28163 ft | 463 kts | 281° |
| 2026-05-09 13:35 | 65.90191 | -118.58029 | 28141 ft | 463 kts | 280° |
| 2026-05-09 13:35 | 65.91330 | -118.73550 | 28144 ft | 464 kts | 280° |
| 2026-05-09 13:36 | 65.92450 | -118.89019 | 28146 ft | 464 kts | 279° |
| 2026-05-09 13:36 | 65.93560 | -119.04600 | 28136 ft | 464 kts | 279° |
| 2026-05-09 13:37 | 65.94656 | -119.20201 | 28135 ft | 465 kts | 279° |
| 2026-05-09 13:37 | 65.95736 | -119.35814 | 28106 ft | 465 kts | 279° |
| 2026-05-09 13:38 | 65.96800 | -119.51452 | 28109 ft | 464 kts | 279° |
| 2026-05-09 13:38 | 65.97848 | -119.67087 | 28107 ft | 465 kts | 278° |
| 2026-05-09 13:39 | 65.98884 | -119.82759 | 28114 ft | 466 kts | 278° |
| 2026-05-09 13:39 | 65.99950 | -119.98455 | 28092 ft | 466 kts | 281° |
| 2026-05-09 13:40 | 66.01804 | -120.13739 | 28109 ft | 467 kts | 288° |
| 2026-05-09 13:40 | 66.03895 | -120.28851 | 28080 ft | 467 kts | 287° |
| 2026-05-09 13:41 | 66.05952 | -120.44026 | 28079 ft | 467 kts | 287° |
| 2026-05-09 13:41 | 66.07976 | -120.59212 | 28091 ft | 467 kts | 287° |
| 2026-05-09 13:42 | 66.09970 | -120.74340 | 28079 ft | 466 kts | 287° |
| 2026-05-09 13:42 | 66.11964 | -120.89602 | 28098 ft | 467 kts | 286° |
| 2026-05-09 13:43 | 66.13942 | -121.04886 | 28067 ft | 467 kts | 286° |
| 2026-05-09 13:43 | 66.15907 | -121.20201 | 28064 ft | 467 kts | 286° |
| 2026-05-09 13:44 | 66.17840 | -121.35412 | 28055 ft | 467 kts | 286° |
| 2026-05-09 13:44 | 66.19771 | -121.50742 | 28054 ft | 467 kts | 286° |
| 2026-05-09 13:45 | 66.21686 | -121.66096 | 28052 ft | 466 kts | 285° |
| 2026-05-09 13:45 | 66.23586 | -121.81464 | 28041 ft | 466 kts | 285° |
| 2026-05-09 13:46 | 66.25470 | -121.96855 | 28057 ft | 466 kts | 285° |
| 2026-05-09 13:46 | 66.27339 | -122.12271 | 28033 ft | 467 kts | 285° |
| 2026-05-09 13:47 | 66.29195 | -122.27732 | 28039 ft | 467 kts | 285° |
| 2026-05-09 13:47 | 66.31035 | -122.43209 | 28026 ft | 467 kts | 285° |
| 2026-05-09 13:48 | 66.32861 | -122.58727 | 28021 ft | 467 kts | 284° |
| 2026-05-09 13:48 | 66.34673 | -122.74273 | 28022 ft | 467 kts | 284° |
| 2026-05-09 13:49 | 66.36457 | -122.89729 | 28016 ft | 467 kts | 284° |
| 2026-05-09 13:49 | 66.38235 | -123.05293 | 28035 ft | 467 kts | 284° |
| 2026-05-09 13:50 | 66.39998 | -123.20887 | 28019 ft | 467 kts | 284° |
| 2026-05-09 13:50 | 66.41747 | -123.36512 | 27995 ft | 467 kts | 283° |
| 2026-05-09 13:51 | 66.42616 | -123.44332 | 27996 ft | 467 kts | 283° |
| 2026-05-09 13:51 | 66.43480 | -123.52155 | 28004 ft | 467 kts | 283° |
| 2026-05-09 13:51 | 66.45197 | -123.67828 | 28002 ft | 468 kts | 283° |
| 2026-05-09 13:52 | 66.46902 | -123.83539 | 28001 ft | 468 kts | 283° |
| 2026-05-09 13:52 | 66.47749 | -123.91414 | 27986 ft | 468 kts | 283° |
| 2026-05-09 13:52 | 66.48592 | -123.99287 | 27987 ft | 468 kts | 283° |
| 2026-05-09 13:53 | 66.49431 | -124.07165 | 27987 ft | 468 kts | 283° |
| 2026-05-09 13:53 | 66.50266 | -124.15050 | 28006 ft | 468 kts | 283° |
| 2026-05-09 13:53 | 66.51096 | -124.22936 | 27989 ft | 468 kts | 283° |
| 2026-05-09 13:53 | 66.51922 | -124.30821 | 27986 ft | 467 kts | 282° |
| 2026-05-09 13:54 | 66.52743 | -124.38709 | 27985 ft | 467 kts | 282° |
| 2026-05-09 13:54 | 66.53559 | -124.46581 | 27973 ft | 466 kts | 282° |
| 2026-05-09 13:54 | 66.54370 | -124.54460 | 27972 ft | 466 kts | 282° |
| 2026-05-09 13:54 | 66.55176 | -124.62321 | 27971 ft | 465 kts | 282° |
| 2026-05-09 13:55 | 66.55967 | -124.70092 | 27961 ft | 466 kts | 282° |
| 2026-05-09 13:55 | 66.56767 | -124.77996 | 27964 ft | 467 kts | 282° |
| 2026-05-09 13:55 | 66.57565 | -124.85917 | 27979 ft | 468 kts | 282° |
| 2026-05-09 13:55 | 66.58361 | -124.93868 | 27970 ft | 470 kts | 282° |
| 2026-05-09 13:56 | 66.59156 | -125.01846 | 27967 ft | 471 kts | 282° |
| 2026-05-09 13:56 | 66.59949 | -125.09852 | 27965 ft | 472 kts | 282° |
| 2026-05-09 13:56 | 66.60738 | -125.17864 | 27963 ft | 472 kts | 282° |
| 2026-05-09 13:56 | 66.61524 | -125.25895 | 27979 ft | 472 kts | 281° |
| 2026-05-09 13:57 | 66.62306 | -125.33917 | 27967 ft | 471 kts | 281° |
| 2026-05-09 13:57 | 66.63079 | -125.41908 | 27964 ft | 470 kts | 281° |
| 2026-05-09 13:57 | 66.63851 | -125.49921 | 27937 ft | 468 kts | 281° |
| 2026-05-09 13:57 | 66.64612 | -125.57886 | 27936 ft | 467 kts | 281° |
| 2026-05-09 13:58 | 66.65367 | -125.65828 | 27938 ft | 466 kts | 281° |
| 2026-05-09 13:58 | 66.66118 | -125.73783 | 27943 ft | 465 kts | 281° |
| 2026-05-09 13:58 | 66.66864 | -125.81722 | 27941 ft | 465 kts | 281° |
| 2026-05-09 13:58 | 66.67604 | -125.89658 | 27940 ft | 465 kts | 281° |
| 2026-05-09 13:59 | 66.68342 | -125.97603 | 27939 ft | 465 kts | 281° |
| 2026-05-09 13:59 | 66.69067 | -126.05467 | 27927 ft | 468 kts | 280° |
| 2026-05-09 13:59 | 66.69805 | -126.13523 | 27935 ft | 473 kts | 280° |
| 2026-05-09 13:59 | 66.70545 | -126.21652 | 27937 ft | 474 kts | 280° |
| 2026-05-09 14:00 | 66.71279 | -126.29761 | 27925 ft | 474 kts | 280° |
| 2026-05-09 14:00 | 66.71526 | -126.32495 | 27926 ft | 473 kts | 280° |
| 2026-05-09 14:00 | 66.72735 | -126.45972 | 27931 ft | 471 kts | 280° |
| 2026-05-09 14:00 | 66.73452 | -126.54036 | 27925 ft | 469 kts | 280° |
| 2026-05-09 14:01 | 66.74162 | -126.62079 | 27912 ft | 468 kts | 280° |
| 2026-05-09 14:01 | 66.74866 | -126.70103 | 27907 ft | 467 kts | 280° |
| 2026-05-09 14:01 | 66.75565 | -126.78121 | 27909 ft | 466 kts | 279° |
| 2026-05-09 14:01 | 66.76259 | -126.86129 | 27911 ft | 466 kts | 279° |
| 2026-05-09 14:02 | 66.76716 | -126.91433 | 27913 ft | 465 kts | 279° |
| 2026-05-09 14:02 | 66.77634 | -127.02164 | 27914 ft | 466 kts | 279° |
| 2026-05-09 14:02 | 66.78086 | -127.07479 | 27914 ft | 466 kts | 279° |
| 2026-05-09 14:02 | 66.78765 | -127.15512 | 27899 ft | 467 kts | 279° |
| 2026-05-09 14:03 | 66.79441 | -127.23561 | 27897 ft | 467 kts | 279° |
| 2026-05-09 14:03 | 66.80115 | -127.31635 | 27895 ft | 468 kts | 279° |
| 2026-05-09 14:03 | 66.80786 | -127.39722 | 27897 ft | 468 kts | 279° |
| 2026-05-09 14:03 | 66.81451 | -127.47801 | 27896 ft | 468 kts | 279° |
| 2026-05-09 14:04 | 66.82113 | -127.55897 | 27897 ft | 469 kts | 279° |
| 2026-05-09 14:04 | 66.82773 | -127.64009 | 27886 ft | 469 kts | 279° |
| 2026-05-09 14:04 | 66.83427 | -127.72123 | 27886 ft | 469 kts | 279° |
| 2026-05-09 14:04 | 66.84079 | -127.80250 | 27885 ft | 469 kts | 279° |
| 2026-05-09 14:05 | 66.84725 | -127.88372 | 27884 ft | 469 kts | 279° |
| 2026-05-09 14:05 | 66.85368 | -127.96508 | 27885 ft | 469 kts | 279° |
| 2026-05-09 14:05 | 66.86005 | -128.04621 | 27885 ft | 469 kts | 278° |
| 2026-05-09 14:05 | 66.86639 | -128.12749 | 27883 ft | 469 kts | 278° |
| 2026-05-09 14:06 | 66.87269 | -128.20890 | 27881 ft | 469 kts | 278° |
| 2026-05-09 14:06 | 66.87893 | -128.29016 | 27884 ft | 468 kts | 278° |
| 2026-05-09 14:06 | 66.88514 | -128.37161 | 27883 ft | 468 kts | 278° |
| 2026-05-09 14:06 | 66.89131 | -128.45306 | 27879 ft | 468 kts | 278° |
| 2026-05-09 14:07 | 66.89742 | -128.53440 | 27880 ft | 468 kts | 278° |
| 2026-05-09 14:07 | 66.90342 | -128.61478 | 27904 ft | 468 kts | 278° |
| 2026-05-09 14:07 | 66.90946 | -128.69630 | 27891 ft | 468 kts | 278° |
| 2026-05-09 14:07 | 66.91547 | -128.77797 | 27875 ft | 469 kts | 278° |
| 2026-05-09 14:08 | 66.92143 | -128.85976 | 27875 ft | 470 kts | 278° |
| 2026-05-09 14:08 | 66.92737 | -128.94179 | 27874 ft | 470 kts | 277° |
| 2026-05-09 14:08 | 66.93326 | -129.02372 | 27875 ft | 470 kts | 277° |
| 2026-05-09 14:08 | 66.93912 | -129.10588 | 27879 ft | 471 kts | 277° |
| 2026-05-09 14:09 | 66.94493 | -129.18797 | 27880 ft | 471 kts | 277° |
| 2026-05-09 14:09 | 66.95072 | -129.27034 | 27877 ft | 471 kts | 277° |
| 2026-05-09 14:09 | 66.95646 | -129.35277 | 27866 ft | 472 kts | 277° |
| 2026-05-09 14:09 | 66.96216 | -129.43525 | 27873 ft | 472 kts | 277° |
| 2026-05-09 14:10 | 66.97344 | -129.60027 | 27874 ft | 471 kts | 277° |
| 2026-05-09 14:10 | 66.97902 | -129.68295 | 27873 ft | 471 kts | 277° |
| 2026-05-09 14:10 | 66.98454 | -129.76537 | 27897 ft | 471 kts | 277° |
| 2026-05-09 14:11 | 66.99004 | -129.84795 | 27876 ft | 471 kts | 277° |
| 2026-05-09 14:11 | 66.99549 | -129.93068 | 27875 ft | 471 kts | 277° |
| 2026-05-09 14:11 | 67.00037 | -130.01232 | 27869 ft | 470 kts | 274° |
| 2026-05-09 14:11 | 67.00259 | -130.09542 | 27871 ft | 468 kts | 270° |
| 2026-05-09 14:12 | 67.00399 | -130.17968 | 27865 ft | 468 kts | 270° |
| 2026-05-09 14:12 | 67.00527 | -130.26193 | 27868 ft | 468 kts | 270° |
| 2026-05-09 14:12 | 67.00658 | -130.34518 | 27863 ft | 469 kts | 270° |
| 2026-05-09 14:12 | 67.00791 | -130.42846 | 27864 ft | 469 kts | 270° |
| 2026-05-09 14:13 | 67.00925 | -130.51192 | 27862 ft | 470 kts | 270° |
| 2026-05-09 14:14 | 67.01788 | -131.09713 | 27874 ft | 471 kts | 269° |
| 2026-05-09 14:15 | 67.01893 | -131.18090 | 27867 ft | 471 kts | 269° |
| 2026-05-09 14:15 | 67.01995 | -131.26459 | 27867 ft | 471 kts | 269° |
| 2026-05-09 14:15 | 67.02092 | -131.34831 | 27869 ft | 471 kts | 269° |
| 2026-05-09 14:15 | 67.02185 | -131.43219 | 27864 ft | 471 kts | 269° |
| 2026-05-09 14:16 | 67.02274 | -131.51601 | 27862 ft | 471 kts | 269° |
| 2026-05-09 14:16 | 67.02358 | -131.59974 | 27870 ft | 471 kts | 269° |
| 2026-05-09 14:16 | 67.02437 | -131.68364 | 27872 ft | 471 kts | 269° |
| 2026-05-09 14:16 | 67.02512 | -131.76753 | 27867 ft | 471 kts | 269° |
| 2026-05-09 14:17 | 67.02583 | -131.85141 | 27874 ft | 471 kts | 269° |
| 2026-05-09 14:17 | 67.02649 | -131.93433 | 27875 ft | 471 kts | 269° |
| 2026-05-09 14:17 | 67.02711 | -132.01815 | 27875 ft | 471 kts | 269° |
| 2026-05-09 14:17 | 67.02769 | -132.10208 | 27880 ft | 471 kts | 268° |
| 2026-05-09 14:18 | 67.02822 | -132.18595 | 27878 ft | 471 kts | 268° |
| 2026-05-09 14:18 | 67.02870 | -132.26986 | 27879 ft | 471 kts | 268° |
| 2026-05-09 14:18 | 67.02915 | -132.35372 | 27914 ft | 471 kts | 268° |
| 2026-05-09 14:18 | 67.02954 | -132.43775 | 27892 ft | 472 kts | 268° |
| 2026-05-09 14:19 | 67.02990 | -132.52195 | 27894 ft | 473 kts | 268° |
| 2026-05-09 14:19 | 67.03021 | -132.60618 | 27893 ft | 474 kts | 268° |
| 2026-05-09 14:19 | 67.03048 | -132.69045 | 27891 ft | 474 kts | 268° |
| 2026-05-09 14:19 | 67.03071 | -132.77496 | 27895 ft | 475 kts | 268° |
| 2026-05-09 14:20 | 67.03088 | -132.85958 | 27907 ft | 475 kts | 268° |
| 2026-05-09 14:20 | 67.03102 | -132.94415 | 27905 ft | 476 kts | 268° |
| 2026-05-09 14:20 | 67.03111 | -133.02897 | 27905 ft | 476 kts | 268° |
| 2026-05-09 14:21 | 67.03115 | -133.19845 | 27913 ft | 476 kts | 268° |
| 2026-05-09 14:21 | 67.03111 | -133.28320 | 27912 ft | 476 kts | 268° |
| 2026-05-09 14:21 | 67.03102 | -133.36775 | 27921 ft | 476 kts | 268° |
| 2026-05-09 14:21 | 67.03088 | -133.45242 | 27919 ft | 475 kts | 268° |
| 2026-05-09 14:22 | 67.03070 | -133.53699 | 27920 ft | 475 kts | 267° |
| 2026-05-09 14:22 | 67.03048 | -133.62154 | 27921 ft | 475 kts | 267° |
| 2026-05-09 14:22 | 67.03021 | -133.70606 | 27945 ft | 475 kts | 267° |
| 2026-05-09 14:22 | 67.02989 | -133.79065 | 27935 ft | 476 kts | 267° |
| 2026-05-09 14:23 | 67.02953 | -133.87431 | 27941 ft | 476 kts | 267° |
| 2026-05-09 14:23 | 67.02913 | -133.95911 | 27937 ft | 477 kts | 267° |
| 2026-05-09 14:23 | 67.02867 | -134.04518 | 27937 ft | 477 kts | 267° |
| 2026-05-09 14:23 | 67.02818 | -134.12912 | 27939 ft | 478 kts | 267° |
| 2026-05-09 14:24 | 67.02764 | -134.21417 | 27949 ft | 478 kts | 267° |
| 2026-05-09 14:24 | 67.02705 | -134.29933 | 27952 ft | 478 kts | 267° |
| 2026-05-09 14:24 | 67.02642 | -134.38439 | 27950 ft | 479 kts | 267° |
| 2026-05-09 14:24 | 67.02574 | -134.46965 | 27952 ft | 479 kts | 266° |
| 2026-05-09 14:25 | 67.02501 | -134.55483 | 27949 ft | 479 kts | 266° |
| 2026-05-09 14:25 | 67.02424 | -134.63992 | 27949 ft | 478 kts | 266° |
| 2026-05-09 14:25 | 67.02343 | -134.72507 | 27957 ft | 478 kts | 266° |
| 2026-05-09 14:25 | 67.02257 | -134.81008 | 27954 ft | 478 kts | 266° |
| 2026-05-09 14:26 | 67.02166 | -134.89525 | 27957 ft | 478 kts | 266° |
| 2026-05-09 14:26 | 67.02071 | -134.98029 | 27978 ft | 478 kts | 266° |
| 2026-05-09 14:26 | 67.01971 | -135.06533 | 27968 ft | 478 kts | 266° |
| 2026-05-09 14:26 | 67.01867 | -135.15042 | 27962 ft | 479 kts | 266° |
| 2026-05-09 14:27 | 67.01758 | -135.23562 | 27960 ft | 479 kts | 266° |
| 2026-05-09 14:27 | 67.01644 | -135.32082 | 27955 ft | 479 kts | 266° |
| 2026-05-09 14:27 | 67.01526 | -135.40598 | 27946 ft | 480 kts | 266° |
| 2026-05-09 14:27 | 67.01403 | -135.49120 | 27949 ft | 480 kts | 266° |
| 2026-05-09 14:28 | 67.01276 | -135.57655 | 27945 ft | 480 kts | 265° |
| 2026-05-09 14:28 | 67.01144 | -135.66194 | 27946 ft | 480 kts | 265° |
| 2026-05-09 14:28 | 67.01007 | -135.74714 | 27938 ft | 480 kts | 265° |
| 2026-05-09 14:28 | 67.00867 | -135.83231 | 27921 ft | 480 kts | 265° |
| 2026-05-09 14:29 | 67.00721 | -135.91762 | 27919 ft | 480 kts | 265° |
| 2026-05-09 14:29 | 67.00571 | -136.00280 | 27918 ft | 480 kts | 265° |
| 2026-05-09 14:29 | 67.00418 | -136.08686 | 27916 ft | 480 kts | 265° |
| 2026-05-09 14:29 | 67.00259 | -136.17212 | 27915 ft | 480 kts | 265° |
| 2026-05-09 14:30 | 67.00093 | -136.25839 | 27920 ft | 480 kts | 265° |
| 2026-05-09 14:30 | 66.99927 | -136.34242 | 27876 ft | 480 kts | 264° |
| 2026-05-09 14:30 | 66.99754 | -136.42784 | 27870 ft | 480 kts | 264° |
| 2026-05-09 14:30 | 66.99576 | -136.51304 | 27871 ft | 480 kts | 264° |
| 2026-05-09 14:31 | 66.99394 | -136.59815 | 27868 ft | 480 kts | 264° |
| 2026-05-09 14:31 | 66.99207 | -136.68338 | 27865 ft | 480 kts | 264° |
| 2026-05-09 14:31 | 66.99016 | -136.76852 | 27858 ft | 480 kts | 264° |
| 2026-05-09 14:31 | 66.98820 | -136.85372 | 27865 ft | 480 kts | 264° |
| 2026-05-09 14:32 | 66.98620 | -136.93878 | 27864 ft | 480 kts | 264° |
| 2026-05-09 14:32 | 66.98415 | -137.02373 | 27862 ft | 480 kts | 264° |
| 2026-05-09 14:32 | 66.98206 | -137.10881 | 27865 ft | 480 kts | 264° |
| 2026-05-09 14:32 | 66.97992 | -137.19382 | 27867 ft | 480 kts | 264° |
| 2026-05-09 14:33 | 66.97774 | -137.27888 | 27863 ft | 480 kts | 264° |
| 2026-05-09 14:33 | 66.97551 | -137.36387 | 27869 ft | 480 kts | 264° |
| 2026-05-09 14:33 | 66.97323 | -137.44903 | 27864 ft | 480 kts | 263° |
| 2026-05-09 14:33 | 66.97091 | -137.53405 | 27876 ft | 480 kts | 263° |
| 2026-05-09 14:34 | 66.96855 | -137.61914 | 27894 ft | 480 kts | 263° |
| 2026-05-09 14:34 | 66.96613 | -137.70439 | 27872 ft | 481 kts | 263° |
| 2026-05-09 14:34 | 66.96369 | -137.78847 | 27865 ft | 481 kts | 263° |
| 2026-05-09 14:34 | 66.96118 | -137.87365 | 27872 ft | 481 kts | 263° |
| 2026-05-09 14:35 | 66.95863 | -137.95869 | 27871 ft | 481 kts | 263° |
| 2026-05-09 14:35 | 66.95603 | -138.04371 | 27860 ft | 481 kts | 263° |
| 2026-05-09 14:35 | 66.95338 | -138.12883 | 27865 ft | 480 kts | 263° |
| 2026-05-09 14:35 | 66.95070 | -138.21376 | 27869 ft | 480 kts | 262° |
| 2026-05-09 14:36 | 66.94797 | -138.29864 | 27859 ft | 480 kts | 262° |
| 2026-05-09 14:36 | 66.94520 | -138.38339 | 27856 ft | 480 kts | 262° |
| 2026-05-09 14:36 | 66.94238 | -138.46816 | 27857 ft | 479 kts | 262° |
| 2026-05-09 14:36 | 66.93952 | -138.55299 | 27862 ft | 479 kts | 262° |
| 2026-05-09 14:37 | 66.93661 | -138.63767 | 27858 ft | 479 kts | 262° |
| 2026-05-09 14:37 | 66.93366 | -138.72223 | 27871 ft | 479 kts | 262° |
| 2026-05-09 14:37 | 66.93065 | -138.80713 | 27862 ft | 480 kts | 262° |
| 2026-05-09 14:37 | 66.92760 | -138.89207 | 27855 ft | 481 kts | 262° |
| 2026-05-09 14:38 | 66.92454 | -138.97605 | 27873 ft | 482 kts | 262° |
| 2026-05-09 14:38 | 66.92139 | -139.06105 | 27869 ft | 482 kts | 261° |
| 2026-05-09 14:38 | 66.91821 | -139.14595 | 27856 ft | 482 kts | 261° |
| 2026-05-09 14:38 | 66.91497 | -139.23093 | 27851 ft | 481 kts | 261° |
| 2026-05-09 14:39 | 66.91168 | -139.31583 | 27849 ft | 481 kts | 261° |
| 2026-05-09 14:39 | 66.90836 | -139.40059 | 27844 ft | 481 kts | 261° |
| 2026-05-09 14:39 | 66.90499 | -139.48520 | 27848 ft | 480 kts | 261° |
| 2026-05-09 14:39 | 66.90158 | -139.56981 | 27859 ft | 479 kts | 261° |
| 2026-05-09 14:40 | 66.89813 | -139.65417 | 27855 ft | 479 kts | 261° |
| 2026-05-09 14:40 | 66.89464 | -139.73866 | 27821 ft | 479 kts | 261° |
| 2026-05-09 14:40 | 66.89112 | -139.82288 | 27826 ft | 479 kts | 261° |
| 2026-05-09 14:40 | 66.88754 | -139.90716 | 27828 ft | 478 kts | 261° |
| 2026-05-09 14:41 | 66.88392 | -139.99130 | 27833 ft | 478 kts | 261° |
| 2026-05-09 14:41 | 66.88024 | -140.07556 | 27829 ft | 479 kts | 261° |
| 2026-05-09 14:41 | 66.87653 | -140.15963 | 27840 ft | 479 kts | 261° |
| 2026-05-09 14:41 | 66.87278 | -140.24376 | 27812 ft | 479 kts | 260° |
| 2026-05-09 14:42 | 66.86897 | -140.32805 | 27808 ft | 479 kts | 260° |
| 2026-05-09 14:42 | 66.86512 | -140.41227 | 27815 ft | 480 kts | 260° |
| 2026-05-09 14:42 | 66.86122 | -140.49655 | 27811 ft | 480 kts | 260° |
| 2026-05-09 14:42 | 66.85733 | -140.57977 | 27819 ft | 480 kts | 260° |
| 2026-05-09 14:43 | 66.85334 | -140.66405 | 27809 ft | 480 kts | 260° |
| 2026-05-09 14:43 | 66.84933 | -140.74827 | 27817 ft | 480 kts | 260° |
| 2026-05-09 14:43 | 66.84527 | -140.83253 | 27825 ft | 480 kts | 260° |
| 2026-05-09 14:43 | 66.84117 | -140.91658 | 27808 ft | 480 kts | 260° |
| 2026-05-09 14:44 | 66.83872 | -141.00137 | 27807 ft | 482 kts | 265° |
| 2026-05-09 14:44 | 66.83940 | -141.08667 | 27820 ft | 484 kts | 271° |
| 2026-05-09 14:44 | 66.84281 | -141.17189 | 27828 ft | 485 kts | 273° |
| 2026-05-09 14:44 | 66.84635 | -141.25730 | 27769 ft | 486 kts | 273° |
| 2026-05-09 14:45 | 66.84983 | -141.34286 | 27789 ft | 486 kts | 272° |
| 2026-05-09 14:45 | 66.85320 | -141.42841 | 27796 ft | 487 kts | 272° |
| 2026-05-09 14:45 | 66.85646 | -141.51409 | 27786 ft | 486 kts | 272° |
| 2026-05-09 14:45 | 66.85961 | -141.59960 | 27789 ft | 486 kts | 271° |
| 2026-05-09 14:46 | 66.86269 | -141.68511 | 27777 ft | 486 kts | 271° |
| 2026-05-09 14:46 | 66.86570 | -141.77069 | 27785 ft | 485 kts | 271° |
| 2026-05-09 14:46 | 66.86865 | -141.85620 | 27793 ft | 485 kts | 271° |
| 2026-05-09 14:46 | 66.87156 | -141.94180 | 27747 ft | 485 kts | 271° |
| 2026-05-09 14:47 | 66.87442 | -142.02729 | 27752 ft | 485 kts | 271° |
| 2026-05-09 14:47 | 66.87723 | -142.11278 | 27753 ft | 485 kts | 271° |
| 2026-05-09 14:47 | 66.88000 | -142.19827 | 27750 ft | 485 kts | 271° |
| 2026-05-09 14:47 | 66.88181 | -142.25480 | 27752 ft | 485 kts | 271° |
| 2026-05-09 14:48 | 66.88538 | -142.36811 | 27762 ft | 484 kts | 271° |
| 2026-05-09 14:48 | 66.88801 | -142.45343 | 27764 ft | 484 kts | 271° |
| 2026-05-09 14:48 | 66.89061 | -142.53889 | 27766 ft | 484 kts | 270° |
| 2026-05-09 14:48 | 66.89315 | -142.62431 | 27750 ft | 483 kts | 270° |
| 2026-05-09 14:49 | 66.89564 | -142.70964 | 27764 ft | 483 kts | 270° |
| 2026-05-09 14:49 | 66.89807 | -142.79480 | 27762 ft | 482 kts | 270° |
| 2026-05-09 14:49 | 66.89969 | -142.85234 | 27763 ft | 482 kts | 270° |
| 2026-05-09 14:49 | 66.90203 | -142.93659 | 27776 ft | 482 kts | 270° |
| 2026-05-09 14:50 | 66.90434 | -143.02190 | 27767 ft | 483 kts | 270° |
| 2026-05-09 14:50 | 66.90661 | -143.10715 | 27769 ft | 483 kts | 270° |
| 2026-05-09 14:50 | 66.90885 | -143.19263 | 27752 ft | 483 kts | 270° |
| 2026-05-09 14:50 | 66.91103 | -143.27793 | 27759 ft | 483 kts | 270° |
| 2026-05-09 14:51 | 66.91317 | -143.36333 | 27757 ft | 483 kts | 269° |
| 2026-05-09 14:51 | 66.91526 | -143.44887 | 27753 ft | 483 kts | 269° |
| 2026-05-09 14:51 | 66.91731 | -143.53441 | 27790 ft | 483 kts | 269° |
| 2026-05-09 14:51 | 66.91932 | -143.61999 | 27768 ft | 484 kts | 269° |
| 2026-05-09 14:52 | 66.92125 | -143.70441 | 27761 ft | 484 kts | 269° |
| 2026-05-09 14:52 | 66.92316 | -143.79006 | 27760 ft | 483 kts | 269° |
| 2026-05-09 14:52 | 66.92502 | -143.87557 | 27738 ft | 483 kts | 269° |
| 2026-05-09 14:52 | 66.92684 | -143.96120 | 27753 ft | 483 kts | 269° |
| 2026-05-09 14:53 | 66.92861 | -144.04657 | 27755 ft | 483 kts | 269° |
| 2026-05-09 14:53 | 66.93033 | -144.13217 | 27759 ft | 483 kts | 269° |
| 2026-05-09 14:53 | 66.93201 | -144.21762 | 27755 ft | 482 kts | 268° |
| 2026-05-09 14:53 | 66.93364 | -144.30300 | 27755 ft | 482 kts | 268° |
| 2026-05-09 14:54 | 66.93522 | -144.38835 | 27764 ft | 482 kts | 268° |
| 2026-05-09 14:54 | 66.93676 | -144.47375 | 27763 ft | 482 kts | 268° |
| 2026-05-09 14:54 | 66.93825 | -144.55924 | 27755 ft | 482 kts | 268° |
| 2026-05-09 14:54 | 66.93970 | -144.64465 | 27772 ft | 483 kts | 268° |
| 2026-05-09 14:55 | 66.94110 | -144.73032 | 27750 ft | 484 kts | 268° |
| 2026-05-09 14:55 | 66.94246 | -144.81618 | 27759 ft | 484 kts | 268° |
| 2026-05-09 14:55 | 66.94377 | -144.90189 | 27756 ft | 484 kts | 268° |
| 2026-05-09 14:55 | 66.94503 | -144.98771 | 27758 ft | 484 kts | 268° |
| 2026-05-09 14:56 | 66.94625 | -145.07346 | 27755 ft | 484 kts | 268° |
| 2026-05-09 14:56 | 66.94743 | -145.15923 | 27755 ft | 484 kts | 267° |
| 2026-05-09 14:56 | 66.94856 | -145.24503 | 27754 ft | 484 kts | 267° |
| 2026-05-09 14:56 | 66.94964 | -145.33079 | 27756 ft | 484 kts | 267° |
| 2026-05-09 14:57 | 66.95067 | -145.41655 | 27748 ft | 484 kts | 267° |
| 2026-05-09 14:57 | 66.95166 | -145.50227 | 27750 ft | 483 kts | 267° |
| 2026-05-09 14:57 | 66.95260 | -145.58805 | 27758 ft | 483 kts | 267° |
| 2026-05-09 14:57 | 66.95349 | -145.67373 | 27793 ft | 483 kts | 267° |
| 2026-05-09 14:58 | 66.95435 | -145.75972 | 27774 ft | 484 kts | 266° |
| 2026-05-09 14:58 | 66.95514 | -145.84448 | 27758 ft | 484 kts | 266° |
| 2026-05-09 14:58 | 66.95590 | -145.93030 | 27754 ft | 484 kts | 266° |
| 2026-05-09 14:58 | 66.95660 | -146.01609 | 27753 ft | 484 kts | 266° |
| 2026-05-09 14:59 | 66.95727 | -146.10197 | 27767 ft | 484 kts | 266° |
| 2026-05-09 14:59 | 66.95789 | -146.18779 | 27789 ft | 484 kts | 266° |
| 2026-05-09 14:59 | 66.95846 | -146.27379 | 27764 ft | 484 kts | 266° |
| 2026-05-09 14:59 | 66.95899 | -146.36000 | 27764 ft | 485 kts | 266° |
| 2026-05-09 15:00 | 66.95946 | -146.44623 | 27764 ft | 485 kts | 266° |
| 2026-05-09 15:00 | 66.95990 | -146.53230 | 27773 ft | 485 kts | 266° |
| 2026-05-09 15:00 | 66.96028 | -146.61848 | 27768 ft | 486 kts | 266° |
| 2026-05-09 15:00 | 66.96062 | -146.70469 | 27768 ft | 486 kts | 266° |
| 2026-05-09 15:01 | 66.96117 | -146.87747 | 27768 ft | 486 kts | 265° |
| 2026-05-09 15:01 | 66.96137 | -146.96264 | 27780 ft | 486 kts | 265° |
| 2026-05-09 15:01 | 66.96153 | -147.04888 | 27782 ft | 486 kts | 265° |
| 2026-05-09 15:02 | 66.96164 | -147.13529 | 27780 ft | 486 kts | 265° |
| 2026-05-09 15:02 | 66.96170 | -147.22148 | 27773 ft | 486 kts | 265° |
| 2026-05-09 15:02 | 66.96171 | -147.30771 | 27771 ft | 486 kts | 265° |
| 2026-05-09 15:02 | 66.96168 | -147.39389 | 27776 ft | 486 kts | 265° |
| 2026-05-09 15:03 | 66.96160 | -147.48034 | 27768 ft | 486 kts | 265° |
| 2026-05-09 15:03 | 66.96147 | -147.56673 | 27769 ft | 485 kts | 265° |
| 2026-05-09 15:03 | 66.96130 | -147.65279 | 27772 ft | 485 kts | 265° |
| 2026-05-09 15:03 | 66.96108 | -147.73897 | 27772 ft | 485 kts | 265° |
| 2026-05-09 15:04 | 66.96082 | -147.82496 | 27808 ft | 485 kts | 264° |
| 2026-05-09 15:04 | 66.96051 | -147.91108 | 27780 ft | 486 kts | 264° |
| 2026-05-09 15:06 | 66.95701 | -148.51234 | 27769 ft | 484 kts | 264° |
| 2026-05-09 15:06 | 66.95633 | -148.59814 | 27762 ft | 484 kts | 264° |
| 2026-05-09 15:06 | 66.95560 | -148.68417 | 27754 ft | 484 kts | 264° |
| 2026-05-09 15:06 | 66.95482 | -148.77009 | 27751 ft | 484 kts | 263° |
| 2026-05-09 15:07 | 66.95400 | -148.85611 | 27752 ft | 484 kts | 263° |
| 2026-05-09 15:07 | 66.95315 | -148.94200 | 27762 ft | 484 kts | 263° |
| 2026-05-09 15:07 | 66.95223 | -149.02771 | 27753 ft | 483 kts | 263° |
| 2026-05-09 15:07 | 66.95128 | -149.11324 | 27747 ft | 481 kts | 263° |
| 2026-05-09 15:08 | 66.95028 | -149.19846 | 27740 ft | 480 kts | 263° |
| 2026-05-09 15:08 | 66.94814 | -149.36841 | 27739 ft | 479 kts | 262° |
| 2026-05-09 15:08 | 66.94696 | -149.45339 | 27745 ft | 479 kts | 262° |
| 2026-05-09 15:09 | 66.94580 | -149.53833 | 27750 ft | 479 kts | 262° |
| 2026-05-09 15:10 | 66.93625 | -150.13515 | 27720 ft | 483 kts | 261° |
| 2026-05-09 15:11 | 66.93467 | -150.22076 | 27719 ft | 482 kts | 261° |
| 2026-05-09 15:11 | 66.93311 | -150.30610 | 27715 ft | 482 kts | 261° |
| 2026-05-09 15:11 | 66.93149 | -150.39145 | 27722 ft | 481 kts | 261° |
| 2026-05-09 15:11 | 66.92979 | -150.47663 | 27705 ft | 481 kts | 261° |
| 2026-05-09 15:12 | 66.92806 | -150.56162 | 27712 ft | 480 kts | 261° |
| 2026-05-09 15:12 | 66.92628 | -150.64656 | 27715 ft | 479 kts | 261° |
| 2026-05-09 15:12 | 66.92446 | -150.73129 | 27718 ft | 479 kts | 261° |
| 2026-05-09 15:12 | 66.92259 | -150.81613 | 27726 ft | 479 kts | 261° |
| 2026-05-09 15:13 | 66.92070 | -150.90092 | 27713 ft | 479 kts | 261° |
| 2026-05-09 15:13 | 66.91876 | -150.98572 | 27712 ft | 479 kts | 260° |
| 2026-05-09 15:13 | 66.91676 | -151.07032 | 27708 ft | 479 kts | 260° |
| 2026-05-09 15:13 | 66.91471 | -151.15496 | 27731 ft | 479 kts | 260° |
| 2026-05-09 15:14 | 66.91262 | -151.23986 | 27700 ft | 480 kts | 260° |
| 2026-05-09 15:14 | 66.91051 | -151.32481 | 27700 ft | 481 kts | 260° |
| 2026-05-09 15:14 | 66.90834 | -151.40976 | 27695 ft | 481 kts | 260° |
| 2026-05-09 15:14 | 66.90562 | -151.49472 | 27690 ft | 479 kts | 257° |
| 2026-05-09 15:15 | 66.90010 | -151.57800 | 27684 ft | 474 kts | 251° |
| 2026-05-09 15:15 | 66.89139 | -151.65723 | 27692 ft | 470 kts | 246° |
| 2026-05-09 15:15 | 66.88148 | -151.73647 | 27697 ft | 470 kts | 246° |
| 2026-05-09 15:15 | 66.87161 | -151.81580 | 27703 ft | 470 kts | 246° |
| 2026-05-09 15:16 | 66.86179 | -151.89516 | 27728 ft | 471 kts | 246° |
| 2026-05-09 15:16 | 66.85200 | -151.97463 | 27717 ft | 472 kts | 246° |
| 2026-05-09 15:16 | 66.84222 | -152.05419 | 27717 ft | 472 kts | 246° |
| 2026-05-09 15:16 | 66.83245 | -152.13361 | 27771 ft | 472 kts | 246° |
| 2026-05-09 15:17 | 66.82264 | -152.21311 | 27719 ft | 472 kts | 246° |
| 2026-05-09 15:17 | 66.81281 | -152.29240 | 27717 ft | 471 kts | 246° |
| 2026-05-09 15:17 | 66.80296 | -152.37149 | 27709 ft | 470 kts | 246° |
| 2026-05-09 15:17 | 66.79309 | -152.45034 | 27740 ft | 469 kts | 246° |
| 2026-05-09 15:18 | 66.78318 | -152.52910 | 27707 ft | 469 kts | 245° |
| 2026-05-09 15:18 | 66.77321 | -152.60789 | 27724 ft | 469 kts | 245° |
| 2026-05-09 15:18 | 66.76322 | -152.68643 | 27717 ft | 469 kts | 245° |
| 2026-05-09 15:18 | 66.75318 | -152.76501 | 27709 ft | 469 kts | 245° |
| 2026-05-09 15:19 | 66.74311 | -152.84344 | 27708 ft | 469 kts | 245° |
| 2026-05-09 15:19 | 66.73297 | -152.92197 | 27723 ft | 469 kts | 245° |
| 2026-05-09 15:19 | 66.72279 | -153.00050 | 27700 ft | 470 kts | 245° |
| 2026-05-09 15:19 | 66.71258 | -153.07901 | 27718 ft | 470 kts | 245° |
| 2026-05-09 15:20 | 66.70231 | -153.15757 | 27687 ft | 471 kts | 245° |
| 2026-05-09 15:20 | 66.68168 | -153.31431 | 27682 ft | 471 kts | 245° |
| 2026-05-09 15:20 | 66.67129 | -153.39269 | 27728 ft | 471 kts | 245° |
| 2026-05-09 15:21 | 66.66085 | -153.47109 | 27699 ft | 472 kts | 245° |
| 2026-05-09 15:21 | 66.65047 | -153.54862 | 27703 ft | 472 kts | 245° |
| 2026-05-09 15:21 | 66.63992 | -153.62706 | 27712 ft | 474 kts | 245° |
| 2026-05-09 15:21 | 66.62927 | -153.70588 | 27700 ft | 475 kts | 245° |
| 2026-05-09 15:22 | 66.61858 | -153.78467 | 27699 ft | 476 kts | 244° |
| 2026-05-09 15:22 | 66.60782 | -153.86359 | 27698 ft | 478 kts | 244° |
| 2026-05-09 15:22 | 66.59699 | -153.94271 | 27691 ft | 478 kts | 244° |
| 2026-05-09 15:22 | 66.58613 | -154.02178 | 27688 ft | 478 kts | 244° |
| 2026-05-09 15:23 | 66.57523 | -154.10074 | 27696 ft | 478 kts | 244° |
| 2026-05-09 15:23 | 66.56427 | -154.17980 | 27686 ft | 478 kts | 244° |
| 2026-05-09 15:23 | 66.55330 | -154.25854 | 27697 ft | 478 kts | 244° |
| 2026-05-09 15:23 | 66.54227 | -154.33737 | 27691 ft | 478 kts | 244° |
| 2026-05-09 15:24 | 66.53120 | -154.41608 | 27686 ft | 478 kts | 244° |
| 2026-05-09 15:24 | 66.52011 | -154.49461 | 27679 ft | 477 kts | 244° |
| 2026-05-09 15:24 | 66.50900 | -154.57294 | 27731 ft | 476 kts | 244° |
| 2026-05-09 15:24 | 66.49784 | -154.65133 | 27706 ft | 478 kts | 245° |
| 2026-05-09 15:25 | 66.48660 | -154.72981 | 27700 ft | 480 kts | 244° |
| 2026-05-09 15:25 | 66.47528 | -154.80843 | 27704 ft | 481 kts | 244° |
| 2026-05-09 15:25 | 66.46389 | -154.88724 | 27696 ft | 482 kts | 244° |
| 2026-05-09 15:26 | 66.44098 | -155.04488 | 27711 ft | 483 kts | 244° |
| 2026-05-09 15:26 | 66.42943 | -155.12382 | 27709 ft | 483 kts | 244° |
| 2026-05-09 15:26 | 66.41786 | -155.20257 | 27702 ft | 483 kts | 244° |
| 2026-05-09 15:26 | 66.40623 | -155.28143 | 27697 ft | 483 kts | 244° |
| 2026-05-09 15:27 | 66.39457 | -155.36012 | 27704 ft | 483 kts | 244° |
| 2026-05-09 15:27 | 66.38305 | -155.43750 | 27697 ft | 483 kts | 244° |
| 2026-05-09 15:27 | 66.37133 | -155.51594 | 27715 ft | 482 kts | 244° |
| 2026-05-09 15:27 | 66.35956 | -155.59432 | 27712 ft | 482 kts | 244° |
| 2026-05-09 15:28 | 66.34780 | -155.67236 | 27713 ft | 481 kts | 244° |
| 2026-05-09 15:28 | 66.33599 | -155.75032 | 27747 ft | 481 kts | 244° |
| 2026-05-09 15:28 | 66.32411 | -155.82837 | 27739 ft | 485 kts | 245° |
| 2026-05-09 15:28 | 66.31203 | -155.90734 | 27719 ft | 492 kts | 245° |
| 2026-05-09 15:29 | 66.29978 | -155.98704 | 27719 ft | 495 kts | 245° |
| 2026-05-09 15:29 | 66.28750 | -156.06681 | 27723 ft | 493 kts | 245° |
| 2026-05-09 15:29 | 66.27522 | -156.14623 | 27727 ft | 492 kts | 245° |
| 2026-05-09 15:29 | 66.26292 | -156.22550 | 27719 ft | 492 kts | 245° |
| 2026-05-09 15:30 | 66.25059 | -156.30460 | 27704 ft | 491 kts | 245° |
| 2026-05-09 15:30 | 66.23819 | -156.38378 | 27715 ft | 491 kts | 244° |
| 2026-05-09 15:30 | 66.22580 | -156.46255 | 27722 ft | 490 kts | 244° |
| 2026-05-09 15:30 | 66.21338 | -156.54113 | 27718 ft | 490 kts | 244° |
| 2026-05-09 15:31 | 66.20090 | -156.61978 | 27723 ft | 490 kts | 244° |
| 2026-05-09 15:31 | 66.18839 | -156.69831 | 27720 ft | 490 kts | 244° |
| 2026-05-09 15:31 | 66.17580 | -156.77693 | 27710 ft | 490 kts | 244° |
| 2026-05-09 15:31 | 66.16321 | -156.85530 | 27707 ft | 491 kts | 244° |
| 2026-05-09 15:32 | 66.15075 | -156.93251 | 27734 ft | 491 kts | 245° |
| 2026-05-09 15:32 | 66.13800 | -157.01134 | 27696 ft | 498 kts | 245° |
| 2026-05-09 15:32 | 66.12499 | -157.09115 | 27700 ft | 503 kts | 245° |
| 2026-05-09 15:32 | 66.11186 | -157.17141 | 27660 ft | 503 kts | 245° |
| 2026-05-09 15:33 | 66.09877 | -157.25119 | 27653 ft | 501 kts | 245° |
| 2026-05-09 15:33 | 66.08566 | -157.33082 | 27659 ft | 500 kts | 245° |
| 2026-05-09 15:33 | 66.07256 | -157.41007 | 27639 ft | 499 kts | 245° |
| 2026-05-09 15:33 | 66.05940 | -157.48932 | 27640 ft | 499 kts | 245° |
| 2026-05-09 15:34 | 66.04622 | -157.56836 | 27645 ft | 499 kts | 245° |
| 2026-05-09 15:34 | 66.03302 | -157.64721 | 27622 ft | 499 kts | 245° |
| 2026-05-09 15:34 | 66.01976 | -157.72604 | 27617 ft | 499 kts | 245° |
| 2026-05-09 15:34 | 66.00646 | -157.80478 | 27618 ft | 499 kts | 245° |
| 2026-05-09 15:35 | 65.99310 | -157.88359 | 27631 ft | 500 kts | 245° |
| 2026-05-09 15:35 | 65.97970 | -157.96234 | 27633 ft | 500 kts | 245° |
| 2026-05-09 15:35 | 65.96625 | -158.04102 | 27628 ft | 501 kts | 245° |
| 2026-05-09 15:35 | 65.95271 | -158.11986 | 27610 ft | 503 kts | 246° |
| 2026-05-09 15:36 | 65.93906 | -158.19904 | 27616 ft | 505 kts | 246° |
| 2026-05-09 15:36 | 65.92999 | -158.25153 | 27621 ft | 506 kts | 246° |
| 2026-05-09 15:36 | 65.91151 | -158.35797 | 27652 ft | 509 kts | 246° |
| 2026-05-09 15:36 | 65.90231 | -158.41077 | 27649 ft | 510 kts | 246° |
| 2026-05-09 15:37 | 65.88835 | -158.49063 | 27631 ft | 511 kts | 246° |
| 2026-05-09 15:37 | 65.87434 | -158.57039 | 27631 ft | 511 kts | 246° |
| 2026-05-09 15:37 | 65.86027 | -158.65024 | 27633 ft | 511 kts | 245° |
| 2026-05-09 15:37 | 65.84619 | -158.72980 | 27631 ft | 510 kts | 245° |
| 2026-05-09 15:38 | 65.83207 | -158.80925 | 27654 ft | 510 kts | 245° |
| 2026-05-09 15:38 | 65.81792 | -158.88860 | 27641 ft | 509 kts | 245° |
| 2026-05-09 15:38 | 65.80376 | -158.96758 | 27646 ft | 508 kts | 245° |
| 2026-05-09 15:38 | 65.78960 | -159.04635 | 27648 ft | 508 kts | 245° |
| 2026-05-09 15:39 | 65.77536 | -159.12515 | 27664 ft | 508 kts | 245° |
| 2026-05-09 15:39 | 65.76110 | -159.20381 | 27689 ft | 508 kts | 246° |
| 2026-05-09 15:39 | 65.74679 | -159.28248 | 27705 ft | 509 kts | 246° |
| 2026-05-09 15:39 | 65.73236 | -159.36142 | 27714 ft | 511 kts | 246° |
| 2026-05-09 15:40 | 65.71789 | -159.44031 | 27717 ft | 512 kts | 246° |
| 2026-05-09 15:40 | 65.70333 | -159.51936 | 27713 ft | 513 kts | 246° |
| 2026-05-09 15:40 | 65.68890 | -159.59739 | 27718 ft | 514 kts | 246° |
| 2026-05-09 15:40 | 65.67418 | -159.67668 | 27745 ft | 514 kts | 246° |
| 2026-05-09 15:41 | 65.65946 | -159.75568 | 27741 ft | 515 kts | 246° |
| 2026-05-09 15:41 | 65.64468 | -159.83470 | 27741 ft | 515 kts | 246° |
| 2026-05-09 15:41 | 65.62984 | -159.91372 | 27736 ft | 515 kts | 245° |
| 2026-05-09 15:41 | 65.61496 | -159.99265 | 27738 ft | 515 kts | 245° |
| 2026-05-09 15:42 | 65.60006 | -160.07136 | 27749 ft | 514 kts | 245° |
| 2026-05-09 15:42 | 65.58511 | -160.15003 | 27756 ft | 514 kts | 245° |
| 2026-05-09 15:42 | 65.57014 | -160.22849 | 27741 ft | 514 kts | 245° |
| 2026-05-09 15:42 | 65.55514 | -160.30682 | 27714 ft | 514 kts | 246° |
| 2026-05-09 15:43 | 65.54011 | -160.38505 | 27743 ft | 514 kts | 246° |
| 2026-05-09 15:43 | 65.52500 | -160.46335 | 27747 ft | 515 kts | 246° |
| 2026-05-09 15:43 | 65.50982 | -160.54175 | 27749 ft | 516 kts | 246° |
| 2026-05-09 15:43 | 65.49459 | -160.62009 | 27745 ft | 517 kts | 246° |
| 2026-05-09 15:44 | 65.47927 | -160.69857 | 27744 ft | 518 kts | 246° |
| 2026-05-09 15:44 | 65.46391 | -160.77697 | 27740 ft | 518 kts | 246° |
| 2026-05-09 15:44 | 65.44846 | -160.85551 | 27744 ft | 519 kts | 246° |
| 2026-05-09 15:44 | 65.43301 | -160.93378 | 27742 ft | 519 kts | 245° |
| 2026-05-09 15:45 | 65.41750 | -161.01205 | 27748 ft | 519 kts | 245° |
| 2026-05-09 15:45 | 65.40213 | -161.08928 | 27745 ft | 519 kts | 245° |
| 2026-05-09 15:45 | 65.38655 | -161.16732 | 27751 ft | 519 kts | 245° |
| 2026-05-09 15:45 | 65.37094 | -161.24521 | 27747 ft | 518 kts | 245° |
| 2026-05-09 15:46 | 65.35527 | -161.32308 | 27747 ft | 518 kts | 245° |
| 2026-05-09 15:46 | 65.33958 | -161.40073 | 27709 ft | 518 kts | 246° |
| 2026-05-09 15:46 | 65.32384 | -161.47833 | 27738 ft | 519 kts | 246° |
| 2026-05-09 15:46 | 65.30802 | -161.55613 | 27736 ft | 520 kts | 246° |
| 2026-05-09 15:47 | 65.29213 | -161.63401 | 27745 ft | 521 kts | 246° |
| 2026-05-09 15:47 | 65.27616 | -161.71197 | 27749 ft | 523 kts | 246° |
| 2026-05-09 15:47 | 65.26014 | -161.78989 | 27759 ft | 524 kts | 246° |
| 2026-05-09 15:47 | 65.24401 | -161.86800 | 27756 ft | 524 kts | 245° |
| 2026-05-09 15:48 | 65.22783 | -161.94603 | 27749 ft | 525 kts | 245° |
| 2026-05-09 15:48 | 65.21161 | -162.02401 | 27750 ft | 525 kts | 245° |
| 2026-05-09 15:48 | 65.19535 | -162.10185 | 27751 ft | 524 kts | 245° |
| 2026-05-09 15:48 | 65.17909 | -162.17940 | 27763 ft | 524 kts | 245° |
| 2026-05-09 15:49 | 65.16277 | -162.25694 | 27764 ft | 524 kts | 245° |
| 2026-05-09 15:49 | 65.14647 | -162.33418 | 27761 ft | 523 kts | 245° |
| 2026-05-09 15:49 | 65.13013 | -162.41126 | 27760 ft | 522 kts | 245° |
| 2026-05-09 15:49 | 65.11377 | -162.48818 | 27764 ft | 521 kts | 245° |
| 2026-05-09 15:50 | 65.09739 | -162.56494 | 27760 ft | 520 kts | 245° |
| 2026-05-09 15:50 | 65.08098 | -162.64154 | 27760 ft | 520 kts | 245° |
| 2026-05-09 15:50 | 65.06457 | -162.71787 | 27754 ft | 520 kts | 245° |
| 2026-05-09 15:50 | 65.04833 | -162.79314 | 27760 ft | 520 kts | 245° |
| 2026-05-09 15:51 | 65.03182 | -162.86937 | 27754 ft | 520 kts | 245° |
| 2026-05-09 15:51 | 65.01528 | -162.94545 | 27749 ft | 520 kts | 244° |
| 2026-05-09 15:51 | 64.99872 | -163.02138 | 27750 ft | 520 kts | 244° |
| 2026-05-09 15:51 | 64.98208 | -163.09740 | 27749 ft | 521 kts | 244° |
| 2026-05-09 15:52 | 64.94863 | -163.24940 | 27755 ft | 521 kts | 244° |
| 2026-05-09 15:52 | 64.93185 | -163.32525 | 27742 ft | 521 kts | 244° |
| 2026-05-09 15:52 | 64.91506 | -163.40087 | 27741 ft | 521 kts | 244° |
| 2026-05-09 15:53 | 64.89820 | -163.47654 | 27690 ft | 521 kts | 245° |
| 2026-05-09 15:53 | 64.88130 | -163.55216 | 27733 ft | 522 kts | 245° |
| 2026-05-09 15:53 | 64.86435 | -163.62774 | 27731 ft | 524 kts | 245° |
| 2026-05-09 15:53 | 64.84725 | -163.70369 | 27736 ft | 525 kts | 245° |
| 2026-05-09 15:54 | 64.83010 | -163.77955 | 27747 ft | 526 kts | 244° |
| 2026-05-09 15:54 | 64.81286 | -163.85555 | 27741 ft | 527 kts | 244° |
| 2026-05-09 15:54 | 64.79558 | -163.93150 | 27739 ft | 528 kts | 244° |
| 2026-05-09 15:54 | 64.77824 | -164.00743 | 27741 ft | 528 kts | 244° |
| 2026-05-09 15:55 | 64.76082 | -164.08341 | 27759 ft | 528 kts | 244° |
| 2026-05-09 15:55 | 64.74340 | -164.15913 | 27752 ft | 527 kts | 244° |
| 2026-05-09 15:55 | 64.72601 | -164.23451 | 27759 ft | 526 kts | 244° |
| 2026-05-09 15:55 | 64.70857 | -164.30984 | 27754 ft | 526 kts | 244° |
| 2026-05-09 15:56 | 64.69137 | -164.38385 | 27758 ft | 525 kts | 244° |
| 2026-05-09 15:56 | 64.67387 | -164.45891 | 27757 ft | 525 kts | 244° |
| 2026-05-09 15:56 | 64.65615 | -164.53459 | 27703 ft | 525 kts | 244° |
| 2026-05-09 15:56 | 64.63883 | -164.60832 | 27746 ft | 524 kts | 244° |
| 2026-05-09 15:57 | 64.62127 | -164.68288 | 27737 ft | 525 kts | 244° |
| 2026-05-09 15:57 | 64.60359 | -164.75769 | 27753 ft | 526 kts | 244° |
| 2026-05-09 15:57 | 64.58588 | -164.83241 | 27754 ft | 527 kts | 244° |
| 2026-05-09 15:57 | 64.56812 | -164.90702 | 27750 ft | 528 kts | 244° |
| 2026-05-09 15:58 | 64.55028 | -164.98172 | 27743 ft | 528 kts | 244° |
| 2026-05-09 15:58 | 64.53237 | -165.05645 | 27755 ft | 529 kts | 244° |
| 2026-05-09 15:58 | 64.51443 | -165.13108 | 27755 ft | 529 kts | 244° |
| 2026-05-09 15:58 | 64.49645 | -165.20569 | 27759 ft | 529 kts | 244° |
| 2026-05-09 15:59 | 64.47839 | -165.28002 | 27756 ft | 529 kts | 243° |
| 2026-05-09 15:59 | 64.45982 | -165.35366 | 27758 ft | 529 kts | 242° |
| 2026-05-09 15:59 | 64.44086 | -165.42679 | 27759 ft | 529 kts | 242° |
| 2026-05-09 15:59 | 64.42173 | -165.49973 | 27705 ft | 529 kts | 242° |
| 2026-05-09 16:00 | 64.40263 | -165.57242 | 27735 ft | 529 kts | 242° |
| 2026-05-09 16:00 | 64.39644 | -165.59600 | 27758 ft | 529 kts | 242° |
| 2026-05-09 16:00 | 64.36470 | -165.71697 | 27755 ft | 530 kts | 242° |
| 2026-05-09 16:00 | 64.34557 | -165.78986 | 27758 ft | 531 kts | 242° |
| 2026-05-09 16:01 | 64.32642 | -165.86272 | 27761 ft | 531 kts | 242° |
| 2026-05-09 16:01 | 64.30724 | -165.93547 | 27760 ft | 532 kts | 243° |
| 2026-05-09 16:01 | 64.28799 | -166.00824 | 27761 ft | 532 kts | 243° |
| 2026-05-09 16:01 | 64.26868 | -166.08096 | 27766 ft | 532 kts | 242° |
| 2026-05-09 16:02 | 64.24935 | -166.15352 | 27760 ft | 531 kts | 242° |
| 2026-05-09 16:02 | 64.21057 | -166.29831 | 27766 ft | 531 kts | 242° |
| 2026-05-09 16:02 | 64.19118 | -166.37037 | 27762 ft | 531 kts | 242° |
| 2026-05-09 16:03 | 64.17174 | -166.44244 | 27765 ft | 531 kts | 242° |
| 2026-05-09 16:03 | 64.15230 | -166.51434 | 27708 ft | 531 kts | 243° |
| 2026-05-09 16:03 | 64.13272 | -166.58643 | 27752 ft | 533 kts | 243° |
| 2026-05-09 16:03 | 64.11335 | -166.65782 | 27768 ft | 536 kts | 243° |
| 2026-05-09 16:04 | 64.09366 | -166.73046 | 27779 ft | 538 kts | 243° |
| 2026-05-09 16:04 | 64.07395 | -166.80314 | 27776 ft | 539 kts | 243° |
| 2026-05-09 16:04 | 64.05410 | -166.87612 | 27779 ft | 540 kts | 243° |
| 2026-05-09 16:04 | 64.03424 | -166.94889 | 27771 ft | 540 kts | 243° |
| 2026-05-09 16:05 | 64.01437 | -167.02141 | 27764 ft | 539 kts | 243° |
| 2026-05-09 16:05 | 63.99445 | -167.09384 | 27777 ft | 538 kts | 243° |
| 2026-05-09 16:05 | 63.97458 | -167.16584 | 27777 ft | 537 kts | 243° |
| 2026-05-09 16:05 | 63.95468 | -167.23772 | 27778 ft | 536 kts | 243° |
| 2026-05-09 16:06 | 63.93478 | -167.30936 | 27776 ft | 535 kts | 243° |
| 2026-05-09 16:06 | 63.91491 | -167.38070 | 27779 ft | 534 kts | 243° |
| 2026-05-09 16:06 | 63.89500 | -167.45194 | 27685 ft | 535 kts | 244° |
| 2026-05-09 16:06 | 63.87496 | -167.52343 | 27749 ft | 540 kts | 244° |
| 2026-05-09 16:07 | 63.85470 | -167.59563 | 27787 ft | 544 kts | 244° |
| 2026-05-09 16:07 | 63.83427 | -167.66816 | 27781 ft | 544 kts | 244° |
| 2026-05-09 16:07 | 63.81390 | -167.74004 | 27777 ft | 541 kts | 244° |
| 2026-05-09 16:07 | 63.79355 | -167.81159 | 27793 ft | 540 kts | 244° |
| 2026-05-09 16:08 | 63.77324 | -167.88282 | 27791 ft | 538 kts | 244° |
| 2026-05-09 16:08 | 63.75293 | -167.95385 | 27793 ft | 537 kts | 244° |
| 2026-05-09 16:08 | 63.73260 | -168.02475 | 27795 ft | 537 kts | 244° |
| 2026-05-09 16:08 | 63.71231 | -168.09537 | 27798 ft | 536 kts | 244° |
| 2026-05-09 16:09 | 63.69197 | -168.16592 | 27801 ft | 537 kts | 244° |
| 2026-05-09 16:09 | 63.67184 | -168.23551 | 27809 ft | 537 kts | 244° |
| 2026-05-09 16:09 | 63.65141 | -168.30594 | 27810 ft | 538 kts | 244° |
| 2026-05-09 16:09 | 63.63090 | -168.37640 | 27707 ft | 538 kts | 244° |
| 2026-05-09 16:10 | 63.61036 | -168.44674 | 27753 ft | 537 kts | 243° |
| 2026-05-09 16:10 | 63.58980 | -168.51690 | 27786 ft | 537 kts | 243° |
| 2026-05-09 16:10 | 63.56920 | -168.58692 | 27812 ft | 536 kts | 243° |
| 2026-05-09 16:10 | 63.54863 | -168.65668 | 27815 ft | 536 kts | 243° |
| 2026-05-09 16:11 | 63.52807 | -168.72621 | 27824 ft | 535 kts | 243° |
| 2026-05-09 16:11 | 63.50747 | -168.79567 | 27825 ft | 535 kts | 243° |
| 2026-05-09 16:11 | 63.48681 | -168.86511 | 27825 ft | 535 kts | 243° |
| 2026-05-09 16:11 | 63.46617 | -168.93430 | 27830 ft | 535 kts | 243° |
| 2026-05-09 16:12 | 63.44549 | -169.00338 | 27830 ft | 535 kts | 243° |
| 2026-05-09 16:12 | 63.42477 | -169.07242 | 27827 ft | 534 kts | 243° |
| 2026-05-09 16:12 | 63.40404 | -169.14126 | 27827 ft | 534 kts | 243° |
| 2026-05-09 16:12 | 63.38327 | -169.21002 | 27827 ft | 534 kts | 243° |
| 2026-05-09 16:13 | 63.36246 | -169.27881 | 27748 ft | 535 kts | 243° |
| 2026-05-09 16:13 | 63.34158 | -169.34756 | 27762 ft | 533 kts | 242° |
| 2026-05-09 16:13 | 63.32081 | -169.41569 | 27828 ft | 531 kts | 242° |
| 2026-05-09 16:13 | 63.30034 | -169.48260 | 27827 ft | 530 kts | 242° |
| 2026-05-09 16:14 | 63.27962 | -169.55026 | 27834 ft | 530 kts | 242° |
| 2026-05-09 16:14 | 63.25886 | -169.61786 | 27837 ft | 529 kts | 242° |
| 2026-05-09 16:14 | 63.23810 | -169.68531 | 27849 ft | 529 kts | 242° |
| 2026-05-09 16:14 | 63.21735 | -169.75257 | 27840 ft | 529 kts | 242° |
| 2026-05-09 16:15 | 63.19653 | -169.81986 | 27844 ft | 529 kts | 242° |
| 2026-05-09 16:15 | 63.17569 | -169.88699 | 27849 ft | 529 kts | 242° |
| 2026-05-09 16:15 | 63.15485 | -169.95394 | 27846 ft | 529 kts | 242° |
| 2026-05-09 16:15 | 63.13391 | -170.02101 | 27859 ft | 529 kts | 241° |
| 2026-05-09 16:16 | 63.11297 | -170.08785 | 27860 ft | 530 kts | 241° |
| 2026-05-09 16:16 | 63.09194 | -170.15476 | 27844 ft | 530 kts | 241° |
| 2026-05-09 16:16 | 63.07096 | -170.22141 | 27808 ft | 528 kts | 240° |
| 2026-05-09 16:16 | 63.04996 | -170.28784 | 27854 ft | 527 kts | 240° |
| 2026-05-09 16:17 | 63.02896 | -170.35401 | 27855 ft | 526 kts | 240° |
| 2026-05-09 16:17 | 63.00798 | -170.41997 | 27855 ft | 526 kts | 240° |
| 2026-05-09 16:17 | 62.98727 | -170.48492 | 27858 ft | 526 kts | 240° |
| 2026-05-09 16:17 | 62.96627 | -170.55063 | 27858 ft | 525 kts | 240° |
| 2026-05-09 16:18 | 62.94521 | -170.61633 | 27858 ft | 525 kts | 240° |
| 2026-05-09 16:18 | 62.92413 | -170.68188 | 27860 ft | 525 kts | 240° |
| 2026-05-09 16:18 | 62.90301 | -170.74737 | 27866 ft | 526 kts | 240° |
| 2026-05-09 16:18 | 62.88186 | -170.81278 | 27866 ft | 526 kts | 240° |
| 2026-05-09 16:19 | 62.86070 | -170.87804 | 27866 ft | 526 kts | 240° |
| 2026-05-09 16:19 | 62.83946 | -170.94332 | 27866 ft | 526 kts | 240° |
| 2026-05-09 16:19 | 62.81821 | -171.00848 | 27857 ft | 525 kts | 239° |
| 2026-05-09 16:19 | 62.79699 | -171.07332 | 27817 ft | 524 kts | 239° |
| 2026-05-09 16:20 | 62.77575 | -171.13803 | 27872 ft | 522 kts | 239° |
| 2026-05-09 16:20 | 62.75455 | -171.20247 | 27868 ft | 522 kts | 238° |
| 2026-05-09 16:20 | 62.73339 | -171.26661 | 27864 ft | 521 kts | 238° |
| 2026-05-09 16:20 | 62.71218 | -171.33074 | 27867 ft | 521 kts | 238° |
| 2026-05-09 16:21 | 62.69097 | -171.39466 | 27876 ft | 521 kts | 238° |
| 2026-05-09 16:21 | 62.66971 | -171.45859 | 27879 ft | 521 kts | 238° |
| 2026-05-09 16:21 | 62.64846 | -171.52233 | 27875 ft | 521 kts | 238° |
| 2026-05-09 16:21 | 62.62711 | -171.58620 | 27881 ft | 521 kts | 238° |
| 2026-05-09 16:22 | 62.60603 | -171.64906 | 27876 ft | 521 kts | 238° |
| 2026-05-09 16:22 | 62.58435 | -171.71348 | 27872 ft | 522 kts | 238° |
| 2026-05-09 16:22 | 62.57018 | -171.75552 | 27871 ft | 521 kts | 238° |
| 2026-05-09 16:22 | 62.54182 | -171.83938 | 27880 ft | 521 kts | 238° |
| 2026-05-09 16:23 | 62.52039 | -171.90253 | 27881 ft | 520 kts | 238° |
| 2026-05-09 16:23 | 62.49891 | -171.96571 | 27878 ft | 520 kts | 238° |
| 2026-05-09 16:23 | 62.48441 | -172.00828 | 27879 ft | 520 kts | 237° |
| 2026-05-09 16:23 | 62.45598 | -172.09152 | 27886 ft | 520 kts | 237° |
| 2026-05-09 16:24 | 62.44147 | -172.13388 | 27886 ft | 520 kts | 237° |
| 2026-05-09 16:24 | 62.41996 | -172.19657 | 27892 ft | 520 kts | 237° |
| 2026-05-09 16:24 | 62.39840 | -172.25921 | 27886 ft | 520 kts | 237° |
| 2026-05-09 16:24 | 62.37683 | -172.32170 | 27890 ft | 520 kts | 237° |
| 2026-05-09 16:25 | 62.35551 | -172.38332 | 27886 ft | 520 kts | 237° |
| 2026-05-09 16:25 | 62.33388 | -172.44566 | 27887 ft | 520 kts | 237° |
| 2026-05-09 16:25 | 62.31222 | -172.50790 | 27891 ft | 520 kts | 237° |
| 2026-05-09 16:25 | 62.29053 | -172.57005 | 27890 ft | 519 kts | 237° |
| 2026-05-09 16:26 | 62.26882 | -172.63209 | 27882 ft | 519 kts | 237° |
| 2026-05-09 16:26 | 62.24710 | -172.69400 | 27882 ft | 519 kts | 237° |
| 2026-05-09 16:26 | 62.22538 | -172.75574 | 27859 ft | 518 kts | 236° |
| 2026-05-09 16:26 | 62.20368 | -172.81725 | 27886 ft | 516 kts | 236° |
| 2026-05-09 16:27 | 62.18200 | -172.87856 | 27889 ft | 516 kts | 236° |
| 2026-05-09 16:27 | 62.16023 | -172.93995 | 27889 ft | 516 kts | 236° |
| 2026-05-09 16:27 | 62.13851 | -173.00104 | 27889 ft | 516 kts | 236° |
| 2026-05-09 16:27 | 62.11680 | -173.06194 | 27898 ft | 516 kts | 235° |
| 2026-05-09 16:28 | 62.09501 | -173.12290 | 27914 ft | 516 kts | 235° |
| 2026-05-09 16:28 | 62.07323 | -173.18368 | 27895 ft | 516 kts | 235° |
| 2026-05-09 16:28 | 62.05137 | -173.24450 | 27898 ft | 516 kts | 235° |
| 2026-05-09 16:28 | 62.02981 | -173.30432 | 27912 ft | 516 kts | 235° |
| 2026-05-09 16:29 | 62.00791 | -173.36495 | 27890 ft | 516 kts | 235° |
| 2026-05-09 16:29 | 61.98600 | -173.42542 | 27899 ft | 516 kts | 235° |
| 2026-05-09 16:29 | 61.96400 | -173.48600 | 27913 ft | 516 kts | 235° |
| 2026-05-09 16:29 | 61.94201 | -173.54638 | 27869 ft | 517 kts | 234° |
| 2026-05-09 16:30 | 61.92001 | -173.60662 | 27898 ft | 516 kts | 234° |
| 2026-05-09 16:30 | 61.89803 | -173.66666 | 27901 ft | 515 kts | 234° |
| 2026-05-09 16:30 | 61.87599 | -173.72672 | 27909 ft | 515 kts | 234° |
| 2026-05-09 16:30 | 61.85395 | -173.78661 | 27909 ft | 515 kts | 234° |
| 2026-05-09 16:31 | 61.83190 | -173.84637 | 27911 ft | 515 kts | 234° |
| 2026-05-09 16:31 | 61.80986 | -173.90595 | 27910 ft | 515 kts | 234° |
| 2026-05-09 16:31 | 61.78778 | -173.96550 | 27926 ft | 514 kts | 234° |
| 2026-05-09 16:31 | 61.76566 | -174.02496 | 27924 ft | 514 kts | 234° |
| 2026-05-09 16:32 | 61.74355 | -174.08426 | 27914 ft | 514 kts | 234° |
| 2026-05-09 16:32 | 61.72885 | -174.12363 | 27914 ft | 514 kts | 234° |
| 2026-05-09 16:32 | 61.69923 | -174.20270 | 27911 ft | 513 kts | 234° |
| 2026-05-09 16:32 | 61.67709 | -174.26165 | 27913 ft | 513 kts | 234° |
| 2026-05-09 16:33 | 61.65490 | -174.32056 | 27917 ft | 513 kts | 234° |
| 2026-05-09 16:33 | 61.63274 | -174.37930 | 27912 ft | 512 kts | 233° |
| 2026-05-09 16:33 | 61.61085 | -174.43717 | 27917 ft | 512 kts | 233° |
| 2026-05-09 16:33 | 61.58835 | -174.49644 | 27920 ft | 512 kts | 233° |
| 2026-05-09 16:34 | 61.56639 | -174.55405 | 27925 ft | 512 kts | 233° |
| 2026-05-09 16:34 | 61.54408 | -174.61232 | 27927 ft | 512 kts | 233° |
| 2026-05-09 16:34 | 61.52173 | -174.67052 | 27923 ft | 512 kts | 233° |
| 2026-05-09 16:34 | 61.49935 | -174.72866 | 27927 ft | 512 kts | 233° |
| 2026-05-09 16:35 | 61.47701 | -174.78658 | 27931 ft | 511 kts | 233° |
| 2026-05-09 16:35 | 61.45460 | -174.84455 | 27930 ft | 511 kts | 233° |
| 2026-05-09 16:35 | 61.43221 | -174.90233 | 27927 ft | 511 kts | 232° |
| 2026-05-09 16:35 | 61.40978 | -174.96010 | 27934 ft | 511 kts | 232° |
| 2026-05-09 16:36 | 61.38735 | -175.01771 | 27931 ft | 511 kts | 232° |
| 2026-05-09 16:36 | 61.32001 | -175.18985 | 27924 ft | 510 kts | 232° |
| 2026-05-09 16:37 | 61.29752 | -175.24705 | 27943 ft | 510 kts | 232° |
| 2026-05-09 16:37 | 61.27503 | -175.30408 | 27946 ft | 510 kts | 232° |
| 2026-05-09 16:37 | 61.25284 | -175.36023 | 27939 ft | 510 kts | 231° |
| 2026-05-09 16:37 | 61.23030 | -175.41711 | 27945 ft | 509 kts | 231° |
| 2026-05-09 16:38 | 61.20775 | -175.47390 | 27942 ft | 509 kts | 231° |
| 2026-05-09 16:38 | 61.18521 | -175.53049 | 27942 ft | 509 kts | 231° |
| 2026-05-09 16:38 | 61.16265 | -175.58702 | 27954 ft | 509 kts | 231° |
| 2026-05-09 16:38 | 61.14008 | -175.64341 | 27950 ft | 509 kts | 231° |
| 2026-05-09 16:39 | 61.11747 | -175.69978 | 27959 ft | 509 kts | 231° |
| 2026-05-09 16:39 | 61.09488 | -175.75598 | 27952 ft | 509 kts | 231° |
| 2026-05-09 16:39 | 61.07218 | -175.81227 | 27953 ft | 509 kts | 231° |
| 2026-05-09 16:39 | 61.04954 | -175.86832 | 27940 ft | 508 kts | 231° |
| 2026-05-09 16:40 | 61.02686 | -175.92437 | 27952 ft | 508 kts | 231° |
| 2026-05-09 16:40 | 61.00417 | -175.98023 | 27957 ft | 508 kts | 231° |
| 2026-05-09 16:42 | 60.84498 | -176.36839 | 27963 ft | 507 kts | 230° |
| 2026-05-09 16:42 | 60.82247 | -176.42274 | 27962 ft | 507 kts | 230° |
| 2026-05-09 16:42 | 60.79965 | -176.47774 | 27967 ft | 507 kts | 230° |
| 2026-05-09 16:42 | 60.77680 | -176.53266 | 27967 ft | 507 kts | 230° |
| 2026-05-09 16:43 | 60.75394 | -176.58747 | 27953 ft | 507 kts | 230° |
| 2026-05-09 16:43 | 60.73108 | -176.64224 | 27957 ft | 506 kts | 229° |
| 2026-05-09 16:43 | 60.70818 | -176.69688 | 27970 ft | 506 kts | 229° |
| 2026-05-09 16:43 | 60.68526 | -176.75141 | 27975 ft | 505 kts | 229° |
| 2026-05-09 16:44 | 60.66235 | -176.80581 | 27970 ft | 505 kts | 229° |
| 2026-05-09 16:44 | 60.63942 | -176.86011 | 27968 ft | 505 kts | 229° |
| 2026-05-09 16:44 | 60.61650 | -176.91429 | 27969 ft | 505 kts | 229° |
| 2026-05-09 16:44 | 60.59356 | -176.96838 | 27973 ft | 505 kts | 229° |
| 2026-05-09 16:45 | 60.57058 | -177.02244 | 27968 ft | 505 kts | 229° |
| 2026-05-09 16:45 | 60.54759 | -177.07640 | 27970 ft | 505 kts | 229° |
| 2026-05-09 16:45 | 60.52459 | -177.13025 | 27970 ft | 505 kts | 229° |
| 2026-05-09 16:45 | 60.50157 | -177.18402 | 27970 ft | 505 kts | 229° |
| 2026-05-09 16:46 | 60.47854 | -177.23769 | 27972 ft | 505 kts | 229° |
| 2026-05-09 16:46 | 60.45544 | -177.29141 | 27970 ft | 505 kts | 229° |
| 2026-05-09 16:46 | 60.43232 | -177.34506 | 27977 ft | 504 kts | 228° |
| 2026-05-09 16:46 | 60.40951 | -177.39786 | 27980 ft | 504 kts | 228° |
| 2026-05-09 16:47 | 60.38614 | -177.45179 | 27976 ft | 503 kts | 228° |
| 2026-05-09 16:47 | 60.36333 | -177.50433 | 27970 ft | 503 kts | 228° |
| 2026-05-09 16:47 | 60.34023 | -177.55741 | 27972 ft | 503 kts | 228° |
| 2026-05-09 16:47 | 60.31712 | -177.61040 | 27975 ft | 502 kts | 228° |
| 2026-05-09 16:48 | 60.29402 | -177.66323 | 27973 ft | 502 kts | 228° |
| 2026-05-09 16:48 | 60.27092 | -177.71596 | 27975 ft | 502 kts | 228° |
| 2026-05-09 16:48 | 60.24777 | -177.76870 | 27976 ft | 502 kts | 228° |
| 2026-05-09 16:48 | 60.22460 | -177.82138 | 27976 ft | 502 kts | 228° |
| 2026-05-09 16:49 | 60.20140 | -177.87396 | 27978 ft | 502 kts | 227° |
| 2026-05-09 16:49 | 60.17833 | -177.92666 | 27975 ft | 502 kts | 229° |
| 2026-05-09 16:49 | 60.15597 | -177.97933 | 27982 ft | 502 kts | 229° |
| 2026-05-09 16:50 | 60.11113 | -178.08706 | 27981 ft | 502 kts | 229° |
| 2026-05-09 16:50 | 60.08877 | -178.14075 | 27977 ft | 502 kts | 229° |
| 2026-05-09 16:50 | 60.06630 | -178.19441 | 27977 ft | 502 kts | 229° |
| 2026-05-09 16:50 | 60.04384 | -178.24774 | 27975 ft | 501 kts | 229° |
| 2026-05-09 16:51 | 60.02132 | -178.30100 | 27977 ft | 501 kts | 229° |
| 2026-05-09 16:51 | 59.99874 | -178.35415 | 27978 ft | 501 kts | 228° |
| 2026-05-09 16:51 | 59.97612 | -178.40725 | 27978 ft | 501 kts | 228° |
| 2026-05-09 16:51 | 59.95351 | -178.46019 | 27978 ft | 501 kts | 228° |
| 2026-05-09 16:52 | 59.93085 | -178.51314 | 27979 ft | 501 kts | 228° |
| 2026-05-09 16:52 | 59.90818 | -178.56599 | 27978 ft | 501 kts | 228° |
| 2026-05-09 16:52 | 59.88551 | -178.61873 | 27978 ft | 501 kts | 228° |
| 2026-05-09 16:52 | 59.86284 | -178.67139 | 27987 ft | 501 kts | 228° |
| 2026-05-09 16:53 | 59.84019 | -178.72394 | 27981 ft | 501 kts | 227° |
| 2026-05-09 16:53 | 59.81749 | -178.77642 | 27976 ft | 500 kts | 227° |
| 2026-05-09 16:53 | 59.79476 | -178.82879 | 27969 ft | 500 kts | 227° |
| 2026-05-09 16:53 | 59.77205 | -178.88099 | 27975 ft | 500 kts | 227° |
| 2026-05-09 16:54 | 59.74959 | -178.93249 | 27975 ft | 499 kts | 227° |
| 2026-05-09 16:54 | 59.72686 | -178.98455 | 27970 ft | 499 kts | 227° |
| 2026-05-09 16:54 | 59.70381 | -179.03720 | 27970 ft | 499 kts | 227° |
| 2026-05-09 16:54 | 59.68104 | -179.08910 | 27973 ft | 499 kts | 227° |
| 2026-05-09 16:55 | 59.65859 | -179.14018 | 27968 ft | 499 kts | 227° |
| 2026-05-09 16:55 | 59.63579 | -179.19193 | 27970 ft | 499 kts | 227° |
| 2026-05-09 16:55 | 59.61298 | -179.24359 | 27975 ft | 499 kts | 227° |
| 2026-05-09 16:55 | 59.59011 | -179.29525 | 27985 ft | 499 kts | 227° |
| 2026-05-09 16:56 | 59.56725 | -179.34678 | 27980 ft | 499 kts | 227° |
| 2026-05-09 16:56 | 59.54433 | -179.39834 | 27976 ft | 499 kts | 227° |
| 2026-05-09 16:56 | 59.52145 | -179.44968 | 27974 ft | 499 kts | 227° |
| 2026-05-09 16:56 | 59.49848 | -179.50111 | 27974 ft | 499 kts | 227° |
| 2026-05-09 16:57 | 59.47550 | -179.55245 | 27974 ft | 499 kts | 227° |
| 2026-05-09 16:57 | 59.45251 | -179.60370 | 27973 ft | 499 kts | 226° |
| 2026-05-09 16:57 | 59.42952 | -179.65483 | 27973 ft | 499 kts | 226° |
| 2026-05-09 16:57 | 59.40652 | -179.70587 | 27973 ft | 499 kts | 226° |
| 2026-05-09 16:58 | 59.38346 | -179.75693 | 27972 ft | 499 kts | 226° |
| 2026-05-09 16:58 | 59.36042 | -179.80784 | 27967 ft | 499 kts | 226° |
| 2026-05-09 16:58 | 59.33734 | -179.85872 | 27967 ft | 499 kts | 226° |
| 2026-05-09 16:58 | 59.31422 | -179.90957 | 27968 ft | 499 kts | 226° |
| 2026-05-09 16:59 | 59.29113 | -179.96026 | 27968 ft | 499 kts | 226° |
| 2026-05-09 16:59 | 59.26803 | 179.98916 | 27971 ft | 499 kts | 226° |
| 2026-05-09 16:59 | 59.24519 | 179.93925 | 27966 ft | 499 kts | 226° |
| 2026-05-09 16:59 | 59.22197 | 179.88863 | 27962 ft | 499 kts | 226° |
| 2026-05-09 17:00 | 59.19883 | 179.83828 | 27964 ft | 499 kts | 226° |
| 2026-05-09 17:00 | 59.17562 | 179.78790 | 27967 ft | 498 kts | 226° |
| 2026-05-09 17:00 | 59.15242 | 179.73765 | 27968 ft | 498 kts | 226° |
| 2026-05-09 17:00 | 59.12923 | 179.68752 | 27968 ft | 498 kts | 226° |
| 2026-05-09 17:01 | 59.10600 | 179.63744 | 27968 ft | 498 kts | 226° |
| 2026-05-09 17:01 | 59.08277 | 179.58745 | 27965 ft | 498 kts | 226° |
| 2026-05-09 17:01 | 59.05947 | 179.53743 | 27963 ft | 498 kts | 226° |
| 2026-05-09 17:01 | 59.03622 | 179.48760 | 27981 ft | 498 kts | 225° |
| 2026-05-09 17:02 | 59.01291 | 179.43778 | 27970 ft | 498 kts | 225° |
| 2026-05-09 17:02 | 58.98986 | 179.38861 | 27964 ft | 498 kts | 225° |
| 2026-05-09 17:02 | 58.96652 | 179.33891 | 27972 ft | 498 kts | 225° |
| 2026-05-09 17:02 | 58.94319 | 179.28938 | 27963 ft | 498 kts | 225° |
| 2026-05-09 17:03 | 58.91982 | 179.23986 | 27959 ft | 497 kts | 225° |
| 2026-05-09 17:04 | 58.75625 | 178.89616 | 27952 ft | 496 kts | 225° |
| 2026-05-09 17:05 | 58.73282 | 178.84734 | 27965 ft | 496 kts | 225° |
| 2026-05-09 17:05 | 58.70939 | 178.79864 | 27961 ft | 496 kts | 224° |
| 2026-05-09 17:05 | 58.68593 | 178.74996 | 27959 ft | 496 kts | 224° |
| 2026-05-09 17:05 | 58.66244 | 178.70136 | 27966 ft | 496 kts | 224° |
| 2026-05-09 17:06 | 58.63899 | 178.65291 | 27946 ft | 495 kts | 224° |
| 2026-05-09 17:06 | 58.61553 | 178.60454 | 27946 ft | 495 kts | 224° |
| 2026-05-09 17:06 | 58.59208 | 178.55631 | 27961 ft | 494 kts | 224° |
| 2026-05-09 17:06 | 58.56863 | 178.50817 | 27950 ft | 494 kts | 224° |
| 2026-05-09 17:07 | 58.54549 | 178.46076 | 27947 ft | 494 kts | 224° |
| 2026-05-09 17:07 | 58.53756 | 178.44455 | 27956 ft | 494 kts | 224° |
| 2026-05-09 17:07 | 58.49851 | 178.36486 | 27943 ft | 493 kts | 224° |
| 2026-05-09 17:07 | 58.47500 | 178.31700 | 27958 ft | 493 kts | 224° |
| 2026-05-09 17:08 | 58.45146 | 178.26919 | 27951 ft | 494 kts | 224° |
| 2026-05-09 17:08 | 58.40427 | 178.17364 | 27940 ft | 493 kts | 224° |
| 2026-05-09 17:08 | 58.38071 | 178.12606 | 27959 ft | 493 kts | 223° |
| 2026-05-09 17:09 | 58.35715 | 178.07858 | 27952 ft | 493 kts | 223° |
| 2026-05-09 17:09 | 58.33360 | 178.03125 | 27943 ft | 492 kts | 223° |
| 2026-05-09 17:09 | 58.31003 | 177.98398 | 27935 ft | 492 kts | 223° |
| 2026-05-09 17:09 | 58.28648 | 177.93685 | 27935 ft | 491 kts | 223° |
| 2026-05-09 17:10 | 58.26326 | 177.89048 | 27939 ft | 491 kts | 223° |
| 2026-05-09 17:10 | 58.23970 | 177.84351 | 27939 ft | 491 kts | 223° |
| 2026-05-09 17:10 | 58.21614 | 177.79663 | 27938 ft | 491 kts | 223° |
| 2026-05-09 17:10 | 58.19257 | 177.74983 | 27929 ft | 491 kts | 223° |
| 2026-05-09 17:11 | 58.16899 | 177.70312 | 27942 ft | 490 kts | 223° |
| 2026-05-09 17:11 | 58.14532 | 177.65632 | 27937 ft | 490 kts | 223° |
| 2026-05-09 17:11 | 58.12172 | 177.60973 | 27928 ft | 490 kts | 223° |
| 2026-05-09 17:11 | 58.09806 | 177.56315 | 27928 ft | 490 kts | 223° |
| 2026-05-09 17:12 | 58.08243 | 177.53242 | 27944 ft | 490 kts | 223° |
| 2026-05-09 17:12 | 58.05075 | 177.47027 | 27933 ft | 490 kts | 223° |
| 2026-05-09 17:12 | 58.03508 | 177.43959 | 27928 ft | 490 kts | 223° |
| 2026-05-09 17:12 | 58.01141 | 177.39332 | 27923 ft | 489 kts | 223° |
| 2026-05-09 17:13 | 57.98779 | 177.34723 | 27920 ft | 489 kts | 223° |
| 2026-05-09 17:13 | 57.96414 | 177.30119 | 27919 ft | 489 kts | 223° |
| 2026-05-09 17:13 | 57.94046 | 177.25519 | 27919 ft | 489 kts | 223° |
| 2026-05-09 17:13 | 57.91676 | 177.20925 | 27917 ft | 489 kts | 222° |
| 2026-05-09 17:14 | 57.89310 | 177.16346 | 27927 ft | 488 kts | 223° |
| 2026-05-09 17:14 | 57.86936 | 177.11764 | 27919 ft | 488 kts | 223° |
| 2026-05-09 17:14 | 57.84567 | 177.07198 | 27910 ft | 488 kts | 223° |
| 2026-05-09 17:14 | 57.82196 | 177.02637 | 27911 ft | 488 kts | 223° |
| 2026-05-09 17:15 | 57.79852 | 176.98136 | 27913 ft | 488 kts | 223° |
| 2026-05-09 17:15 | 57.77479 | 176.93590 | 27921 ft | 488 kts | 223° |
| 2026-05-09 17:15 | 57.75105 | 176.89050 | 27913 ft | 487 kts | 223° |
| 2026-05-09 17:15 | 57.72729 | 176.84518 | 27902 ft | 487 kts | 223° |
| 2026-05-09 17:16 | 57.70353 | 176.79994 | 27898 ft | 487 kts | 222° |
| 2026-05-09 17:17 | 57.53733 | 176.48585 | 27896 ft | 486 kts | 222° |
| 2026-05-09 17:18 | 57.51354 | 176.44124 | 27894 ft | 486 kts | 222° |
| 2026-05-09 17:18 | 57.48974 | 176.39664 | 27907 ft | 486 kts | 222° |
| 2026-05-09 17:18 | 57.46610 | 176.35191 | 27889 ft | 485 kts | 223° |
| 2026-05-09 17:18 | 57.44254 | 176.30706 | 27890 ft | 485 kts | 223° |
| 2026-05-09 17:19 | 57.41898 | 176.26218 | 27875 ft | 485 kts | 223° |
| 2026-05-09 17:19 | 57.39547 | 176.21744 | 27884 ft | 484 kts | 223° |
| 2026-05-09 17:19 | 57.37222 | 176.17329 | 27873 ft | 484 kts | 223° |
| 2026-05-09 17:19 | 57.34869 | 176.12875 | 27876 ft | 484 kts | 222° |
| 2026-05-09 17:20 | 57.32514 | 176.08431 | 27884 ft | 484 kts | 222° |
| 2026-05-09 17:20 | 57.30156 | 176.03991 | 27881 ft | 484 kts | 222° |
| 2026-05-09 17:20 | 57.27796 | 175.99558 | 27875 ft | 484 kts | 222° |
| 2026-05-09 17:20 | 57.25433 | 175.95128 | 27867 ft | 483 kts | 222° |
| 2026-05-09 17:21 | 57.23072 | 175.90712 | 27869 ft | 483 kts | 222° |
| 2026-05-09 17:21 | 57.20710 | 175.86301 | 27868 ft | 483 kts | 222° |
| 2026-05-09 17:21 | 57.18344 | 175.81890 | 27885 ft | 483 kts | 222° |
| 2026-05-09 17:21 | 57.15981 | 175.77495 | 27872 ft | 482 kts | 222° |
| 2026-05-09 17:22 | 57.13616 | 175.73104 | 27867 ft | 482 kts | 222° |
| 2026-05-09 17:22 | 57.11256 | 175.68732 | 27867 ft | 482 kts | 221° |
| 2026-05-09 17:22 | 57.08895 | 175.64364 | 27869 ft | 481 kts | 221° |
| 2026-05-09 17:22 | 57.06532 | 175.60002 | 27868 ft | 481 kts | 221° |
| 2026-05-09 17:23 | 57.04168 | 175.55647 | 27866 ft | 481 kts | 221° |
| 2026-05-09 17:23 | 57.01801 | 175.51295 | 27876 ft | 481 kts | 223° |
| 2026-05-09 17:23 | 56.99436 | 175.46954 | 27869 ft | 481 kts | 223° |
| 2026-05-09 17:23 | 56.97068 | 175.42615 | 27865 ft | 481 kts | 223° |
| 2026-05-09 17:25 | 56.85248 | 175.21082 | 27870 ft | 480 kts | 224° |
| 2026-05-09 17:25 | 56.82875 | 175.16785 | 27867 ft | 480 kts | 224° |
| 2026-05-09 17:25 | 56.80502 | 175.12495 | 27868 ft | 480 kts | 224° |
| 2026-05-09 17:25 | 56.78127 | 175.08210 | 27869 ft | 480 kts | 223° |
| 2026-05-09 17:26 | 56.75745 | 175.03920 | 27868 ft | 480 kts | 223° |
| 2026-05-09 17:26 | 56.73370 | 174.99653 | 27866 ft | 480 kts | 225° |
| 2026-05-09 17:26 | 56.70990 | 174.95385 | 27871 ft | 480 kts | 225° |
| 2026-05-09 17:26 | 56.68614 | 174.91129 | 27875 ft | 480 kts | 225° |
| 2026-05-09 17:27 | 56.66235 | 174.86873 | 27874 ft | 480 kts | 225° |
| 2026-05-09 17:27 | 56.63854 | 174.82623 | 27872 ft | 480 kts | 225° |
| 2026-05-09 17:27 | 56.61474 | 174.78384 | 27877 ft | 480 kts | 225° |
| 2026-05-09 17:27 | 56.59091 | 174.74147 | 27878 ft | 480 kts | 225° |
| 2026-05-09 17:28 | 56.56705 | 174.69914 | 27877 ft | 480 kts | 225° |
| 2026-05-09 17:28 | 56.54319 | 174.65688 | 27876 ft | 480 kts | 225° |
| 2026-05-09 17:28 | 56.51958 | 174.61515 | 27877 ft | 480 kts | 225° |
| 2026-05-09 17:28 | 56.49536 | 174.57242 | 27883 ft | 480 kts | 225° |
| 2026-05-09 17:29 | 56.47147 | 174.53034 | 27882 ft | 480 kts | 225° |
| 2026-05-09 17:29 | 56.44785 | 174.48882 | 27882 ft | 480 kts | 225° |
| 2026-05-09 17:29 | 56.42391 | 174.44683 | 27882 ft | 480 kts | 225° |
| 2026-05-09 17:29 | 56.39995 | 174.40485 | 27883 ft | 480 kts | 225° |
| 2026-05-09 17:30 | 56.37595 | 174.36290 | 27885 ft | 480 kts | 225° |
| 2026-05-09 17:30 | 56.35196 | 174.32103 | 27887 ft | 480 kts | 225° |
| 2026-05-09 17:30 | 56.32799 | 174.27928 | 27889 ft | 480 kts | 225° |
| 2026-05-09 17:30 | 56.30394 | 174.23753 | 27893 ft | 479 kts | 225° |
| 2026-05-09 17:31 | 56.27999 | 174.19597 | 27887 ft | 479 kts | 226° |
| 2026-05-09 17:31 | 56.25598 | 174.15436 | 27883 ft | 478 kts | 225° |
| 2026-05-09 17:32 | 56.16041 | 173.98956 | 27875 ft | 477 kts | 226° |
| 2026-05-09 17:32 | 56.13650 | 173.94851 | 27882 ft | 476 kts | 226° |
| 2026-05-09 17:32 | 56.11260 | 173.90757 | 27885 ft | 475 kts | 226° |
| 2026-05-09 17:33 | 56.08873 | 173.86673 | 27887 ft | 474 kts | 226° |
| 2026-05-09 17:33 | 56.06482 | 173.82591 | 27890 ft | 474 kts | 226° |
| 2026-05-09 17:33 | 56.04092 | 173.78518 | 27893 ft | 474 kts | 226° |
| 2026-05-09 17:33 | 56.01705 | 173.74457 | 27890 ft | 473 kts | 227° |
| 2026-05-09 17:34 | 55.99323 | 173.70418 | 27891 ft | 471 kts | 227° |
| 2026-05-09 17:35 | 55.85073 | 173.46368 | 27890 ft | 470 kts | 227° |
| 2026-05-09 17:35 | 55.82693 | 173.42376 | 27887 ft | 469 kts | 227° |
| 2026-05-09 17:36 | 55.80320 | 173.38404 | 27887 ft | 468 kts | 227° |
| 2026-05-09 17:36 | 55.77947 | 173.34437 | 27887 ft | 468 kts | 227° |
| 2026-05-09 17:36 | 55.75571 | 173.30474 | 27887 ft | 467 kts | 227° |
| 2026-05-09 17:36 | 55.73198 | 173.26522 | 27896 ft | 467 kts | 227° |
| 2026-05-09 17:37 | 55.70830 | 173.22585 | 27888 ft | 465 kts | 228° |
| 2026-05-09 17:37 | 55.68468 | 173.18667 | 27893 ft | 464 kts | 228° |
| 2026-05-09 17:37 | 55.66115 | 173.14769 | 27893 ft | 463 kts | 228° |
| 2026-05-09 17:37 | 55.63762 | 173.10879 | 27897 ft | 462 kts | 228° |
| 2026-05-09 17:38 | 55.61413 | 173.07000 | 27895 ft | 461 kts | 228° |
| 2026-05-09 17:38 | 55.59068 | 173.03135 | 27899 ft | 461 kts | 228° |
| 2026-05-09 17:38 | 55.56718 | 172.99270 | 27884 ft | 460 kts | 229° |
| 2026-05-09 17:39 | 55.52027 | 172.91570 | 27894 ft | 460 kts | 229° |
| 2026-05-09 17:39 | 55.49681 | 172.87729 | 27898 ft | 459 kts | 229° |
| 2026-05-09 17:39 | 55.47337 | 172.83896 | 27900 ft | 459 kts | 229° |
| 2026-05-09 17:39 | 55.44993 | 172.80072 | 27899 ft | 460 kts | 229° |
| 2026-05-09 17:40 | 55.42677 | 172.76300 | 27879 ft | 459 kts | 229° |
| 2026-05-09 17:40 | 55.40333 | 172.72489 | 27888 ft | 457 kts | 229° |
| 2026-05-09 17:40 | 55.37999 | 172.68704 | 27894 ft | 456 kts | 229° |
| 2026-05-09 17:40 | 55.35663 | 172.64919 | 27899 ft | 456 kts | 229° |
| 2026-05-09 17:41 | 55.33327 | 172.61139 | 27901 ft | 456 kts | 229° |
| 2026-05-09 17:41 | 55.30995 | 172.57372 | 27898 ft | 456 kts | 229° |
| 2026-05-09 17:41 | 55.28659 | 172.53607 | 27874 ft | 456 kts | 230° |
| 2026-05-09 17:41 | 55.26319 | 172.49844 | 27892 ft | 455 kts | 230° |
| 2026-05-09 17:42 | 55.23986 | 172.46092 | 27898 ft | 455 kts | 230° |
| 2026-05-09 17:42 | 55.21650 | 172.42342 | 27902 ft | 455 kts | 230° |
| 2026-05-09 17:42 | 55.19311 | 172.38596 | 27905 ft | 455 kts | 230° |
| 2026-05-09 17:42 | 55.16972 | 172.34854 | 27899 ft | 456 kts | 230° |
| 2026-05-09 17:43 | 55.14630 | 172.31117 | 27909 ft | 456 kts | 230° |
| 2026-05-09 17:43 | 55.12288 | 172.27383 | 27900 ft | 455 kts | 230° |
| 2026-05-09 17:43 | 55.09947 | 172.23659 | 27901 ft | 455 kts | 230° |
| 2026-05-09 17:43 | 55.07634 | 172.19986 | 27906 ft | 455 kts | 230° |
| 2026-05-09 17:44 | 55.05294 | 172.16276 | 27904 ft | 455 kts | 230° |
| 2026-05-09 17:44 | 55.02950 | 172.12564 | 27903 ft | 454 kts | 230° |
| 2026-05-09 17:44 | 55.00611 | 172.08865 | 27870 ft | 454 kts | 230° |
| 2026-05-09 17:44 | 54.98273 | 172.05175 | 27901 ft | 453 kts | 230° |
| 2026-05-09 17:45 | 54.95931 | 172.01484 | 27900 ft | 453 kts | 230° |
| 2026-05-09 17:45 | 54.93631 | 171.97747 | 27902 ft | 450 kts | 232° |
| 2026-05-09 17:45 | 54.91542 | 171.93748 | 27902 ft | 444 kts | 238° |
| 2026-05-09 17:45 | 54.89616 | 171.89551 | 27911 ft | 444 kts | 238° |
| 2026-05-09 17:46 | 54.87671 | 171.85375 | 27906 ft | 445 kts | 238° |
| 2026-05-09 17:46 | 54.85712 | 171.81219 | 27887 ft | 445 kts | 237° |
| 2026-05-09 17:46 | 54.83743 | 171.77074 | 27897 ft | 445 kts | 237° |
| 2026-05-09 17:46 | 54.81771 | 171.72928 | 27899 ft | 445 kts | 237° |
| 2026-05-09 17:47 | 54.79800 | 171.68788 | 27901 ft | 445 kts | 237° |
| 2026-05-09 17:47 | 54.77829 | 171.64655 | 27902 ft | 445 kts | 237° |
| 2026-05-09 17:47 | 54.75878 | 171.60569 | 27907 ft | 445 kts | 237° |
| 2026-05-09 17:47 | 54.73901 | 171.56434 | 27907 ft | 446 kts | 237° |
| 2026-05-09 17:48 | 54.71920 | 171.52300 | 27900 ft | 446 kts | 237° |
| 2026-05-09 17:48 | 54.69941 | 171.48175 | 27868 ft | 445 kts | 237° |
| 2026-05-09 17:48 | 54.67964 | 171.44060 | 27893 ft | 445 kts | 237° |
| 2026-05-09 17:48 | 54.65982 | 171.39944 | 27894 ft | 445 kts | 237° |
| 2026-05-09 17:49 | 54.64001 | 171.35835 | 27900 ft | 445 kts | 237° |
| 2026-05-09 17:49 | 54.62014 | 171.31727 | 27893 ft | 445 kts | 236° |
| 2026-05-09 17:49 | 54.60031 | 171.27630 | 27899 ft | 445 kts | 236° |
| 2026-05-09 17:49 | 54.58046 | 171.23532 | 27901 ft | 445 kts | 236° |
| 2026-05-09 17:50 | 54.56063 | 171.19443 | 27901 ft | 445 kts | 236° |
| 2026-05-09 17:50 | 54.52087 | 171.11269 | 27902 ft | 445 kts | 236° |
| 2026-05-09 17:50 | 54.50765 | 171.08558 | 27902 ft | 445 kts | 236° |
| 2026-05-09 17:51 | 54.48095 | 171.03093 | 27896 ft | 445 kts | 236° |
| 2026-05-09 17:51 | 54.46104 | 170.99026 | 27901 ft | 445 kts | 236° |
| 2026-05-09 17:51 | 54.44108 | 170.94954 | 27893 ft | 445 kts | 236° |
| 2026-05-09 17:51 | 54.42114 | 170.90893 | 27893 ft | 445 kts | 236° |
| 2026-05-09 17:52 | 54.40116 | 170.86835 | 27854 ft | 444 kts | 235° |
| 2026-05-09 17:52 | 54.38120 | 170.82789 | 27895 ft | 443 kts | 235° |
| 2026-05-09 17:52 | 54.36129 | 170.78753 | 27893 ft | 443 kts | 235° |
| 2026-05-09 17:52 | 54.34138 | 170.74723 | 27897 ft | 442 kts | 235° |
| 2026-05-09 17:53 | 54.32147 | 170.70701 | 27899 ft | 442 kts | 235° |
| 2026-05-09 17:53 | 54.30156 | 170.66685 | 27899 ft | 442 kts | 235° |
| 2026-05-09 17:53 | 54.28166 | 170.62677 | 27899 ft | 442 kts | 235° |
| 2026-05-09 17:53 | 54.26196 | 170.58717 | 27896 ft | 442 kts | 235° |
| 2026-05-09 17:54 | 54.24199 | 170.54710 | 27893 ft | 443 kts | 235° |
| 2026-05-09 17:54 | 54.22202 | 170.50710 | 27893 ft | 443 kts | 235° |
| 2026-05-09 17:54 | 54.20201 | 170.46710 | 27893 ft | 443 kts | 235° |
| 2026-05-09 17:54 | 54.18196 | 170.42706 | 27885 ft | 443 kts | 234° |
| 2026-05-09 17:55 | 54.16192 | 170.38717 | 27889 ft | 443 kts | 234° |
| 2026-05-09 17:55 | 54.14186 | 170.34727 | 27893 ft | 443 kts | 234° |
| 2026-05-09 17:55 | 54.12183 | 170.30743 | 27894 ft | 443 kts | 234° |
| 2026-05-09 17:55 | 54.10174 | 170.26755 | 27858 ft | 443 kts | 234° |
| 2026-05-09 17:56 | 54.08169 | 170.22782 | 27888 ft | 442 kts | 234° |
| 2026-05-09 17:56 | 54.06160 | 170.18809 | 27887 ft | 442 kts | 234° |
| 2026-05-09 17:56 | 54.04153 | 170.14847 | 27892 ft | 442 kts | 234° |
| 2026-05-09 17:57 | 54.00130 | 170.06924 | 27888 ft | 442 kts | 234° |
| 2026-05-09 17:57 | 53.98114 | 170.02965 | 27891 ft | 442 kts | 234° |
| 2026-05-09 17:57 | 53.96099 | 169.99012 | 27891 ft | 443 kts | 234° |
| 2026-05-09 17:57 | 53.94084 | 169.95065 | 27890 ft | 443 kts | 234° |
| 2026-05-09 17:58 | 53.92092 | 169.91171 | 27892 ft | 443 kts | 234° |
| 2026-05-09 17:58 | 53.90072 | 169.87229 | 27884 ft | 443 kts | 234° |
| 2026-05-09 17:58 | 53.88049 | 169.83286 | 27884 ft | 443 kts | 233° |
| 2026-05-09 17:58 | 53.86026 | 169.79349 | 27885 ft | 443 kts | 233° |
| 2026-05-09 17:59 | 53.84001 | 169.75414 | 27883 ft | 443 kts | 233° |
| 2026-05-09 17:59 | 53.81976 | 169.71488 | 27885 ft | 443 kts | 233° |
| 2026-05-09 17:59 | 53.79951 | 169.67565 | 27856 ft | 443 kts | 233° |
| 2026-05-09 17:59 | 53.77925 | 169.63647 | 27882 ft | 442 kts | 233° |
| 2026-05-09 18:00 | 53.76584 | 169.61058 | 27881 ft | 442 kts | 234° |
| 2026-05-09 18:00 | 53.74563 | 169.57150 | 27886 ft | 442 kts | 233° |
| 2026-05-09 18:00 | 53.72539 | 169.53254 | 27887 ft | 441 kts | 233° |
| 2026-05-09 18:00 | 53.70511 | 169.49362 | 27886 ft | 441 kts | 233° |
| 2026-05-09 18:01 | 53.68487 | 169.45478 | 27885 ft | 440 kts | 233° |
| 2026-05-09 18:01 | 53.66463 | 169.41599 | 27885 ft | 440 kts | 233° |
| 2026-05-09 18:01 | 53.64456 | 169.37699 | 27881 ft | 439 kts | 235° |
| 2026-05-09 18:01 | 53.62641 | 169.33594 | 27881 ft | 436 kts | 239° |
| 2026-05-09 18:02 | 53.61017 | 169.29289 | 27884 ft | 434 kts | 243° |
| 2026-05-09 18:02 | 53.59605 | 169.24804 | 27889 ft | 433 kts | 245° |
| 2026-05-09 18:02 | 53.58194 | 169.20320 | 27887 ft | 434 kts | 244° |
| 2026-05-09 18:02 | 53.56768 | 169.15842 | 27882 ft | 434 kts | 244° |
| 2026-05-09 18:03 | 53.55333 | 169.11365 | 27880 ft | 435 kts | 244° |
| 2026-05-09 18:03 | 53.53896 | 169.06896 | 27884 ft | 435 kts | 244° |
| 2026-05-09 18:03 | 53.52453 | 169.02419 | 27883 ft | 435 kts | 244° |
| 2026-05-09 18:03 | 53.51012 | 168.97954 | 27877 ft | 435 kts | 243° |
| 2026-05-09 18:04 | 53.49567 | 168.93484 | 27874 ft | 435 kts | 243° |
| 2026-05-09 18:04 | 53.48122 | 168.89023 | 27876 ft | 435 kts | 243° |
| 2026-05-09 18:04 | 53.46676 | 168.84563 | 27877 ft | 435 kts | 243° |
| 2026-05-09 18:04 | 53.45231 | 168.80113 | 27877 ft | 435 kts | 243° |
| 2026-05-09 18:05 | 53.43782 | 168.75660 | 27869 ft | 435 kts | 243° |
| 2026-05-09 18:05 | 53.42332 | 168.71212 | 27869 ft | 435 kts | 243° |
| 2026-05-09 18:05 | 53.40899 | 168.66824 | 27869 ft | 435 kts | 243° |
| 2026-05-09 18:05 | 53.39447 | 168.62388 | 27869 ft | 435 kts | 243° |
| 2026-05-09 18:06 | 53.37991 | 168.57942 | 27871 ft | 435 kts | 243° |
| 2026-05-09 18:06 | 53.36536 | 168.53510 | 27865 ft | 435 kts | 243° |
| 2026-05-09 18:06 | 53.35077 | 168.49075 | 27864 ft | 435 kts | 243° |
| 2026-05-09 18:06 | 53.33618 | 168.44646 | 27866 ft | 434 kts | 243° |
| 2026-05-09 18:07 | 53.32157 | 168.40218 | 27863 ft | 434 kts | 242° |
| 2026-05-09 18:07 | 53.30695 | 168.35797 | 27863 ft | 434 kts | 242° |
| 2026-05-09 18:07 | 53.29229 | 168.31378 | 27863 ft | 434 kts | 242° |
| 2026-05-09 18:07 | 53.27756 | 168.26959 | 27863 ft | 434 kts | 242° |
| 2026-05-09 18:08 | 53.26286 | 168.22560 | 27860 ft | 434 kts | 242° |
| 2026-05-09 18:08 | 53.24810 | 168.18151 | 27857 ft | 434 kts | 242° |
| 2026-05-09 18:08 | 53.23337 | 168.13752 | 27866 ft | 434 kts | 242° |
| 2026-05-09 18:08 | 53.21861 | 168.09351 | 27859 ft | 435 kts | 241° |
| 2026-05-09 18:09 | 53.20383 | 168.04956 | 27851 ft | 435 kts | 241° |
| 2026-05-09 18:09 | 53.18902 | 168.00562 | 27852 ft | 435 kts | 241° |
| 2026-05-09 18:09 | 53.17418 | 167.96163 | 27852 ft | 435 kts | 241° |
| 2026-05-09 18:09 | 53.15954 | 167.91830 | 27852 ft | 435 kts | 241° |
| 2026-05-09 18:10 | 53.14467 | 167.87440 | 27850 ft | 435 kts | 241° |
| 2026-05-09 18:10 | 53.13462 | 167.84473 | 27849 ft | 435 kts | 241° |
| 2026-05-09 18:10 | 53.11493 | 167.78673 | 27825 ft | 435 kts | 241° |
| 2026-05-09 18:10 | 53.10003 | 167.74293 | 27841 ft | 435 kts | 241° |
| 2026-05-09 18:11 | 53.08507 | 167.69905 | 27849 ft | 435 kts | 240° |
| 2026-05-09 18:11 | 53.07013 | 167.65524 | 27847 ft | 436 kts | 240° |
| 2026-05-09 18:11 | 53.05514 | 167.61140 | 27844 ft | 436 kts | 240° |
| 2026-05-09 18:11 | 53.04010 | 167.56754 | 27842 ft | 437 kts | 240° |
| 2026-05-09 18:12 | 53.02506 | 167.52375 | 27839 ft | 437 kts | 240° |
| 2026-05-09 18:12 | 53.01001 | 167.47999 | 27833 ft | 437 kts | 240° |
| 2026-05-09 18:12 | 52.99490 | 167.43612 | 27834 ft | 437 kts | 240° |
| 2026-05-09 18:12 | 52.97978 | 167.39231 | 27833 ft | 437 kts | 240° |
| 2026-05-09 18:13 | 52.96465 | 167.34856 | 27831 ft | 437 kts | 240° |
| 2026-05-09 18:13 | 52.94953 | 167.30490 | 27825 ft | 437 kts | 240° |
| 2026-05-09 18:13 | 52.93457 | 167.26177 | 27825 ft | 437 kts | 240° |
| 2026-05-09 18:13 | 52.91942 | 167.21817 | 27833 ft | 437 kts | 239° |
| 2026-05-09 18:14 | 52.90420 | 167.17445 | 27825 ft | 437 kts | 239° |
| 2026-05-09 18:14 | 52.88896 | 167.13074 | 27818 ft | 437 kts | 239° |
| 2026-05-09 18:14 | 52.87374 | 167.08719 | 27820 ft | 438 kts | 239° |
| 2026-05-09 18:14 | 52.85848 | 167.04359 | 27819 ft | 438 kts | 239° |
| 2026-05-09 18:15 | 52.84321 | 167.00002 | 27818 ft | 438 kts | 239° |
| 2026-05-09 18:15 | 52.82791 | 166.95646 | 27809 ft | 438 kts | 239° |
| 2026-05-09 18:15 | 52.81260 | 166.91294 | 27808 ft | 438 kts | 239° |
| 2026-05-09 18:15 | 52.79727 | 166.86943 | 27808 ft | 438 kts | 239° |
| 2026-05-09 18:16 | 52.78192 | 166.82596 | 27808 ft | 438 kts | 239° |
| 2026-05-09 18:16 | 52.76655 | 166.78245 | 27814 ft | 438 kts | 238° |
| 2026-05-09 18:16 | 52.75117 | 166.73899 | 27787 ft | 439 kts | 238° |
| 2026-05-09 18:16 | 52.73570 | 166.69542 | 27797 ft | 439 kts | 238° |
| 2026-05-09 18:17 | 52.72025 | 166.65198 | 27797 ft | 440 kts | 238° |
| 2026-05-09 18:17 | 52.70475 | 166.60848 | 27796 ft | 440 kts | 238° |
| 2026-05-09 18:17 | 52.68925 | 166.56506 | 27796 ft | 440 kts | 238° |
| 2026-05-09 18:17 | 52.67371 | 166.52159 | 27792 ft | 440 kts | 238° |
| 2026-05-09 18:18 | 52.65813 | 166.47806 | 27796 ft | 440 kts | 238° |
| 2026-05-09 18:18 | 52.64256 | 166.43462 | 27783 ft | 440 kts | 238° |
| 2026-05-09 18:18 | 52.62715 | 166.39174 | 27782 ft | 440 kts | 238° |
| 2026-05-09 18:18 | 52.61154 | 166.34833 | 27801 ft | 441 kts | 237° |
| 2026-05-09 18:19 | 52.59589 | 166.30489 | 27791 ft | 441 kts | 237° |
| 2026-05-09 18:19 | 52.56451 | 166.21809 | 27775 ft | 442 kts | 237° |
| 2026-05-09 18:19 | 52.54878 | 166.17467 | 27774 ft | 442 kts | 237° |
| 2026-05-09 18:20 | 52.53300 | 166.13121 | 27775 ft | 442 kts | 237° |
| 2026-05-09 18:20 | 52.51726 | 166.08792 | 27771 ft | 442 kts | 237° |
| 2026-05-09 18:20 | 52.50146 | 166.04454 | 27769 ft | 442 kts | 237° |
| 2026-05-09 18:20 | 52.48569 | 166.00130 | 27768 ft | 442 kts | 237° |
| 2026-05-09 18:21 | 52.46987 | 165.95800 | 27768 ft | 442 kts | 237° |
| 2026-05-09 18:21 | 52.45402 | 165.91469 | 27775 ft | 442 kts | 236° |
| 2026-05-09 18:21 | 52.43814 | 165.87140 | 27769 ft | 443 kts | 236° |
| 2026-05-09 18:21 | 52.42224 | 165.82812 | 27763 ft | 444 kts | 236° |
| 2026-05-09 18:22 | 52.40648 | 165.78531 | 27760 ft | 444 kts | 236° |
| 2026-05-09 18:22 | 52.39053 | 165.74201 | 27755 ft | 445 kts | 236° |
| 2026-05-09 18:22 | 52.37453 | 165.69868 | 27739 ft | 444 kts | 236° |
| 2026-05-09 18:22 | 52.35853 | 165.65543 | 27741 ft | 445 kts | 236° |
| 2026-05-09 18:23 | 52.34250 | 165.61217 | 27749 ft | 445 kts | 236° |
| 2026-05-09 18:23 | 52.32644 | 165.56891 | 27744 ft | 445 kts | 236° |
| 2026-05-09 18:23 | 52.31036 | 165.52565 | 27742 ft | 445 kts | 236° |
| 2026-05-09 18:23 | 52.29428 | 165.48246 | 27741 ft | 445 kts | 236° |
| 2026-05-09 18:24 | 52.27817 | 165.43929 | 27740 ft | 445 kts | 236° |
| 2026-05-09 18:24 | 52.26204 | 165.39612 | 27732 ft | 445 kts | 236° |
| 2026-05-09 18:24 | 52.24592 | 165.35306 | 27735 ft | 444 kts | 236° |
| 2026-05-09 18:25 | 52.21363 | 165.26701 | 27735 ft | 444 kts | 236° |
| 2026-05-09 18:25 | 52.19745 | 165.22399 | 27729 ft | 444 kts | 236° |
| 2026-05-09 18:25 | 52.18129 | 165.18113 | 27727 ft | 444 kts | 236° |
| 2026-05-09 18:25 | 52.16510 | 165.13823 | 27730 ft | 444 kts | 236° |
| 2026-05-09 18:26 | 52.14910 | 165.09592 | 27740 ft | 444 kts | 235° |
| 2026-05-09 18:26 | 52.13284 | 165.05295 | 27730 ft | 446 kts | 235° |
| 2026-05-09 18:26 | 52.11649 | 165.00986 | 27726 ft | 447 kts | 235° |
| 2026-05-09 18:26 | 52.10011 | 164.96676 | 27723 ft | 448 kts | 235° |
| 2026-05-09 18:27 | 52.08367 | 164.92359 | 27712 ft | 449 kts | 235° |
| 2026-05-09 18:27 | 52.07275 | 164.89496 | 27706 ft | 449 kts | 235° |
| 2026-05-09 18:27 | 52.05069 | 164.83721 | 27706 ft | 450 kts | 235° |
| 2026-05-09 18:27 | 52.03417 | 164.79401 | 27708 ft | 450 kts | 235° |
| 2026-05-09 18:28 | 52.01765 | 164.75091 | 27695 ft | 450 kts | 235° |
| 2026-05-09 18:28 | 52.00111 | 164.70783 | 27684 ft | 449 kts | 235° |
| 2026-05-09 18:28 | 51.98458 | 164.66482 | 27712 ft | 449 kts | 234° |
| 2026-05-09 18:28 | 51.96808 | 164.62195 | 27705 ft | 449 kts | 234° |
| 2026-05-09 18:29 | 51.95150 | 164.57900 | 27688 ft | 449 kts | 234° |
| 2026-05-09 18:29 | 51.93493 | 164.53615 | 27676 ft | 449 kts | 234° |
| 2026-05-09 18:29 | 51.91833 | 164.49328 | 27675 ft | 448 kts | 234° |
| 2026-05-09 18:29 | 51.90197 | 164.45108 | 27676 ft | 448 kts | 234° |
| 2026-05-09 18:30 | 51.88537 | 164.40837 | 27665 ft | 448 kts | 234° |
| 2026-05-09 18:30 | 51.86876 | 164.36566 | 27665 ft | 448 kts | 234° |
| 2026-05-09 18:30 | 51.85215 | 164.32306 | 27665 ft | 448 kts | 234° |
| 2026-05-09 18:30 | 51.83552 | 164.28045 | 27665 ft | 448 kts | 234° |
| 2026-05-09 18:31 | 51.81888 | 164.23789 | 27690 ft | 448 kts | 234° |
| 2026-05-09 18:31 | 51.80218 | 164.19524 | 27649 ft | 450 kts | 234° |
| 2026-05-09 18:31 | 51.78538 | 164.15244 | 27656 ft | 450 kts | 234° |
| 2026-05-09 18:31 | 51.76859 | 164.10973 | 27639 ft | 450 kts | 234° |
| 2026-05-09 18:32 | 51.75177 | 164.06701 | 27642 ft | 451 kts | 234° |
| 2026-05-09 18:32 | 51.73496 | 164.02435 | 27625 ft | 451 kts | 234° |
| 2026-05-09 18:32 | 51.71808 | 163.98162 | 27631 ft | 451 kts | 234° |
| 2026-05-09 18:32 | 51.70123 | 163.93902 | 27628 ft | 451 kts | 234° |
| 2026-05-09 18:33 | 51.68436 | 163.89644 | 27613 ft | 451 kts | 234° |
| 2026-05-09 18:33 | 51.66769 | 163.85442 | 27634 ft | 451 kts | 234° |
| 2026-05-09 18:33 | 51.65074 | 163.81178 | 27638 ft | 453 kts | 233° |
| 2026-05-09 18:33 | 51.63370 | 163.76895 | 27610 ft | 454 kts | 233° |
| 2026-05-09 18:34 | 51.61671 | 163.72635 | 27598 ft | 451 kts | 233° |
| 2026-05-09 18:34 | 51.59976 | 163.68391 | 27601 ft | 450 kts | 233° |
| 2026-05-09 18:34 | 51.58285 | 163.64168 | 27601 ft | 449 kts | 233° |
| 2026-05-09 18:34 | 51.56594 | 163.59956 | 27593 ft | 448 kts | 233° |
| 2026-05-09 18:35 | 51.54903 | 163.55747 | 27596 ft | 448 kts | 233° |
| 2026-05-09 18:35 | 51.53211 | 163.51545 | 27595 ft | 449 kts | 233° |
| 2026-05-09 18:35 | 51.51512 | 163.47330 | 27594 ft | 449 kts | 233° |
| 2026-05-09 18:35 | 51.49809 | 163.43109 | 27635 ft | 451 kts | 233° |
| 2026-05-09 18:36 | 51.48092 | 163.38865 | 27580 ft | 456 kts | 233° |
| 2026-05-09 18:36 | 51.46362 | 163.34592 | 27579 ft | 457 kts | 233° |
| 2026-05-09 18:36 | 51.44630 | 163.30319 | 27574 ft | 456 kts | 233° |
| 2026-05-09 18:36 | 51.42901 | 163.26058 | 27559 ft | 456 kts | 233° |
| 2026-05-09 18:37 | 51.41170 | 163.21803 | 27557 ft | 456 kts | 233° |
| 2026-05-09 18:37 | 51.39439 | 163.17552 | 27560 ft | 455 kts | 233° |
| 2026-05-09 18:37 | 51.37706 | 163.13304 | 27560 ft | 455 kts | 233° |
| 2026-05-09 18:37 | 51.35995 | 163.09120 | 27549 ft | 455 kts | 233° |
| 2026-05-09 18:38 | 51.34261 | 163.04884 | 27549 ft | 455 kts | 233° |
| 2026-05-09 18:38 | 51.32517 | 163.00631 | 27568 ft | 458 kts | 232° |
| 2026-05-09 18:38 | 51.30760 | 162.96359 | 27546 ft | 460 kts | 232° |
| 2026-05-09 18:40 | 51.18463 | 162.66614 | 27507 ft | 455 kts | 232° |
| 2026-05-09 18:40 | 51.16709 | 162.62402 | 27537 ft | 457 kts | 232° |
| 2026-05-09 18:40 | 51.14967 | 162.58228 | 27498 ft | 460 kts | 232° |
| 2026-05-09 18:41 | 51.13188 | 162.53969 | 27494 ft | 461 kts | 232° |
| 2026-05-09 18:41 | 51.11412 | 162.49724 | 27487 ft | 461 kts | 232° |
| 2026-05-09 18:41 | 51.09635 | 162.45480 | 27476 ft | 460 kts | 232° |
| 2026-05-09 18:41 | 51.07860 | 162.41250 | 27477 ft | 460 kts | 232° |
| 2026-05-09 18:42 | 51.06078 | 162.37009 | 27478 ft | 460 kts | 232° |
| 2026-05-09 18:42 | 51.04300 | 162.32785 | 27465 ft | 460 kts | 232° |
| 2026-05-09 18:42 | 51.02521 | 162.28567 | 27455 ft | 460 kts | 232° |
| 2026-05-09 18:42 | 51.00734 | 162.24335 | 27507 ft | 461 kts | 232° |
| 2026-05-09 18:43 | 50.98939 | 162.20096 | 27470 ft | 465 kts | 232° |
| 2026-05-09 18:43 | 50.97134 | 162.15838 | 27455 ft | 465 kts | 232° |
| 2026-05-09 18:43 | 50.95349 | 162.11633 | 27440 ft | 465 kts | 232° |
| 2026-05-09 18:43 | 50.93543 | 162.07382 | 27451 ft | 464 kts | 232° |
| 2026-05-09 18:44 | 50.91739 | 162.03144 | 27441 ft | 464 kts | 232° |
| 2026-05-09 18:44 | 50.89928 | 161.98898 | 27428 ft | 464 kts | 231° |
| 2026-05-09 18:44 | 50.88120 | 161.94664 | 27441 ft | 464 kts | 231° |
| 2026-05-09 18:44 | 50.86311 | 161.90435 | 27445 ft | 463 kts | 231° |
| 2026-05-09 18:45 | 50.84504 | 161.86220 | 27469 ft | 462 kts | 231° |
| 2026-05-09 18:45 | 50.82691 | 161.81998 | 27422 ft | 463 kts | 231° |
| 2026-05-09 18:45 | 50.80879 | 161.77783 | 27420 ft | 463 kts | 231° |
| 2026-05-09 18:45 | 50.79062 | 161.73564 | 27416 ft | 463 kts | 231° |
| 2026-05-09 18:46 | 50.77251 | 161.69365 | 27406 ft | 462 kts | 231° |
| 2026-05-09 18:46 | 50.75438 | 161.65170 | 27407 ft | 462 kts | 231° |
| 2026-05-09 18:46 | 50.74237 | 161.62394 | 27408 ft | 462 kts | 231° |
| 2026-05-09 18:46 | 50.72424 | 161.58210 | 27407 ft | 462 kts | 231° |
| 2026-05-09 18:47 | 50.70608 | 161.54024 | 27393 ft | 462 kts | 231° |
| 2026-05-09 18:47 | 50.68789 | 161.49840 | 27392 ft | 462 kts | 231° |
| 2026-05-09 18:47 | 50.66969 | 161.45658 | 27391 ft | 463 kts | 231° |
| 2026-05-09 18:47 | 50.65147 | 161.41478 | 27391 ft | 463 kts | 231° |
| 2026-05-09 18:48 | 50.63323 | 161.37301 | 27385 ft | 463 kts | 231° |
| 2026-05-09 18:48 | 50.61496 | 161.33124 | 27383 ft | 463 kts | 231° |
| 2026-05-09 18:48 | 50.59665 | 161.28945 | 27382 ft | 463 kts | 231° |
| 2026-05-09 18:48 | 50.57835 | 161.24775 | 27383 ft | 463 kts | 231° |
| 2026-05-09 18:49 | 50.56003 | 161.20605 | 27376 ft | 463 kts | 231° |
| 2026-05-09 18:49 | 50.54168 | 161.16436 | 27374 ft | 463 kts | 231° |
| 2026-05-09 18:49 | 50.52332 | 161.12273 | 27395 ft | 463 kts | 231° |
| 2026-05-09 18:49 | 50.50487 | 161.08095 | 27392 ft | 466 kts | 231° |
| 2026-05-09 18:50 | 50.48637 | 161.03913 | 27376 ft | 467 kts | 231° |
| 2026-05-09 18:50 | 50.46781 | 160.99724 | 27370 ft | 467 kts | 231° |
| 2026-05-09 18:50 | 50.44952 | 160.95599 | 27359 ft | 466 kts | 231° |
| 2026-05-09 18:50 | 50.43101 | 160.91433 | 27354 ft | 465 kts | 231° |
| 2026-05-09 18:51 | 50.41256 | 160.87285 | 27361 ft | 464 kts | 231° |
| 2026-05-09 18:51 | 50.39410 | 160.83145 | 27348 ft | 463 kts | 231° |
| 2026-05-09 18:51 | 50.37567 | 160.79016 | 27343 ft | 462 kts | 231° |
| 2026-05-09 18:51 | 50.35724 | 160.74896 | 27341 ft | 462 kts | 231° |
| 2026-05-09 18:52 | 50.33875 | 160.70771 | 27376 ft | 466 kts | 231° |
| 2026-05-09 18:52 | 50.32004 | 160.66604 | 27333 ft | 469 kts | 231° |
| 2026-05-09 18:52 | 50.30130 | 160.62431 | 27338 ft | 469 kts | 231° |
| 2026-05-09 18:52 | 50.28255 | 160.58262 | 27331 ft | 468 kts | 231° |
| 2026-05-09 18:53 | 50.26379 | 160.54096 | 27327 ft | 468 kts | 231° |
| 2026-05-09 18:53 | 50.24504 | 160.49941 | 27321 ft | 468 kts | 231° |
| 2026-05-09 18:53 | 50.22629 | 160.45790 | 27316 ft | 468 kts | 231° |
| 2026-05-09 18:53 | 50.20748 | 160.41633 | 27316 ft | 467 kts | 231° |
| 2026-05-09 18:54 | 50.18871 | 160.37498 | 27320 ft | 467 kts | 231° |
| 2026-05-09 18:54 | 50.16977 | 160.33354 | 27333 ft | 471 kts | 231° |
| 2026-05-09 18:54 | 50.15062 | 160.29178 | 27320 ft | 473 kts | 231° |
| 2026-05-09 18:54 | 50.13146 | 160.25008 | 27316 ft | 473 kts | 231° |
| 2026-05-09 18:55 | 50.11256 | 160.20896 | 27304 ft | 472 kts | 231° |
| 2026-05-09 18:55 | 50.09340 | 160.16732 | 27297 ft | 472 kts | 231° |
| 2026-05-09 18:55 | 50.07428 | 160.12581 | 27306 ft | 471 kts | 231° |
| 2026-05-09 18:55 | 50.05522 | 160.08450 | 27304 ft | 469 kts | 231° |
| 2026-05-09 18:56 | 50.03618 | 160.04327 | 27291 ft | 468 kts | 231° |
| 2026-05-09 18:56 | 50.01715 | 160.00215 | 27338 ft | 467 kts | 231° |
| 2026-05-09 18:56 | 49.99812 | 159.96109 | 27293 ft | 468 kts | 231° |
| 2026-05-09 18:56 | 49.97905 | 159.92002 | 27288 ft | 468 kts | 231° |
| 2026-05-09 18:57 | 49.95999 | 159.87903 | 27293 ft | 468 kts | 231° |
| 2026-05-09 18:57 | 49.94088 | 159.83799 | 27288 ft | 469 kts | 231° |
| 2026-05-09 18:57 | 49.92177 | 159.79701 | 27291 ft | 469 kts | 231° |
| 2026-05-09 18:57 | 49.90261 | 159.75600 | 27284 ft | 469 kts | 231° |
| 2026-05-09 18:58 | 49.88343 | 159.71501 | 27283 ft | 469 kts | 231° |
| 2026-05-09 18:58 | 49.86451 | 159.67462 | 27282 ft | 470 kts | 231° |
| 2026-05-09 18:58 | 49.84528 | 159.63363 | 27317 ft | 471 kts | 231° |
| 2026-05-09 18:58 | 49.82593 | 159.59246 | 27288 ft | 474 kts | 231° |
| 2026-05-09 18:59 | 49.80647 | 159.55113 | 27283 ft | 474 kts | 231° |
| 2026-05-09 18:59 | 49.78702 | 159.50985 | 27274 ft | 474 kts | 231° |
| 2026-05-09 18:59 | 49.76756 | 159.46861 | 27268 ft | 474 kts | 231° |
| 2026-05-09 18:59 | 49.74810 | 159.42744 | 27270 ft | 474 kts | 231° |
| 2026-05-09 19:00 | 49.72865 | 159.38634 | 27270 ft | 474 kts | 231° |
| 2026-05-09 19:00 | 49.68951 | 159.30441 | 27263 ft | 473 kts | 230° |
| 2026-05-09 19:00 | 49.66965 | 159.26380 | 27279 ft | 474 kts | 230° |
| 2026-05-09 19:01 | 49.64969 | 159.22327 | 27270 ft | 474 kts | 230° |
| 2026-05-09 19:01 | 49.62971 | 159.18279 | 27264 ft | 474 kts | 230° |
| 2026-05-09 19:01 | 49.60996 | 159.14279 | 27260 ft | 475 kts | 230° |
| 2026-05-09 19:01 | 49.58997 | 159.10230 | 27259 ft | 475 kts | 230° |
| 2026-05-09 19:02 | 49.56971 | 159.06127 | 27255 ft | 475 kts | 230° |
| 2026-05-09 19:02 | 49.55000 | 159.02136 | 27255 ft | 475 kts | 230° |
| 2026-05-09 19:02 | 49.53000 | 158.98089 | 27254 ft | 475 kts | 230° |
| 2026-05-09 19:02 | 49.50997 | 158.94045 | 27280 ft | 475 kts | 230° |
| 2026-05-09 19:03 | 49.48992 | 158.90000 | 27254 ft | 476 kts | 230° |
| 2026-05-09 19:03 | 49.46978 | 158.85944 | 27252 ft | 476 kts | 230° |
| 2026-05-09 19:03 | 49.44966 | 158.81900 | 27248 ft | 477 kts | 230° |
| 2026-05-09 19:03 | 49.42954 | 158.77859 | 27236 ft | 477 kts | 230° |
| 2026-05-09 19:04 | 49.40935 | 158.73813 | 27234 ft | 477 kts | 230° |
| 2026-05-09 19:04 | 49.38916 | 158.69772 | 27235 ft | 477 kts | 230° |
| 2026-05-09 19:04 | 49.36896 | 158.65734 | 27232 ft | 477 kts | 230° |
| 2026-05-09 19:04 | 49.34875 | 158.61702 | 27232 ft | 477 kts | 230° |
| 2026-05-09 19:05 | 49.32850 | 158.57671 | 27249 ft | 478 kts | 230° |
| 2026-05-09 19:05 | 49.30822 | 158.53638 | 27234 ft | 476 kts | 230° |
| 2026-05-09 19:05 | 49.28806 | 158.49632 | 27221 ft | 475 kts | 230° |
| 2026-05-09 19:05 | 49.26792 | 158.45636 | 27223 ft | 473 kts | 230° |
| 2026-05-09 19:06 | 49.24784 | 158.41658 | 27223 ft | 472 kts | 230° |
| 2026-05-09 19:06 | 49.22776 | 158.37688 | 27211 ft | 471 kts | 230° |
| 2026-05-09 19:06 | 49.20799 | 158.33783 | 27211 ft | 470 kts | 230° |
| 2026-05-09 19:06 | 49.18793 | 158.29829 | 27211 ft | 470 kts | 230° |
| 2026-05-09 19:07 | 49.16790 | 158.25887 | 27224 ft | 470 kts | 230° |
| 2026-05-09 19:07 | 49.14767 | 158.21917 | 27211 ft | 475 kts | 231° |
| 2026-05-09 19:07 | 49.12732 | 158.17924 | 27204 ft | 477 kts | 231° |
| 2026-05-09 19:07 | 49.10694 | 158.13928 | 27200 ft | 476 kts | 231° |
| 2026-05-09 19:08 | 49.08658 | 158.09941 | 27191 ft | 476 kts | 230° |
| 2026-05-09 19:08 | 49.06620 | 158.05958 | 27186 ft | 476 kts | 230° |
| 2026-05-09 19:08 | 49.04583 | 158.01983 | 27189 ft | 476 kts | 230° |
| 2026-05-09 19:08 | 49.02547 | 157.98016 | 27180 ft | 475 kts | 230° |
| 2026-05-09 19:09 | 49.00506 | 157.94045 | 27183 ft | 475 kts | 230° |
| 2026-05-09 19:09 | 48.98463 | 157.90079 | 27173 ft | 475 kts | 230° |
| 2026-05-09 19:09 | 48.96425 | 157.86125 | 27167 ft | 475 kts | 230° |
| 2026-05-09 19:09 | 48.94381 | 157.82168 | 27164 ft | 475 kts | 230° |
| 2026-05-09 19:10 | 48.92342 | 157.78225 | 27168 ft | 473 kts | 230° |
| 2026-05-09 19:10 | 48.90310 | 157.74301 | 27165 ft | 471 kts | 230° |
| 2026-05-09 19:10 | 48.88286 | 157.70398 | 27160 ft | 469 kts | 230° |
| 2026-05-09 19:10 | 48.86268 | 157.66512 | 27166 ft | 468 kts | 230° |
| 2026-05-09 19:11 | 48.84282 | 157.62695 | 27159 ft | 467 kts | 230° |
| 2026-05-09 19:11 | 48.82269 | 157.58832 | 27163 ft | 467 kts | 231° |
| 2026-05-09 19:11 | 48.80247 | 157.54958 | 27160 ft | 468 kts | 231° |
| 2026-05-09 19:11 | 48.78219 | 157.51075 | 27161 ft | 470 kts | 231° |
| 2026-05-09 19:12 | 48.76182 | 157.47182 | 27164 ft | 471 kts | 231° |
| 2026-05-09 19:12 | 48.74140 | 157.43284 | 27148 ft | 473 kts | 231° |
| 2026-05-09 19:12 | 48.72093 | 157.39383 | 27142 ft | 473 kts | 231° |
| 2026-05-09 19:12 | 48.70042 | 157.35479 | 27134 ft | 473 kts | 231° |
| 2026-05-09 19:13 | 48.67991 | 157.31581 | 27141 ft | 474 kts | 231° |
| 2026-05-09 19:13 | 48.65936 | 157.27682 | 27130 ft | 474 kts | 231° |
| 2026-05-09 19:13 | 48.63878 | 157.23785 | 27139 ft | 475 kts | 231° |
| 2026-05-09 19:13 | 48.61817 | 157.19885 | 27119 ft | 475 kts | 231° |
| 2026-05-09 19:14 | 48.59749 | 157.15977 | 27124 ft | 476 kts | 231° |
| 2026-05-09 19:14 | 48.57678 | 157.12071 | 27121 ft | 476 kts | 231° |
| 2026-05-09 19:14 | 48.55606 | 157.08167 | 27120 ft | 476 kts | 231° |
| 2026-05-09 19:14 | 48.53534 | 157.04269 | 27096 ft | 475 kts | 231° |
| 2026-05-09 19:15 | 48.51493 | 157.00435 | 27104 ft | 473 kts | 231° |
| 2026-05-09 19:15 | 48.49435 | 156.96575 | 27098 ft | 472 kts | 231° |
| 2026-05-09 19:15 | 48.47378 | 156.92723 | 27103 ft | 471 kts | 231° |
| 2026-05-09 19:15 | 48.45319 | 156.88874 | 27095 ft | 472 kts | 231° |
| 2026-05-09 19:16 | 48.43256 | 156.85020 | 27093 ft | 472 kts | 231° |
| 2026-05-09 19:16 | 48.41189 | 156.81166 | 27082 ft | 473 kts | 231° |
| 2026-05-09 19:16 | 48.39120 | 156.77312 | 27077 ft | 474 kts | 231° |
| 2026-05-09 19:16 | 48.37046 | 156.73455 | 27075 ft | 474 kts | 231° |
| 2026-05-09 19:17 | 48.34965 | 156.69592 | 27076 ft | 475 kts | 231° |
| 2026-05-09 19:17 | 48.32887 | 156.65738 | 27063 ft | 475 kts | 231° |
| 2026-05-09 19:17 | 48.30803 | 156.61881 | 27067 ft | 476 kts | 231° |
| 2026-05-09 19:17 | 48.28713 | 156.58016 | 27061 ft | 477 kts | 231° |
| 2026-05-09 19:18 | 48.26617 | 156.54147 | 27064 ft | 477 kts | 231° |
| 2026-05-09 19:18 | 48.24520 | 156.50281 | 27062 ft | 478 kts | 231° |
| 2026-05-09 19:18 | 48.22418 | 156.46410 | 27050 ft | 479 kts | 231° |
| 2026-05-09 19:18 | 48.20315 | 156.42543 | 27039 ft | 479 kts | 231° |
| 2026-05-09 19:19 | 48.18205 | 156.38672 | 27038 ft | 479 kts | 231° |
| 2026-05-09 19:19 | 48.16098 | 156.34808 | 27037 ft | 478 kts | 231° |
| 2026-05-09 19:19 | 48.14022 | 156.31008 | 27042 ft | 476 kts | 231° |
| 2026-05-09 19:19 | 48.11896 | 156.27128 | 27041 ft | 477 kts | 232° |
| 2026-05-09 19:20 | 48.09814 | 156.23327 | 27043 ft | 479 kts | 232° |
| 2026-05-09 19:20 | 48.07697 | 156.19467 | 27030 ft | 481 kts | 232° |
| 2026-05-09 19:20 | 48.05572 | 156.15598 | 27028 ft | 481 kts | 232° |
| 2026-05-09 19:20 | 48.03446 | 156.11734 | 27024 ft | 482 kts | 232° |
| 2026-05-09 19:21 | 48.01316 | 156.07868 | 27023 ft | 481 kts | 232° |
| 2026-05-09 19:21 | 47.99189 | 156.04015 | 27023 ft | 481 kts | 231° |
| 2026-05-09 19:21 | 47.97061 | 156.00164 | 27019 ft | 480 kts | 231° |
| 2026-05-09 19:21 | 47.94932 | 155.96316 | 27014 ft | 480 kts | 232° |
| 2026-05-09 19:22 | 47.92803 | 155.92475 | 27010 ft | 480 kts | 232° |
| 2026-05-09 19:22 | 47.90672 | 155.88635 | 27010 ft | 480 kts | 232° |
| 2026-05-09 19:22 | 47.88538 | 155.84796 | 27010 ft | 481 kts | 232° |
| 2026-05-09 19:22 | 47.86429 | 155.81008 | 27008 ft | 481 kts | 232° |
| 2026-05-09 19:23 | 47.84291 | 155.77173 | 27011 ft | 481 kts | 232° |
| 2026-05-09 19:23 | 47.82152 | 155.73340 | 27013 ft | 481 kts | 232° |
| 2026-05-09 19:23 | 47.80012 | 155.69511 | 27013 ft | 482 kts | 232° |
| 2026-05-09 19:23 | 47.77861 | 155.65670 | 26976 ft | 482 kts | 233° |
| 2026-05-09 19:24 | 47.75716 | 155.61844 | 26998 ft | 481 kts | 232° |
| 2026-05-09 19:24 | 47.73579 | 155.58038 | 26988 ft | 479 kts | 232° |
| 2026-05-09 19:24 | 47.71442 | 155.54236 | 27011 ft | 478 kts | 232° |
| 2026-05-09 19:24 | 47.69312 | 155.50453 | 27007 ft | 477 kts | 232° |
| 2026-05-09 19:25 | 47.67180 | 155.46671 | 27002 ft | 476 kts | 232° |
| 2026-05-09 19:25 | 47.65054 | 155.42905 | 27025 ft | 476 kts | 232° |
| 2026-05-09 19:25 | 47.62931 | 155.39148 | 27010 ft | 476 kts | 232° |
| 2026-05-09 19:25 | 47.60802 | 155.35386 | 27010 ft | 475 kts | 233° |
| 2026-05-09 19:26 | 47.58676 | 155.31636 | 27022 ft | 476 kts | 233° |
| 2026-05-09 19:26 | 47.56547 | 155.27885 | 27022 ft | 476 kts | 233° |
| 2026-05-09 19:26 | 47.54408 | 155.24122 | 27023 ft | 477 kts | 233° |
| 2026-05-09 19:26 | 47.52274 | 155.20374 | 27023 ft | 477 kts | 233° |
| 2026-05-09 19:27 | 47.50134 | 155.16619 | 27039 ft | 477 kts | 233° |
| 2026-05-09 19:27 | 47.48019 | 155.12913 | 27038 ft | 478 kts | 233° |
| 2026-05-09 19:27 | 47.45875 | 155.09162 | 27028 ft | 478 kts | 233° |
| 2026-05-09 19:27 | 47.43728 | 155.05415 | 27036 ft | 477 kts | 234° |
| 2026-05-09 19:28 | 47.41587 | 155.01680 | 27042 ft | 476 kts | 234° |
| 2026-05-09 19:28 | 47.39446 | 154.97950 | 27034 ft | 475 kts | 234° |
| 2026-05-09 19:28 | 47.37311 | 154.94235 | 27066 ft | 474 kts | 234° |
| 2026-05-09 19:28 | 47.35182 | 154.90537 | 27067 ft | 472 kts | 234° |
| 2026-05-09 19:29 | 47.33058 | 154.86852 | 27069 ft | 471 kts | 234° |
| 2026-05-09 19:29 | 47.30935 | 154.83173 | 27083 ft | 471 kts | 234° |
| 2026-05-09 19:29 | 47.28811 | 154.79497 | 27082 ft | 470 kts | 234° |
| 2026-05-09 19:29 | 47.26688 | 154.75828 | 27084 ft | 470 kts | 234° |
| 2026-05-09 19:30 | 47.24567 | 154.72166 | 27110 ft | 470 kts | 234° |
| 2026-05-09 19:30 | 47.22442 | 154.68503 | 27112 ft | 470 kts | 234° |
| 2026-05-09 19:30 | 47.20315 | 154.64842 | 27113 ft | 471 kts | 234° |
| 2026-05-09 19:30 | 47.18189 | 154.61187 | 27114 ft | 471 kts | 234° |
| 2026-05-09 19:31 | 47.16056 | 154.57526 | 27109 ft | 471 kts | 234° |
| 2026-05-09 19:31 | 47.13923 | 154.53869 | 27105 ft | 472 kts | 234° |
| 2026-05-09 19:31 | 47.11786 | 154.50212 | 27105 ft | 472 kts | 234° |
| 2026-05-09 19:31 | 47.09677 | 154.46610 | 27117 ft | 471 kts | 234° |
| 2026-05-09 19:32 | 47.07542 | 154.42966 | 27124 ft | 470 kts | 234° |
| 2026-05-09 19:32 | 47.05408 | 154.39326 | 27127 ft | 470 kts | 234° |
| 2026-05-09 19:32 | 47.03277 | 154.35697 | 27158 ft | 470 kts | 234° |
| 2026-05-09 19:32 | 47.01145 | 154.32072 | 27138 ft | 469 kts | 234° |
| 2026-05-09 19:33 | 46.99017 | 154.28457 | 27152 ft | 468 kts | 234° |
| 2026-05-09 19:33 | 46.96892 | 154.24855 | 27186 ft | 466 kts | 234° |
| 2026-05-09 19:33 | 46.94773 | 154.21268 | 27184 ft | 465 kts | 234° |
| 2026-05-09 19:33 | 46.92659 | 154.17694 | 27171 ft | 463 kts | 234° |
| 2026-05-09 19:34 | 46.90553 | 154.14138 | 27207 ft | 462 kts | 234° |
| 2026-05-09 19:34 | 46.89160 | 154.11787 | 27209 ft | 461 kts | 234° |
| 2026-05-09 19:34 | 46.87063 | 154.08250 | 27213 ft | 460 kts | 234° |
| 2026-05-09 19:34 | 46.84970 | 154.04727 | 27212 ft | 459 kts | 234° |
| 2026-05-09 19:35 | 46.82876 | 154.01205 | 27239 ft | 459 kts | 234° |
| 2026-05-09 19:35 | 46.80781 | 153.97685 | 27241 ft | 459 kts | 234° |
| 2026-05-09 19:35 | 46.78679 | 153.94161 | 27241 ft | 460 kts | 234° |
| 2026-05-09 19:35 | 46.76579 | 153.90643 | 27232 ft | 460 kts | 234° |
| 2026-05-09 19:36 | 46.74480 | 153.87131 | 27276 ft | 460 kts | 234° |
| 2026-05-09 19:36 | 46.71692 | 153.82475 | 27272 ft | 460 kts | 234° |
| 2026-05-09 19:36 | 46.69585 | 153.78959 | 27267 ft | 460 kts | 234° |
| 2026-05-09 19:36 | 46.68163 | 153.76589 | 27295 ft | 459 kts | 234° |
| 2026-05-09 19:37 | 46.66062 | 153.73087 | 27298 ft | 458 kts | 234° |
| 2026-05-09 19:37 | 46.63959 | 153.69597 | 27272 ft | 458 kts | 234° |
| 2026-05-09 19:37 | 46.61860 | 153.66116 | 27326 ft | 458 kts | 233° |
| 2026-05-09 19:37 | 46.59786 | 153.62683 | 27282 ft | 457 kts | 234° |
| 2026-05-09 19:38 | 46.57682 | 153.59213 | 27306 ft | 458 kts | 233° |
| 2026-05-09 19:38 | 46.55581 | 153.55734 | 27347 ft | 458 kts | 234° |
| 2026-05-09 19:38 | 46.53477 | 153.52253 | 27336 ft | 458 kts | 234° |
| 2026-05-09 19:38 | 46.51371 | 153.48775 | 27337 ft | 458 kts | 234° |
| 2026-05-09 19:39 | 46.49266 | 153.45307 | 27360 ft | 458 kts | 234° |
| 2026-05-09 19:39 | 46.47156 | 153.41843 | 27357 ft | 458 kts | 233° |
| 2026-05-09 19:39 | 46.45037 | 153.38370 | 27349 ft | 460 kts | 234° |
| 2026-05-09 19:39 | 46.42916 | 153.34892 | 27345 ft | 461 kts | 233° |
| 2026-05-09 19:40 | 46.40773 | 153.31380 | 27370 ft | 467 kts | 233° |
| 2026-05-09 19:40 | 46.38606 | 153.27832 | 27361 ft | 472 kts | 234° |
| 2026-05-09 19:40 | 46.36439 | 153.24288 | 27377 ft | 469 kts | 233° |
| 2026-05-09 19:40 | 46.34270 | 153.20742 | 27427 ft | 470 kts | 233° |
| 2026-05-09 19:41 | 46.32091 | 153.17196 | 27406 ft | 471 kts | 232° |
| 2026-05-09 19:41 | 46.29915 | 153.13648 | 27412 ft | 472 kts | 233° |
| 2026-05-09 19:41 | 46.27728 | 153.10085 | 27430 ft | 473 kts | 233° |
| 2026-05-09 19:41 | 46.25538 | 153.06529 | 27397 ft | 473 kts | 233° |
| 2026-05-09 19:42 | 46.23353 | 153.02978 | 27431 ft | 471 kts | 233° |
| 2026-05-09 19:42 | 46.21167 | 152.99439 | 27448 ft | 472 kts | 232° |
| 2026-05-09 19:42 | 46.18966 | 152.95917 | 27427 ft | 473 kts | 231° |
| 2026-05-09 19:42 | 46.16718 | 152.92458 | 27466 ft | 470 kts | 232° |
| 2026-05-09 19:43 | 46.14549 | 152.89026 | 27482 ft | 468 kts | 232° |
| 2026-05-09 19:43 | 46.12363 | 152.85537 | 27446 ft | 468 kts | 232° |
| 2026-05-09 19:43 | 46.10181 | 152.82037 | 27471 ft | 471 kts | 231° |
| 2026-05-09 19:43 | 46.07984 | 152.78527 | 27497 ft | 467 kts | 233° |
| 2026-05-09 19:44 | 46.05810 | 152.75058 | 27466 ft | 468 kts | 232° |
| 2026-05-09 19:44 | 46.03638 | 152.71600 | 27494 ft | 465 kts | 232° |
| 2026-05-09 19:44 | 46.01477 | 152.68156 | 27508 ft | 462 kts | 233° |
| 2026-05-09 19:44 | 45.99319 | 152.64731 | 27504 ft | 460 kts | 233° |
| 2026-05-09 19:45 | 45.97168 | 152.61333 | 27500 ft | 459 kts | 233° |
| 2026-05-09 19:45 | 45.95009 | 152.57950 | 27517 ft | 463 kts | 231° |
| 2026-05-09 19:45 | 45.92809 | 152.54516 | 27511 ft | 469 kts | 232° |
| 2026-05-09 19:45 | 45.90603 | 152.51044 | 27508 ft | 472 kts | 230° |
| 2026-05-09 19:46 | 45.88400 | 152.47589 | 27538 ft | 467 kts | 231° |
| 2026-05-09 19:46 | 45.86219 | 152.44159 | 27557 ft | 463 kts | 232° |
| 2026-05-09 19:46 | 45.84048 | 152.40753 | 27520 ft | 462 kts | 232° |
| 2026-05-09 19:46 | 45.81884 | 152.37363 | 27541 ft | 461 kts | 231° |
| 2026-05-09 19:47 | 45.79697 | 152.33952 | 27558 ft | 469 kts | 231° |
| 2026-05-09 19:47 | 45.77482 | 152.30486 | 27562 ft | 473 kts | 231° |
| 2026-05-09 19:47 | 45.75266 | 152.27020 | 27547 ft | 471 kts | 231° |
| 2026-05-09 19:47 | 45.73084 | 152.23616 | 27559 ft | 469 kts | 231° |
| 2026-05-09 19:48 | 45.70877 | 152.20183 | 27550 ft | 467 kts | 232° |
| 2026-05-09 19:48 | 45.68678 | 152.16768 | 27571 ft | 466 kts | 230° |
| 2026-05-09 19:48 | 45.66478 | 152.13362 | 27599 ft | 465 kts | 232° |
| 2026-05-09 19:48 | 45.64284 | 152.09967 | 27564 ft | 465 kts | 231° |
| 2026-05-09 19:49 | 45.62090 | 152.06579 | 27585 ft | 465 kts | 231° |
| 2026-05-09 19:49 | 45.59894 | 152.03183 | 27596 ft | 466 kts | 231° |
| 2026-05-09 19:49 | 45.57690 | 151.99775 | 27569 ft | 468 kts | 231° |
| 2026-05-09 19:49 | 45.55487 | 151.96368 | 27609 ft | 466 kts | 232° |
| 2026-05-09 19:50 | 45.53285 | 151.92973 | 27601 ft | 466 kts | 231° |
| 2026-05-09 19:50 | 45.51073 | 151.89584 | 27604 ft | 467 kts | 230° |
| 2026-05-09 19:50 | 45.48865 | 151.86198 | 27592 ft | 465 kts | 231° |
| 2026-05-09 19:50 | 45.46669 | 151.82827 | 27604 ft | 463 kts | 231° |
| 2026-05-09 19:51 | 45.44486 | 151.79478 | 27602 ft | 460 kts | 231° |
| 2026-05-09 19:51 | 45.42301 | 151.76151 | 27594 ft | 460 kts | 230° |
| 2026-05-09 19:51 | 45.40107 | 151.72808 | 27605 ft | 463 kts | 230° |
| 2026-05-09 19:51 | 45.37897 | 151.69434 | 27598 ft | 467 kts | 230° |
| 2026-05-09 19:52 | 45.35693 | 151.66067 | 27612 ft | 464 kts | 230° |
| 2026-05-09 19:52 | 45.33501 | 151.62716 | 27638 ft | 461 kts | 230° |
| 2026-05-09 19:52 | 45.31305 | 151.59384 | 27620 ft | 462 kts | 230° |
| 2026-05-09 19:52 | 45.29142 | 151.56094 | 27614 ft | 462 kts | 230° |
| 2026-05-09 19:53 | 45.26949 | 151.52765 | 27640 ft | 462 kts | 230° |
| 2026-05-09 19:53 | 45.24746 | 151.49431 | 27631 ft | 464 kts | 230° |
| 2026-05-09 19:53 | 45.22535 | 151.46084 | 27626 ft | 466 kts | 229° |
| 2026-05-09 19:53 | 45.20314 | 151.42724 | 27650 ft | 468 kts | 229° |
| 2026-05-09 19:54 | 45.18087 | 151.39360 | 27653 ft | 470 kts | 229° |
| 2026-05-09 19:54 | 45.15846 | 151.35985 | 27670 ft | 469 kts | 230° |
| 2026-05-09 19:54 | 45.13607 | 151.32615 | 27664 ft | 468 kts | 230° |
| 2026-05-09 19:54 | 45.11376 | 151.29260 | 27643 ft | 467 kts | 229° |
| 2026-05-09 19:55 | 45.09147 | 151.25918 | 27664 ft | 467 kts | 229° |
| 2026-05-09 19:55 | 45.06918 | 151.22578 | 27631 ft | 467 kts | 230° |
| 2026-05-09 19:55 | 45.04689 | 151.19234 | 27668 ft | 467 kts | 229° |
| 2026-05-09 19:56 | 45.00235 | 151.12561 | 27674 ft | 466 kts | 230° |
| 2026-05-09 19:56 | 44.98012 | 151.09236 | 27675 ft | 465 kts | 230° |
| 2026-05-09 19:56 | 44.95788 | 151.05919 | 27680 ft | 464 kts | 229° |
| 2026-05-09 19:56 | 44.93567 | 151.02611 | 27686 ft | 464 kts | 229° |
| 2026-05-09 19:57 | 44.91368 | 150.99350 | 27674 ft | 465 kts | 229° |
| 2026-05-09 19:57 | 44.89139 | 150.96040 | 27687 ft | 465 kts | 229° |
| 2026-05-09 19:57 | 44.86909 | 150.92730 | 27692 ft | 466 kts | 229° |
| 2026-05-09 19:57 | 44.84672 | 150.89413 | 27698 ft | 467 kts | 229° |
| 2026-05-09 19:58 | 44.82427 | 150.86095 | 27697 ft | 467 kts | 229° |
| 2026-05-09 19:58 | 44.80191 | 150.82787 | 27694 ft | 466 kts | 229° |
| 2026-05-09 19:58 | 44.77960 | 150.79483 | 27711 ft | 465 kts | 229° |
| 2026-05-09 19:58 | 44.75722 | 150.76187 | 27695 ft | 466 kts | 228° |
| 2026-05-09 19:59 | 44.73482 | 150.72885 | 27700 ft | 466 kts | 229° |
| 2026-05-09 19:59 | 44.71245 | 150.69591 | 27710 ft | 466 kts | 229° |
| 2026-05-09 19:59 | 44.69006 | 150.66297 | 27717 ft | 466 kts | 229° |
| 2026-05-09 19:59 | 44.66769 | 150.63007 | 27728 ft | 466 kts | 229° |
| 2026-05-09 20:00 | 44.64526 | 150.59720 | 27735 ft | 465 kts | 228° |
| 2026-05-09 20:00 | 44.62287 | 150.56442 | 27731 ft | 466 kts | 228° |
| 2026-05-09 20:00 | 44.60048 | 150.53159 | 27750 ft | 465 kts | 229° |
| 2026-05-09 20:00 | 44.57813 | 150.49892 | 27729 ft | 465 kts | 229° |
| 2026-05-09 20:01 | 44.55573 | 150.46624 | 27738 ft | 464 kts | 228° |
| 2026-05-09 20:01 | 44.53334 | 150.43366 | 27741 ft | 464 kts | 228° |
| 2026-05-09 20:01 | 44.51123 | 150.40149 | 27749 ft | 464 kts | 228° |
| 2026-05-09 20:01 | 44.48882 | 150.36888 | 27754 ft | 464 kts | 229° |
| 2026-05-09 20:02 | 44.46642 | 150.33635 | 27765 ft | 464 kts | 228° |
| 2026-05-09 20:02 | 44.44401 | 150.30382 | 27758 ft | 464 kts | 228° |
| 2026-05-09 20:02 | 44.42157 | 150.27129 | 27762 ft | 464 kts | 228° |
| 2026-05-09 20:03 | 44.37675 | 150.20644 | 27758 ft | 463 kts | 228° |
| 2026-05-09 20:03 | 44.35433 | 150.17407 | 27768 ft | 463 kts | 228° |
| 2026-05-09 20:03 | 44.33189 | 150.14171 | 27775 ft | 463 kts | 228° |
| 2026-05-09 20:03 | 44.30949 | 150.10945 | 27767 ft | 463 kts | 228° |
| 2026-05-09 20:04 | 44.28707 | 150.07718 | 27766 ft | 463 kts | 228° |
| 2026-05-09 20:04 | 44.26466 | 150.04497 | 27783 ft | 462 kts | 228° |
| 2026-05-09 20:04 | 44.24225 | 150.01279 | 27789 ft | 462 kts | 228° |
| 2026-05-09 20:04 | 44.21984 | 149.98065 | 27769 ft | 462 kts | 228° |
| 2026-05-09 20:05 | 44.19741 | 149.94853 | 27789 ft | 462 kts | 228° |
| 2026-05-09 20:05 | 44.17499 | 149.91645 | 27792 ft | 462 kts | 228° |
| 2026-05-09 20:05 | 44.15256 | 149.88440 | 27789 ft | 462 kts | 228° |
| 2026-05-09 20:05 | 44.13013 | 149.85238 | 27790 ft | 462 kts | 228° |
| 2026-05-09 20:06 | 44.10768 | 149.82037 | 27795 ft | 462 kts | 228° |